<?xml version="1.0" encoding="UTF-8" standalone="no" ?>
<gpx xmlns="http://www.topografix.com/GPX/1/1" xmlns:xsi="http://www.w3.org/2001/XMLSchema-instance" xsi:schemaLocation="http://www.topografix.com/GPX/1/1 http://www.topografix.com/GPX/1/1/gpx.xsd" version="1.1" creator="VisuGPX - https://www.visugpx.com">
  <metadata>
    <name>13527722-Castellane / Rougon GR4</name>
  </metadata>
  <trk>
    <name><![CDATA[13527722-Castellane / Rougon GR4]]></name>
    <extensions>
      <line xmlns="http://www.topografix.com/GPX/gpx_style/0/2">
        <color>0000FF</color>
        <width>4</width>
      </line>
    </extensions>
    <trkseg>
      <trkpt lat="43.85173" lon="6.50802">
        <ele>747</ele>
        <time>2021-08-13T18:04:57.000Z</time>
      </trkpt>
      <trkpt lat="43.85175" lon="6.50806">
        <ele>747</ele>
        <time>2021-08-13T18:04:57.951Z</time>
      </trkpt>
      <trkpt lat="43.85171" lon="6.50817">
        <ele>747</ele>
        <time>2021-08-13T18:05:00.357Z</time>
      </trkpt>
      <trkpt lat="43.85166" lon="6.50815">
        <ele>747</ele>
        <time>2021-08-13T18:05:01.766Z</time>
      </trkpt>
      <trkpt lat="43.85152" lon="6.5082">
        <ele>747</ele>
        <time>2021-08-13T18:05:05.682Z</time>
      </trkpt>
      <trkpt lat="43.85147" lon="6.50826">
        <ele>747</ele>
        <time>2021-08-13T18:05:07.473Z</time>
      </trkpt>
      <trkpt lat="43.85139" lon="6.5082">
        <ele>747</ele>
        <time>2021-08-13T18:05:09.936Z</time>
      </trkpt>
      <trkpt lat="43.85117" lon="6.50808">
        <ele>746</ele>
        <time>2021-08-13T18:05:12.867Z</time>
      </trkpt>
      <trkpt lat="43.85115" lon="6.50803">
        <ele>746</ele>
        <time>2021-08-13T18:05:13.984Z</time>
      </trkpt>
      <trkpt lat="43.85019" lon="6.50852">
        <ele>744</ele>
        <time>2021-08-13T18:05:30.064Z</time>
      </trkpt>
      <trkpt lat="43.85018" lon="6.5086">
        <ele>745</ele>
        <time>2021-08-13T18:05:36.182Z</time>
      </trkpt>
      <trkpt lat="43.85012" lon="6.50871">
        <ele>746</ele>
        <time>2021-08-13T18:05:43.224Z</time>
      </trkpt>
      <trkpt lat="43.84983" lon="6.50891">
        <ele>744</ele>
        <time>2021-08-13T18:05:46.624Z</time>
      </trkpt>
      <trkpt lat="43.84978" lon="6.5089">
        <ele>744</ele>
        <time>2021-08-13T18:05:47.992Z</time>
      </trkpt>
      <trkpt lat="43.84952" lon="6.50905">
        <ele>742</ele>
        <time>2021-08-13T18:05:51.099Z</time>
      </trkpt>
      <trkpt lat="43.84949" lon="6.50898">
        <ele>741</ele>
        <time>2021-08-13T18:05:51.747Z</time>
      </trkpt>
      <trkpt lat="43.8494" lon="6.50899">
        <ele>740</ele>
        <time>2021-08-13T18:05:52.743Z</time>
      </trkpt>
      <trkpt lat="43.84938" lon="6.50894">
        <ele>740</ele>
        <time>2021-08-13T18:05:53.860Z</time>
      </trkpt>
      <trkpt lat="43.84907" lon="6.50912">
        <ele>737</ele>
        <time>2021-08-13T18:05:57.567Z</time>
      </trkpt>
      <trkpt lat="43.84894" lon="6.50923">
        <ele>737</ele>
        <time>2021-08-13T18:06:01.692Z</time>
      </trkpt>
      <trkpt lat="43.84882" lon="6.50937">
        <ele>736</ele>
        <time>2021-08-13T18:06:03.312Z</time>
      </trkpt>
      <trkpt lat="43.84801" lon="6.51096">
        <ele>732</ele>
        <time>2021-08-13T18:06:23.277Z</time>
      </trkpt>
      <trkpt lat="43.8477" lon="6.51197">
        <ele>734</ele>
        <time>2021-08-13T18:06:51.174Z</time>
      </trkpt>
      <trkpt lat="43.84726" lon="6.51204">
        <ele>729</ele>
        <time>2021-08-13T18:06:56.060Z</time>
      </trkpt>
      <trkpt lat="43.84717" lon="6.51207">
        <ele>729</ele>
        <time>2021-08-13T18:06:58.567Z</time>
      </trkpt>
      <trkpt lat="43.84697" lon="6.51222">
        <ele>728</ele>
        <time>2021-08-13T18:07:01.342Z</time>
      </trkpt>
      <trkpt lat="43.84676" lon="6.51247">
        <ele>728</ele>
        <time>2021-08-13T18:07:08.839Z</time>
      </trkpt>
      <trkpt lat="43.84661" lon="6.51256">
        <ele>727</ele>
        <time>2021-08-13T18:07:10.562Z</time>
      </trkpt>
      <trkpt lat="43.84642" lon="6.51254">
        <ele>726</ele>
        <time>2021-08-13T18:07:12.720Z</time>
      </trkpt>
      <trkpt lat="43.84611" lon="6.51241">
        <ele>726</ele>
        <time>2021-08-13T18:07:21.492Z</time>
      </trkpt>
      <trkpt lat="43.84609" lon="6.51225">
        <ele>725</ele>
        <time>2021-08-13T18:07:22.784Z</time>
      </trkpt>
      <trkpt lat="43.84609" lon="6.51205">
        <ele>725</ele>
        <time>2021-08-13T18:07:26.690Z</time>
      </trkpt>
      <trkpt lat="43.8461" lon="6.51196">
        <ele>725</ele>
        <time>2021-08-13T18:07:28.469Z</time>
      </trkpt>
      <trkpt lat="43.84614" lon="6.51084">
        <ele>724</ele>
        <time>2021-08-13T18:07:42.359Z</time>
      </trkpt>
      <trkpt lat="43.84614" lon="6.51077">
        <ele>724</ele>
        <time>2021-08-13T18:07:43.727Z</time>
      </trkpt>
      <trkpt lat="43.84617" lon="6.50999">
        <ele>724</ele>
        <time>2021-08-13T18:07:58.985Z</time>
      </trkpt>
      <trkpt lat="43.84617" lon="6.5099">
        <ele>724</ele>
        <time>2021-08-13T18:08:00.743Z</time>
      </trkpt>
      <trkpt lat="43.84618" lon="6.50951">
        <ele>723</ele>
        <time>2021-08-13T18:08:04.466Z</time>
      </trkpt>
      <trkpt lat="43.84619" lon="6.50939">
        <ele>723</ele>
        <time>2021-08-13T18:08:06.825Z</time>
      </trkpt>
      <trkpt lat="43.8462" lon="6.50894">
        <ele>723</ele>
        <time>2021-08-13T18:08:15.620Z</time>
      </trkpt>
      <trkpt lat="43.8462" lon="6.50869">
        <ele>723</ele>
        <time>2021-08-13T18:08:20.503Z</time>
      </trkpt>
      <trkpt lat="43.84619" lon="6.50855">
        <ele>723</ele>
        <time>2021-08-13T18:08:23.251Z</time>
      </trkpt>
      <trkpt lat="43.84616" lon="6.50841">
        <ele>723</ele>
        <time>2021-08-13T18:08:26.104Z</time>
      </trkpt>
      <trkpt lat="43.84591" lon="6.50735">
        <ele>723</ele>
        <time>2021-08-13T18:08:47.889Z</time>
      </trkpt>
      <trkpt lat="43.84587" lon="6.50718">
        <ele>723</ele>
        <time>2021-08-13T18:08:51.382Z</time>
      </trkpt>
      <trkpt lat="43.84581" lon="6.50694">
        <ele>722</ele>
        <time>2021-08-13T18:08:53.420Z</time>
      </trkpt>
      <trkpt lat="43.84568" lon="6.50641">
        <ele>722</ele>
        <time>2021-08-13T18:09:04.356Z</time>
      </trkpt>
      <trkpt lat="43.84561" lon="6.50609">
        <ele>722</ele>
        <time>2021-08-13T18:09:10.888Z</time>
      </trkpt>
      <trkpt lat="43.84552" lon="6.50574">
        <ele>722</ele>
        <time>2021-08-13T18:09:18.146Z</time>
      </trkpt>
      <trkpt lat="43.84547" lon="6.50555">
        <ele>722</ele>
        <time>2021-08-13T18:09:22.097Z</time>
      </trkpt>
      <trkpt lat="43.8453" lon="6.50508">
        <ele>722</ele>
        <time>2021-08-13T18:09:32.368Z</time>
      </trkpt>
      <trkpt lat="43.84526" lon="6.50496">
        <ele>722</ele>
        <time>2021-08-13T18:09:34.951Z</time>
      </trkpt>
      <trkpt lat="43.84514" lon="6.50465">
        <ele>723</ele>
        <time>2021-08-13T18:09:45.706Z</time>
      </trkpt>
      <trkpt lat="43.84482" lon="6.5038">
        <ele>724</ele>
        <time>2021-08-13T18:10:07.296Z</time>
      </trkpt>
      <trkpt lat="43.84481" lon="6.50378">
        <ele>724</ele>
        <time>2021-08-13T18:10:07.771Z</time>
      </trkpt>
      <trkpt lat="43.84477" lon="6.50367">
        <ele>724</ele>
        <time>2021-08-13T18:10:10.177Z</time>
      </trkpt>
      <trkpt lat="43.84476" lon="6.50363">
        <ele>724</ele>
        <time>2021-08-13T18:10:11.004Z</time>
      </trkpt>
      <trkpt lat="43.84468" lon="6.50344">
        <ele>723</ele>
        <time>2021-08-13T18:10:12.654Z</time>
      </trkpt>
      <trkpt lat="43.84459" lon="6.50324">
        <ele>723</ele>
        <time>2021-08-13T18:10:17.258Z</time>
      </trkpt>
      <trkpt lat="43.84318" lon="6.50049">
        <ele>726</ele>
        <time>2021-08-13T18:11:31.560Z</time>
      </trkpt>
      <trkpt lat="43.8431" lon="6.50011">
        <ele>728</ele>
        <time>2021-08-13T18:11:47.127Z</time>
      </trkpt>
      <trkpt lat="43.84292" lon="6.49872">
        <ele>737</ele>
        <time>2021-08-13T18:12:51.561Z</time>
      </trkpt>
      <trkpt lat="43.84288" lon="6.49859">
        <ele>737</ele>
        <time>2021-08-13T18:12:54.322Z</time>
      </trkpt>
      <trkpt lat="43.84243" lon="6.49773">
        <ele>729</ele>
        <time>2021-08-13T18:13:02.775Z</time>
      </trkpt>
      <trkpt lat="43.8423" lon="6.49741">
        <ele>731</ele>
        <time>2021-08-13T18:13:17.838Z</time>
      </trkpt>
      <trkpt lat="43.84191" lon="6.4965">
        <ele>729</ele>
        <time>2021-08-13T18:13:28.967Z</time>
      </trkpt>
      <trkpt lat="43.84184" lon="6.49638">
        <ele>727</ele>
        <time>2021-08-13T18:13:30.195Z</time>
      </trkpt>
      <trkpt lat="43.8418" lon="6.49632">
        <ele>726</ele>
        <time>2021-08-13T18:13:30.845Z</time>
      </trkpt>
      <trkpt lat="43.84172" lon="6.49622">
        <ele>724</ele>
        <time>2021-08-13T18:13:32.033Z</time>
      </trkpt>
      <trkpt lat="43.84129" lon="6.49571">
        <ele>722</ele>
        <time>2021-08-13T18:13:39.533Z</time>
      </trkpt>
      <trkpt lat="43.84109" lon="6.49552">
        <ele>723</ele>
        <time>2021-08-13T18:13:50.087Z</time>
      </trkpt>
      <trkpt lat="43.84108" lon="6.49545">
        <ele>724</ele>
        <time>2021-08-13T18:13:55.464Z</time>
      </trkpt>
      <trkpt lat="43.84044" lon="6.49459">
        <ele>730</ele>
        <time>2021-08-13T18:14:43.077Z</time>
      </trkpt>
      <trkpt lat="43.84009" lon="6.4942">
        <ele>727</ele>
        <time>2021-08-13T18:14:48.031Z</time>
      </trkpt>
      <trkpt lat="43.83978" lon="6.49359">
        <ele>734</ele>
        <time>2021-08-13T18:15:41.644Z</time>
      </trkpt>
      <trkpt lat="43.83966" lon="6.4934">
        <ele>735</ele>
        <time>2021-08-13T18:15:50.557Z</time>
      </trkpt>
      <trkpt lat="43.83951" lon="6.49302">
        <ele>740</ele>
        <time>2021-08-13T18:16:23.199Z</time>
      </trkpt>
      <trkpt lat="43.83937" lon="6.49284">
        <ele>742</ele>
        <time>2021-08-13T18:16:37.299Z</time>
      </trkpt>
      <trkpt lat="43.83916" lon="6.49267">
        <ele>741</ele>
        <time>2021-08-13T18:16:40.347Z</time>
      </trkpt>
      <trkpt lat="43.83887" lon="6.49251">
        <ele>744</ele>
        <time>2021-08-13T18:17:01.530Z</time>
      </trkpt>
      <trkpt lat="43.83872" lon="6.49235">
        <ele>749</ele>
        <time>2021-08-13T18:17:21.302Z</time>
      </trkpt>
      <trkpt lat="43.83832" lon="6.49202">
        <ele>755</ele>
        <time>2021-08-13T18:18:06.941Z</time>
      </trkpt>
      <trkpt lat="43.83816" lon="6.49194">
        <ele>758</ele>
        <time>2021-08-13T18:18:24.710Z</time>
      </trkpt>
      <trkpt lat="43.838" lon="6.4919">
        <ele>760</ele>
        <time>2021-08-13T18:18:39.473Z</time>
      </trkpt>
      <trkpt lat="43.83797" lon="6.49185">
        <ele>761</ele>
        <time>2021-08-13T18:18:44.373Z</time>
      </trkpt>
      <trkpt lat="43.83778" lon="6.49129">
        <ele>764</ele>
        <time>2021-08-13T18:19:08.200Z</time>
      </trkpt>
      <trkpt lat="43.83774" lon="6.4911">
        <ele>764</ele>
        <time>2021-08-13T18:19:12.067Z</time>
      </trkpt>
      <trkpt lat="43.83777" lon="6.49093">
        <ele>764</ele>
        <time>2021-08-13T18:19:15.487Z</time>
      </trkpt>
      <trkpt lat="43.83794" lon="6.4905">
        <ele>763</ele>
        <time>2021-08-13T18:19:20.528Z</time>
      </trkpt>
      <trkpt lat="43.83804" lon="6.49014">
        <ele>761</ele>
        <time>2021-08-13T18:19:23.598Z</time>
      </trkpt>
      <trkpt lat="43.83815" lon="6.48994">
        <ele>761</ele>
        <time>2021-08-13T18:19:28.511Z</time>
      </trkpt>
      <trkpt lat="43.83824" lon="6.48984">
        <ele>762</ele>
        <time>2021-08-13T18:19:35.703Z</time>
      </trkpt>
      <trkpt lat="43.83836" lon="6.48977">
        <ele>764</ele>
        <time>2021-08-13T18:19:49.304Z</time>
      </trkpt>
      <trkpt lat="43.83841" lon="6.48973">
        <ele>764</ele>
        <time>2021-08-13T18:19:50.868Z</time>
      </trkpt>
      <trkpt lat="43.83864" lon="6.48925">
        <ele>766</ele>
        <time>2021-08-13T18:20:10.313Z</time>
      </trkpt>
      <trkpt lat="43.83863" lon="6.48919">
        <ele>765</ele>
        <time>2021-08-13T18:20:10.803Z</time>
      </trkpt>
      <trkpt lat="43.83861" lon="6.48909">
        <ele>767</ele>
        <time>2021-08-13T18:20:18.623Z</time>
      </trkpt>
      <trkpt lat="43.83859" lon="6.48907">
        <ele>767</ele>
        <time>2021-08-13T18:20:19.291Z</time>
      </trkpt>
      <trkpt lat="43.83831" lon="6.48904">
        <ele>766</ele>
        <time>2021-08-13T18:20:23.003Z</time>
      </trkpt>
      <trkpt lat="43.83815" lon="6.48899">
        <ele>764</ele>
        <time>2021-08-13T18:20:24.812Z</time>
      </trkpt>
      <trkpt lat="43.83808" lon="6.48894">
        <ele>764</ele>
        <time>2021-08-13T18:20:26.945Z</time>
      </trkpt>
      <trkpt lat="43.83792" lon="6.48846">
        <ele>771</ele>
        <time>2021-08-13T18:21:06.791Z</time>
      </trkpt>
      <trkpt lat="43.83778" lon="6.48814">
        <ele>775</ele>
        <time>2021-08-13T18:21:34.994Z</time>
      </trkpt>
      <trkpt lat="43.83772" lon="6.48792">
        <ele>777</ele>
        <time>2021-08-13T18:21:49.466Z</time>
      </trkpt>
      <trkpt lat="43.83767" lon="6.48778">
        <ele>779</ele>
        <time>2021-08-13T18:22:01.238Z</time>
      </trkpt>
      <trkpt lat="43.83754" lon="6.48758">
        <ele>780</ele>
        <time>2021-08-13T18:22:10.526Z</time>
      </trkpt>
      <trkpt lat="43.8373" lon="6.48733">
        <ele>784</ele>
        <time>2021-08-13T18:22:41.803Z</time>
      </trkpt>
      <trkpt lat="43.83718" lon="6.48726">
        <ele>784</ele>
        <time>2021-08-13T18:22:45.330Z</time>
      </trkpt>
      <trkpt lat="43.83703" lon="6.48721">
        <ele>784</ele>
        <time>2021-08-13T18:22:49.508Z</time>
      </trkpt>
      <trkpt lat="43.83641" lon="6.48714">
        <ele>777</ele>
        <time>2021-08-13T18:22:56.370Z</time>
      </trkpt>
      <trkpt lat="43.83623" lon="6.48705">
        <ele>774</ele>
        <time>2021-08-13T18:22:58.481Z</time>
      </trkpt>
      <trkpt lat="43.83619" lon="6.48693">
        <ele>774</ele>
        <time>2021-08-13T18:23:01.064Z</time>
      </trkpt>
      <trkpt lat="43.83619" lon="6.48684">
        <ele>774</ele>
        <time>2021-08-13T18:23:02.822Z</time>
      </trkpt>
      <trkpt lat="43.83633" lon="6.48655">
        <ele>779</ele>
        <time>2021-08-13T18:23:29.119Z</time>
      </trkpt>
      <trkpt lat="43.83646" lon="6.48634">
        <ele>782</ele>
        <time>2021-08-13T18:23:49.973Z</time>
      </trkpt>
      <trkpt lat="43.83674" lon="6.48599">
        <ele>792</ele>
        <time>2021-08-13T18:24:29.359Z</time>
      </trkpt>
      <trkpt lat="43.83684" lon="6.4856">
        <ele>798</ele>
        <time>2021-08-13T18:25:00.550Z</time>
      </trkpt>
      <trkpt lat="43.83686" lon="6.48549">
        <ele>800</ele>
        <time>2021-08-13T18:25:09.099Z</time>
      </trkpt>
      <trkpt lat="43.83684" lon="6.48535">
        <ele>800</ele>
        <time>2021-08-13T18:25:11.887Z</time>
      </trkpt>
      <trkpt lat="43.83666" lon="6.48463">
        <ele>801</ele>
        <time>2021-08-13T18:25:29.752Z</time>
      </trkpt>
      <trkpt lat="43.83658" lon="6.48397">
        <ele>809</ele>
        <time>2021-08-13T18:26:20.185Z</time>
      </trkpt>
      <trkpt lat="43.83652" lon="6.48379">
        <ele>810</ele>
        <time>2021-08-13T18:26:27.975Z</time>
      </trkpt>
      <trkpt lat="43.83614" lon="6.48302">
        <ele>812</ele>
        <time>2021-08-13T18:26:53.020Z</time>
      </trkpt>
      <trkpt lat="43.83601" lon="6.48264">
        <ele>818</ele>
        <time>2021-08-13T18:27:24.714Z</time>
      </trkpt>
      <trkpt lat="43.83589" lon="6.48244">
        <ele>819</ele>
        <time>2021-08-13T18:27:33.797Z</time>
      </trkpt>
      <trkpt lat="43.83541" lon="6.48193">
        <ele>819</ele>
        <time>2021-08-13T18:27:50.177Z</time>
      </trkpt>
      <trkpt lat="43.83502" lon="6.48173">
        <ele>813</ele>
        <time>2021-08-13T18:27:54.764Z</time>
      </trkpt>
      <trkpt lat="43.83497" lon="6.48168">
        <ele>813</ele>
        <time>2021-08-13T18:27:56.434Z</time>
      </trkpt>
      <trkpt lat="43.83471" lon="6.48099">
        <ele>819</ele>
        <time>2021-08-13T18:28:38.814Z</time>
      </trkpt>
      <trkpt lat="43.83467" lon="6.48081">
        <ele>820</ele>
        <time>2021-08-13T18:28:46.426Z</time>
      </trkpt>
      <trkpt lat="43.83467" lon="6.48064">
        <ele>822</ele>
        <time>2021-08-13T18:28:59.237Z</time>
      </trkpt>
      <trkpt lat="43.8347" lon="6.48028">
        <ele>826</ele>
        <time>2021-08-13T18:29:26.547Z</time>
      </trkpt>
      <trkpt lat="43.8347" lon="6.48006">
        <ele>827</ele>
        <time>2021-08-13T18:29:34.763Z</time>
      </trkpt>
      <trkpt lat="43.83458" lon="6.47914">
        <ele>833</ele>
        <time>2021-08-13T18:30:17.654Z</time>
      </trkpt>
      <trkpt lat="43.83454" lon="6.47897">
        <ele>833</ele>
        <time>2021-08-13T18:30:21.147Z</time>
      </trkpt>
      <trkpt lat="43.83442" lon="6.47874">
        <ele>830</ele>
        <time>2021-08-13T18:30:23.406Z</time>
      </trkpt>
      <trkpt lat="43.83439" lon="6.47861">
        <ele>831</ele>
        <time>2021-08-13T18:30:30.449Z</time>
      </trkpt>
      <trkpt lat="43.83434" lon="6.47803">
        <ele>838</ele>
        <time>2021-08-13T18:31:14.468Z</time>
      </trkpt>
      <trkpt lat="43.83427" lon="6.47786">
        <ele>837</ele>
        <time>2021-08-13T18:31:16.026Z</time>
      </trkpt>
      <trkpt lat="43.83425" lon="6.47774">
        <ele>838</ele>
        <time>2021-08-13T18:31:23.156Z</time>
      </trkpt>
      <trkpt lat="43.83424" lon="6.47739">
        <ele>842</ele>
        <time>2021-08-13T18:31:49.553Z</time>
      </trkpt>
      <trkpt lat="43.83419" lon="6.47726">
        <ele>841</ele>
        <time>2021-08-13T18:31:50.725Z</time>
      </trkpt>
      <trkpt lat="43.83393" lon="6.47694">
        <ele>833</ele>
        <time>2021-08-13T18:31:54.561Z</time>
      </trkpt>
      <trkpt lat="43.8339" lon="6.47682">
        <ele>833</ele>
        <time>2021-08-13T18:31:57.042Z</time>
      </trkpt>
      <trkpt lat="43.83389" lon="6.4767">
        <ele>834</ele>
        <time>2021-08-13T18:32:04.211Z</time>
      </trkpt>
      <trkpt lat="43.83395" lon="6.47642">
        <ele>840</ele>
        <time>2021-08-13T18:32:26.223Z</time>
      </trkpt>
      <trkpt lat="43.83395" lon="6.47625">
        <ele>842</ele>
        <time>2021-08-13T18:32:39.034Z</time>
      </trkpt>
      <trkpt lat="43.83394" lon="6.47612">
        <ele>843</ele>
        <time>2021-08-13T18:32:46.092Z</time>
      </trkpt>
      <trkpt lat="43.83391" lon="6.47598">
        <ele>843</ele>
        <time>2021-08-13T18:32:48.946Z</time>
      </trkpt>
      <trkpt lat="43.83379" lon="6.47576">
        <ele>838</ele>
        <time>2021-08-13T18:32:51.140Z</time>
      </trkpt>
      <trkpt lat="43.83377" lon="6.4756">
        <ele>838</ele>
        <time>2021-08-13T18:32:54.313Z</time>
      </trkpt>
      <trkpt lat="43.83379" lon="6.47548">
        <ele>839</ele>
        <time>2021-08-13T18:33:01.443Z</time>
      </trkpt>
      <trkpt lat="43.834" lon="6.47477">
        <ele>853</ele>
        <time>2021-08-13T18:33:59.272Z</time>
      </trkpt>
      <trkpt lat="43.83402" lon="6.47466">
        <ele>855</ele>
        <time>2021-08-13T18:34:07.821Z</time>
      </trkpt>
      <trkpt lat="43.83393" lon="6.47409">
        <ele>853</ele>
        <time>2021-08-13T18:34:12.797Z</time>
      </trkpt>
      <trkpt lat="43.83399" lon="6.47341">
        <ele>860</ele>
        <time>2021-08-13T18:35:04.424Z</time>
      </trkpt>
      <trkpt lat="43.83399" lon="6.47325">
        <ele>860</ele>
        <time>2021-08-13T18:35:07.550Z</time>
      </trkpt>
      <trkpt lat="43.83391" lon="6.4727">
        <ele>857</ele>
        <time>2021-08-13T18:35:12.015Z</time>
      </trkpt>
      <trkpt lat="43.83392" lon="6.47256">
        <ele>858</ele>
        <time>2021-08-13T18:35:19.063Z</time>
      </trkpt>
      <trkpt lat="43.83403" lon="6.47184">
        <ele>862</ele>
        <time>2021-08-13T18:35:49.212Z</time>
      </trkpt>
      <trkpt lat="43.83404" lon="6.47158">
        <ele>864</ele>
        <time>2021-08-13T18:36:03.334Z</time>
      </trkpt>
      <trkpt lat="43.83403" lon="6.47145">
        <ele>866</ele>
        <time>2021-08-13T18:36:13.186Z</time>
      </trkpt>
      <trkpt lat="43.83401" lon="6.47136">
        <ele>867</ele>
        <time>2021-08-13T18:36:20.283Z</time>
      </trkpt>
      <trkpt lat="43.83394" lon="6.47117">
        <ele>868</ele>
        <time>2021-08-13T18:36:28.365Z</time>
      </trkpt>
      <trkpt lat="43.83356" lon="6.47052">
        <ele>857</ele>
        <time>2021-08-13T18:36:35.023Z</time>
      </trkpt>
      <trkpt lat="43.83353" lon="6.47042">
        <ele>855</ele>
        <time>2021-08-13T18:36:35.885Z</time>
      </trkpt>
      <trkpt lat="43.83351" lon="6.47028">
        <ele>855</ele>
        <time>2021-08-13T18:36:38.673Z</time>
      </trkpt>
      <trkpt lat="43.83354" lon="6.47">
        <ele>856</ele>
        <time>2021-08-13T18:36:48.279Z</time>
      </trkpt>
      <trkpt lat="43.8336" lon="6.4698">
        <ele>856</ele>
        <time>2021-08-13T18:36:52.511Z</time>
      </trkpt>
      <trkpt lat="43.83367" lon="6.46947">
        <ele>855</ele>
        <time>2021-08-13T18:36:55.645Z</time>
      </trkpt>
      <trkpt lat="43.83379" lon="6.46875">
        <ele>851</ele>
        <time>2021-08-13T18:37:01.526Z</time>
      </trkpt>
      <trkpt lat="43.83384" lon="6.46828">
        <ele>848</ele>
        <time>2021-08-13T18:37:05.306Z</time>
      </trkpt>
      <trkpt lat="43.83391" lon="6.46809">
        <ele>847</ele>
        <time>2021-08-13T18:37:06.882Z</time>
      </trkpt>
      <trkpt lat="43.83398" lon="6.46802">
        <ele>848</ele>
        <time>2021-08-13T18:37:14.072Z</time>
      </trkpt>
      <trkpt lat="43.83433" lon="6.46779">
        <ele>857</ele>
        <time>2021-08-13T18:37:54.537Z</time>
      </trkpt>
      <trkpt lat="43.83448" lon="6.46772">
        <ele>861</ele>
        <time>2021-08-13T18:38:11.072Z</time>
      </trkpt>
      <trkpt lat="43.83465" lon="6.46766">
        <ele>866</ele>
        <time>2021-08-13T18:38:29.399Z</time>
      </trkpt>
      <trkpt lat="43.83476" lon="6.46765">
        <ele>870</ele>
        <time>2021-08-13T18:38:40.915Z</time>
      </trkpt>
      <trkpt lat="43.83481" lon="6.46762">
        <ele>872</ele>
        <time>2021-08-13T18:38:46.607Z</time>
      </trkpt>
      <trkpt lat="43.83485" lon="6.46756">
        <ele>873</ele>
        <time>2021-08-13T18:38:52.764Z</time>
      </trkpt>
      <trkpt lat="43.83483" lon="6.4675">
        <ele>871</ele>
        <time>2021-08-13T18:38:53.290Z</time>
      </trkpt>
      <trkpt lat="43.83472" lon="6.46738">
        <ele>868</ele>
        <time>2021-08-13T18:38:54.834Z</time>
      </trkpt>
      <trkpt lat="43.83463" lon="6.46724">
        <ele>865</ele>
        <time>2021-08-13T18:38:56.326Z</time>
      </trkpt>
      <trkpt lat="43.83454" lon="6.46687">
        <ele>864</ele>
        <time>2021-08-13T18:39:00.053Z</time>
      </trkpt>
      <trkpt lat="43.8345" lon="6.46621">
        <ele>870</ele>
        <time>2021-08-13T18:39:44.880Z</time>
      </trkpt>
      <trkpt lat="43.83448" lon="6.46607">
        <ele>871</ele>
        <time>2021-08-13T18:39:51.935Z</time>
      </trkpt>
      <trkpt lat="43.83442" lon="6.46593">
        <ele>870</ele>
        <time>2021-08-13T18:39:53.231Z</time>
      </trkpt>
      <trkpt lat="43.83419" lon="6.46554">
        <ele>867</ele>
        <time>2021-08-13T18:39:57.239Z</time>
      </trkpt>
      <trkpt lat="43.83416" lon="6.46537">
        <ele>867</ele>
        <time>2021-08-13T18:40:00.659Z</time>
      </trkpt>
      <trkpt lat="43.83412" lon="6.46501">
        <ele>870</ele>
        <time>2021-08-13T18:40:22.132Z</time>
      </trkpt>
      <trkpt lat="43.83412" lon="6.46477">
        <ele>870</ele>
        <time>2021-08-13T18:40:26.821Z</time>
      </trkpt>
      <trkpt lat="43.83412" lon="6.4643">
        <ele>870</ele>
        <time>2021-08-13T18:40:36.004Z</time>
      </trkpt>
      <trkpt lat="43.83414" lon="6.46391">
        <ele>872</ele>
        <time>2021-08-13T18:40:51.482Z</time>
      </trkpt>
      <trkpt lat="43.8341" lon="6.46353">
        <ele>873</ele>
        <time>2021-08-13T18:41:02.691Z</time>
      </trkpt>
      <trkpt lat="43.83399" lon="6.46312">
        <ele>874</ele>
        <time>2021-08-13T18:41:14.734Z</time>
      </trkpt>
      <trkpt lat="43.83384" lon="6.4627">
        <ele>874</ele>
        <time>2021-08-13T18:41:23.890Z</time>
      </trkpt>
      <trkpt lat="43.83353" lon="6.46207">
        <ele>871</ele>
        <time>2021-08-13T18:41:30.013Z</time>
      </trkpt>
      <trkpt lat="43.83341" lon="6.46159">
        <ele>873</ele>
        <time>2021-08-13T18:41:47.905Z</time>
      </trkpt>
      <trkpt lat="43.83342" lon="6.46109">
        <ele>877</ele>
        <time>2021-08-13T18:42:16.326Z</time>
      </trkpt>
      <trkpt lat="43.83336" lon="6.46062">
        <ele>881</ele>
        <time>2021-08-13T18:42:45.115Z</time>
      </trkpt>
      <trkpt lat="43.83324" lon="6.46044">
        <ele>880</ele>
        <time>2021-08-13T18:42:47.050Z</time>
      </trkpt>
      <trkpt lat="43.833" lon="6.46014">
        <ele>875</ele>
        <time>2021-08-13T18:42:50.615Z</time>
      </trkpt>
      <trkpt lat="43.83291" lon="6.45985">
        <ele>876</ele>
        <time>2021-08-13T18:43:00.934Z</time>
      </trkpt>
      <trkpt lat="43.83274" lon="6.45956">
        <ele>872</ele>
        <time>2021-08-13T18:43:03.908Z</time>
      </trkpt>
      <trkpt lat="43.83273" lon="6.45933">
        <ele>875</ele>
        <time>2021-08-13T18:43:21.272Z</time>
      </trkpt>
      <trkpt lat="43.83278" lon="6.45923">
        <ele>879</ele>
        <time>2021-08-13T18:43:30.442Z</time>
      </trkpt>
      <trkpt lat="43.83287" lon="6.45866">
        <ele>876</ele>
        <time>2021-08-13T18:43:35.085Z</time>
      </trkpt>
      <trkpt lat="43.83295" lon="6.45844">
        <ele>876</ele>
        <time>2021-08-13T18:43:39.899Z</time>
      </trkpt>
      <trkpt lat="43.83316" lon="6.45801">
        <ele>870</ele>
        <time>2021-08-13T18:43:44.031Z</time>
      </trkpt>
      <trkpt lat="43.83336" lon="6.45779">
        <ele>867</ele>
        <time>2021-08-13T18:43:46.847Z</time>
      </trkpt>
      <trkpt lat="43.83397" lon="6.4576">
        <ele>871</ele>
        <time>2021-08-13T18:44:19.443Z</time>
      </trkpt>
      <trkpt lat="43.83428" lon="6.45764">
        <ele>880</ele>
        <time>2021-08-13T18:44:51.969Z</time>
      </trkpt>
      <trkpt lat="43.83459" lon="6.45781">
        <ele>894</ele>
        <time>2021-08-13T18:45:26.797Z</time>
      </trkpt>
      <trkpt lat="43.8347" lon="6.45783">
        <ele>896</ele>
        <time>2021-08-13T18:45:38.387Z</time>
      </trkpt>
      <trkpt lat="43.8349" lon="6.45774">
        <ele>896</ele>
        <time>2021-08-13T18:45:44.082Z</time>
      </trkpt>
      <trkpt lat="43.83499" lon="6.45775">
        <ele>898</ele>
        <time>2021-08-13T18:45:53.515Z</time>
      </trkpt>
      <trkpt lat="43.83517" lon="6.45782">
        <ele>907</ele>
        <time>2021-08-13T18:46:13.046Z</time>
      </trkpt>
      <trkpt lat="43.83523" lon="6.45782">
        <ele>910</ele>
        <time>2021-08-13T18:46:19.314Z</time>
      </trkpt>
      <trkpt lat="43.83526" lon="6.45766">
        <ele>908</ele>
        <time>2021-08-13T18:46:20.630Z</time>
      </trkpt>
      <trkpt lat="43.83526" lon="6.45736">
        <ele>904</ele>
        <time>2021-08-13T18:46:23.017Z</time>
      </trkpt>
      <trkpt lat="43.83516" lon="6.45682">
        <ele>899</ele>
        <time>2021-08-13T18:46:27.453Z</time>
      </trkpt>
      <trkpt lat="43.83511" lon="6.45622">
        <ele>891</ele>
        <time>2021-08-13T18:46:32.259Z</time>
      </trkpt>
      <trkpt lat="43.83517" lon="6.45604">
        <ele>891</ele>
        <time>2021-08-13T18:46:36.133Z</time>
      </trkpt>
      <trkpt lat="43.83526" lon="6.45593">
        <ele>893</ele>
        <time>2021-08-13T18:46:48.668Z</time>
      </trkpt>
      <trkpt lat="43.83546" lon="6.45581">
        <ele>897</ele>
        <time>2021-08-13T18:47:11.435Z</time>
      </trkpt>
      <trkpt lat="43.83578" lon="6.45569">
        <ele>905</ele>
        <time>2021-08-13T18:47:46.068Z</time>
      </trkpt>
      <trkpt lat="43.83602" lon="6.45575">
        <ele>914</ele>
        <time>2021-08-13T18:48:11.545Z</time>
      </trkpt>
      <trkpt lat="43.83621" lon="6.45587">
        <ele>921</ele>
        <time>2021-08-13T18:48:33.358Z</time>
      </trkpt>
      <trkpt lat="43.83628" lon="6.45587">
        <ele>923</ele>
        <time>2021-08-13T18:48:40.671Z</time>
      </trkpt>
      <trkpt lat="43.83651" lon="6.4557">
        <ele>928</ele>
        <time>2021-08-13T18:49:07.901Z</time>
      </trkpt>
      <trkpt lat="43.83663" lon="6.45546">
        <ele>930</ele>
        <time>2021-08-13T18:49:22.041Z</time>
      </trkpt>
      <trkpt lat="43.83664" lon="6.45539">
        <ele>930</ele>
        <time>2021-08-13T18:49:23.435Z</time>
      </trkpt>
      <trkpt lat="43.83661" lon="6.45534">
        <ele>929</ele>
        <time>2021-08-13T18:49:23.953Z</time>
      </trkpt>
      <trkpt lat="43.83639" lon="6.45512">
        <ele>919</ele>
        <time>2021-08-13T18:49:26.945Z</time>
      </trkpt>
      <trkpt lat="43.83631" lon="6.45489">
        <ele>916</ele>
        <time>2021-08-13T18:49:28.977Z</time>
      </trkpt>
      <trkpt lat="43.83627" lon="6.45459">
        <ele>920</ele>
        <time>2021-08-13T18:49:51.967Z</time>
      </trkpt>
      <trkpt lat="43.83622" lon="6.45446">
        <ele>921</ele>
        <time>2021-08-13T18:49:59.046Z</time>
      </trkpt>
      <trkpt lat="43.83599" lon="6.45411">
        <ele>918</ele>
        <time>2021-08-13T18:50:02.813Z</time>
      </trkpt>
      <trkpt lat="43.83581" lon="6.45388">
        <ele>911</ele>
        <time>2021-08-13T18:50:05.514Z</time>
      </trkpt>
      <trkpt lat="43.83576" lon="6.45379">
        <ele>908</ele>
        <time>2021-08-13T18:50:06.418Z</time>
      </trkpt>
      <trkpt lat="43.83574" lon="6.45369">
        <ele>908</ele>
        <time>2021-08-13T18:50:08.445Z</time>
      </trkpt>
      <trkpt lat="43.83573" lon="6.45356">
        <ele>908</ele>
        <time>2021-08-13T18:50:10.999Z</time>
      </trkpt>
      <trkpt lat="43.83576" lon="6.45344">
        <ele>910</ele>
        <time>2021-08-13T18:50:20.570Z</time>
      </trkpt>
      <trkpt lat="43.83598" lon="6.45315">
        <ele>915</ele>
        <time>2021-08-13T18:50:52.285Z</time>
      </trkpt>
      <trkpt lat="43.83633" lon="6.45249">
        <ele>918</ele>
        <time>2021-08-13T18:51:20.411Z</time>
      </trkpt>
      <trkpt lat="43.83676" lon="6.4518">
        <ele>927</ele>
        <time>2021-08-13T18:52:29.126Z</time>
      </trkpt>
      <trkpt lat="43.83702" lon="6.45125">
        <ele>928</ele>
        <time>2021-08-13T18:52:45.048Z</time>
      </trkpt>
      <trkpt lat="43.83711" lon="6.45108">
        <ele>927</ele>
        <time>2021-08-13T18:52:46.596Z</time>
      </trkpt>
      <trkpt lat="43.83748" lon="6.45073">
        <ele>934</ele>
        <time>2021-08-13T18:53:33.391Z</time>
      </trkpt>
      <trkpt lat="43.83776" lon="6.4504">
        <ele>937</ele>
        <time>2021-08-13T18:53:55.346Z</time>
      </trkpt>
      <trkpt lat="43.83788" lon="6.4503">
        <ele>938</ele>
        <time>2021-08-13T18:54:03.060Z</time>
      </trkpt>
      <trkpt lat="43.83825" lon="6.44987">
        <ele>938</ele>
        <time>2021-08-13T18:54:16.137Z</time>
      </trkpt>
      <trkpt lat="43.83833" lon="6.44982">
        <ele>940</ele>
        <time>2021-08-13T18:54:25.305Z</time>
      </trkpt>
      <trkpt lat="43.83845" lon="6.44978">
        <ele>945</ele>
        <time>2021-08-13T18:54:38.199Z</time>
      </trkpt>
      <trkpt lat="43.83873" lon="6.44959">
        <ele>954</ele>
        <time>2021-08-13T18:55:10.766Z</time>
      </trkpt>
      <trkpt lat="43.83884" lon="6.44939">
        <ele>955</ele>
        <time>2021-08-13T18:55:19.656Z</time>
      </trkpt>
      <trkpt lat="43.83894" lon="6.44932">
        <ele>959</ele>
        <time>2021-08-13T18:55:31.360Z</time>
      </trkpt>
      <trkpt lat="43.83897" lon="6.44918">
        <ele>958</ele>
        <time>2021-08-13T18:55:32.522Z</time>
      </trkpt>
      <trkpt lat="43.83894" lon="6.44903">
        <ele>958</ele>
        <time>2021-08-13T18:55:35.563Z</time>
      </trkpt>
      <trkpt lat="43.8389" lon="6.44896">
        <ele>956</ele>
        <time>2021-08-13T18:55:36.273Z</time>
      </trkpt>
      <trkpt lat="43.83886" lon="6.44887">
        <ele>955</ele>
        <time>2021-08-13T18:55:37.115Z</time>
      </trkpt>
      <trkpt lat="43.83885" lon="6.44883">
        <ele>955</ele>
        <time>2021-08-13T18:55:37.942Z</time>
      </trkpt>
      <trkpt lat="43.83878" lon="6.44865">
        <ele>953</ele>
        <time>2021-08-13T18:55:39.569Z</time>
      </trkpt>
      <trkpt lat="43.83878" lon="6.44848">
        <ele>955</ele>
        <time>2021-08-13T18:55:52.379Z</time>
      </trkpt>
      <trkpt lat="43.83877" lon="6.44826">
        <ele>958</ele>
        <time>2021-08-13T18:56:08.990Z</time>
      </trkpt>
      <trkpt lat="43.8385" lon="6.44785">
        <ele>954</ele>
        <time>2021-08-13T18:56:13.407Z</time>
      </trkpt>
      <trkpt lat="43.83837" lon="6.44756">
        <ele>955</ele>
        <time>2021-08-13T18:56:24.028Z</time>
      </trkpt>
      <trkpt lat="43.8383" lon="6.44745">
        <ele>956</ele>
        <time>2021-08-13T18:56:31.102Z</time>
      </trkpt>
      <trkpt lat="43.8382" lon="6.44702">
        <ele>972</ele>
        <time>2021-08-13T18:57:05.147Z</time>
      </trkpt>
      <trkpt lat="43.83794" lon="6.44673">
        <ele>977</ele>
        <time>2021-08-13T18:57:40.009Z</time>
      </trkpt>
      <trkpt lat="43.83771" lon="6.4467">
        <ele>973</ele>
        <time>2021-08-13T18:57:42.558Z</time>
      </trkpt>
      <trkpt lat="43.83737" lon="6.44659">
        <ele>972</ele>
        <time>2021-08-13T18:57:47.515Z</time>
      </trkpt>
      <trkpt lat="43.83689" lon="6.44683">
        <ele>958</ele>
        <time>2021-08-13T18:57:53.144Z</time>
      </trkpt>
      <trkpt lat="43.83669" lon="6.44677">
        <ele>960</ele>
        <time>2021-08-13T18:58:07.246Z</time>
      </trkpt>
      <trkpt lat="43.83652" lon="6.44647">
        <ele>971</ele>
        <time>2021-08-13T18:58:35.995Z</time>
      </trkpt>
      <trkpt lat="43.83627" lon="6.44625">
        <ele>976</ele>
        <time>2021-08-13T18:59:06.930Z</time>
      </trkpt>
      <trkpt lat="43.83594" lon="6.44609">
        <ele>976</ele>
        <time>2021-08-13T18:59:16.399Z</time>
      </trkpt>
      <trkpt lat="43.83572" lon="6.44586">
        <ele>981</ele>
        <time>2021-08-13T18:59:45.186Z</time>
      </trkpt>
      <trkpt lat="43.83571" lon="6.44585">
        <ele>982</ele>
        <time>2021-08-13T18:59:46.474Z</time>
      </trkpt>
      <trkpt lat="43.83548" lon="6.44558">
        <ele>978</ele>
        <time>2021-08-13T18:59:49.799Z</time>
      </trkpt>
      <trkpt lat="43.83556" lon="6.44485">
        <ele>971</ele>
        <time>2021-08-13T18:59:55.674Z</time>
      </trkpt>
      <trkpt lat="43.83602" lon="6.44319">
        <ele>957</ele>
        <time>2021-08-13T19:00:09.825Z</time>
      </trkpt>
      <trkpt lat="43.83626" lon="6.44279">
        <ele>961</ele>
        <time>2021-08-13T19:00:38.070Z</time>
      </trkpt>
      <trkpt lat="43.83642" lon="6.44248">
        <ele>965</ele>
        <time>2021-08-13T19:01:06.796Z</time>
      </trkpt>
      <trkpt lat="43.83639" lon="6.44211">
        <ele>955</ele>
        <time>2021-08-13T19:01:09.758Z</time>
      </trkpt>
      <trkpt lat="43.83648" lon="6.44165">
        <ele>953</ele>
        <time>2021-08-13T19:01:13.472Z</time>
      </trkpt>
      <trkpt lat="43.83651" lon="6.44125">
        <ele>951</ele>
        <time>2021-08-13T19:01:16.672Z</time>
      </trkpt>
      <trkpt lat="43.8366" lon="6.4406">
        <ele>949</ele>
        <time>2021-08-13T19:01:22.612Z</time>
      </trkpt>
      <trkpt lat="43.83671" lon="6.44038">
        <ele>952</ele>
        <time>2021-08-13T19:01:42.784Z</time>
      </trkpt>
      <trkpt lat="43.83707" lon="6.44003">
        <ele>954</ele>
        <time>2021-08-13T19:02:03.010Z</time>
      </trkpt>
      <trkpt lat="43.8374" lon="6.43994">
        <ele>961</ele>
        <time>2021-08-13T19:02:38.146Z</time>
      </trkpt>
      <trkpt lat="43.83755" lon="6.43966">
        <ele>963</ele>
        <time>2021-08-13T19:02:52.916Z</time>
      </trkpt>
      <trkpt lat="43.83762" lon="6.4393">
        <ele>963</ele>
        <time>2021-08-13T19:03:00.200Z</time>
      </trkpt>
      <trkpt lat="43.8376" lon="6.43888">
        <ele>961</ele>
        <time>2021-08-13T19:03:03.287Z</time>
      </trkpt>
      <trkpt lat="43.83752" lon="6.43844">
        <ele>958</ele>
        <time>2021-08-13T19:03:06.897Z</time>
      </trkpt>
      <trkpt lat="43.83747" lon="6.43765">
        <ele>957</ele>
        <time>2021-08-13T19:03:16.114Z</time>
      </trkpt>
      <trkpt lat="43.83755" lon="6.43734">
        <ele>957</ele>
        <time>2021-08-13T19:03:22.547Z</time>
      </trkpt>
      <trkpt lat="43.8379" lon="6.43686">
        <ele>948</ele>
        <time>2021-08-13T19:03:27.978Z</time>
      </trkpt>
      <trkpt lat="43.83828" lon="6.43648">
        <ele>935</ele>
        <time>2021-08-13T19:03:33.146Z</time>
      </trkpt>
      <trkpt lat="43.83878" lon="6.43628">
        <ele>934</ele>
        <time>2021-08-13T19:03:41.359Z</time>
      </trkpt>
      <trkpt lat="43.83895" lon="6.43607">
        <ele>927</ele>
        <time>2021-08-13T19:03:43.871Z</time>
      </trkpt>
      <trkpt lat="43.83923" lon="6.43589">
        <ele>924</ele>
        <time>2021-08-13T19:03:47.276Z</time>
      </trkpt>
      <trkpt lat="43.83939" lon="6.43572">
        <ele>923</ele>
        <time>2021-08-13T19:03:49.615Z</time>
      </trkpt>
      <trkpt lat="43.84001" lon="6.43515">
        <ele>923</ele>
        <time>2021-08-13T19:04:09.765Z</time>
      </trkpt>
      <trkpt lat="43.84003" lon="6.43475">
        <ele>917</ele>
        <time>2021-08-13T19:04:12.955Z</time>
      </trkpt>
      <trkpt lat="43.83969" lon="6.43393">
        <ele>903</ele>
        <time>2021-08-13T19:04:20.481Z</time>
      </trkpt>
      <trkpt lat="43.83962" lon="6.43402">
        <ele>899</ele>
        <time>2021-08-13T19:04:21.534Z</time>
      </trkpt>
      <trkpt lat="43.8396" lon="6.43421">
        <ele>897</ele>
        <time>2021-08-13T19:04:23.062Z</time>
      </trkpt>
      <trkpt lat="43.83935" lon="6.43483">
        <ele>895</ele>
        <time>2021-08-13T19:04:29.611Z</time>
      </trkpt>
      <trkpt lat="43.83913" lon="6.43488">
        <ele>889</ele>
        <time>2021-08-13T19:04:32.070Z</time>
      </trkpt>
      <trkpt lat="43.83916" lon="6.4346">
        <ele>887</ele>
        <time>2021-08-13T19:04:34.323Z</time>
      </trkpt>
      <trkpt lat="43.8391" lon="6.43411">
        <ele>882</ele>
        <time>2021-08-13T19:04:38.277Z</time>
      </trkpt>
      <trkpt lat="43.83902" lon="6.43405">
        <ele>881</ele>
        <time>2021-08-13T19:04:39.281Z</time>
      </trkpt>
      <trkpt lat="43.83889" lon="6.43401">
        <ele>878</ele>
        <time>2021-08-13T19:04:40.750Z</time>
      </trkpt>
      <trkpt lat="43.83878" lon="6.43394">
        <ele>877</ele>
        <time>2021-08-13T19:04:42.085Z</time>
      </trkpt>
      <trkpt lat="43.83869" lon="6.43375">
        <ele>878</ele>
        <time>2021-08-13T19:04:50.453Z</time>
      </trkpt>
      <trkpt lat="43.83852" lon="6.43346">
        <ele>878</ele>
        <time>2021-08-13T19:04:57.753Z</time>
      </trkpt>
      <trkpt lat="43.83843" lon="6.43337">
        <ele>877</ele>
        <time>2021-08-13T19:04:58.977Z</time>
      </trkpt>
      <trkpt lat="43.83779" lon="6.43226">
        <ele>880</ele>
        <time>2021-08-13T19:05:36.909Z</time>
      </trkpt>
      <trkpt lat="43.83759" lon="6.43198">
        <ele>877</ele>
        <time>2021-08-13T19:05:40.044Z</time>
      </trkpt>
      <trkpt lat="43.8373" lon="6.43138">
        <ele>879</ele>
        <time>2021-08-13T19:06:01.808Z</time>
      </trkpt>
      <trkpt lat="43.83711" lon="6.43115">
        <ele>876</ele>
        <time>2021-08-13T19:06:04.590Z</time>
      </trkpt>
      <trkpt lat="43.83706" lon="6.43106">
        <ele>875</ele>
        <time>2021-08-13T19:06:05.494Z</time>
      </trkpt>
      <trkpt lat="43.83703" lon="6.43095">
        <ele>876</ele>
        <time>2021-08-13T19:06:12.730Z</time>
      </trkpt>
      <trkpt lat="43.83702" lon="6.43085">
        <ele>877</ele>
        <time>2021-08-13T19:06:20.338Z</time>
      </trkpt>
      <trkpt lat="43.83706" lon="6.43058">
        <ele>879</ele>
        <time>2021-08-13T19:06:34.423Z</time>
      </trkpt>
      <trkpt lat="43.83711" lon="6.42847">
        <ele>869</ele>
        <time>2021-08-13T19:06:49.930Z</time>
      </trkpt>
      <trkpt lat="43.83712" lon="6.42823">
        <ele>866</ele>
        <time>2021-08-13T19:06:51.843Z</time>
      </trkpt>
      <trkpt lat="43.83715" lon="6.42811">
        <ele>864</ele>
        <time>2021-08-13T19:06:52.854Z</time>
      </trkpt>
      <trkpt lat="43.83721" lon="6.42802">
        <ele>865</ele>
        <time>2021-08-13T19:06:59.993Z</time>
      </trkpt>
      <trkpt lat="43.83736" lon="6.42789">
        <ele>868</ele>
        <time>2021-08-13T19:07:18.474Z</time>
      </trkpt>
      <trkpt lat="43.83745" lon="6.42776">
        <ele>869</ele>
        <time>2021-08-13T19:07:25.949Z</time>
      </trkpt>
      <trkpt lat="43.8376" lon="6.42748">
        <ele>867</ele>
        <time>2021-08-13T19:07:28.724Z</time>
      </trkpt>
      <trkpt lat="43.83773" lon="6.42739">
        <ele>869</ele>
        <time>2021-08-13T19:07:43.904Z</time>
      </trkpt>
      <trkpt lat="43.83817" lon="6.42719">
        <ele>879</ele>
        <time>2021-08-13T19:08:32.279Z</time>
      </trkpt>
      <trkpt lat="43.83827" lon="6.42712">
        <ele>881</ele>
        <time>2021-08-13T19:08:43.983Z</time>
      </trkpt>
      <trkpt lat="43.83843" lon="6.42697">
        <ele>884</ele>
        <time>2021-08-13T19:09:04.161Z</time>
      </trkpt>
      <trkpt lat="43.83845" lon="6.42687">
        <ele>883</ele>
        <time>2021-08-13T19:09:04.987Z</time>
      </trkpt>
      <trkpt lat="43.83843" lon="6.42679">
        <ele>880</ele>
        <time>2021-08-13T19:09:05.660Z</time>
      </trkpt>
      <trkpt lat="43.83838" lon="6.42669">
        <ele>876</ele>
        <time>2021-08-13T19:09:06.629Z</time>
      </trkpt>
      <trkpt lat="43.83834" lon="6.42659">
        <ele>873</ele>
        <time>2021-08-13T19:09:07.539Z</time>
      </trkpt>
      <trkpt lat="43.83832" lon="6.42644">
        <ele>868</ele>
        <time>2021-08-13T19:09:08.752Z</time>
      </trkpt>
      <trkpt lat="43.83832" lon="6.42629">
        <ele>865</ele>
        <time>2021-08-13T19:09:09.946Z</time>
      </trkpt>
      <trkpt lat="43.8383" lon="6.42613">
        <ele>860</ele>
        <time>2021-08-13T19:09:11.238Z</time>
      </trkpt>
      <trkpt lat="43.83829" lon="6.42602">
        <ele>858</ele>
        <time>2021-08-13T19:09:12.120Z</time>
      </trkpt>
      <trkpt lat="43.83832" lon="6.42597">
        <ele>858</ele>
        <time>2021-08-13T19:09:13.391Z</time>
      </trkpt>
      <trkpt lat="43.83838" lon="6.42591">
        <ele>859</ele>
        <time>2021-08-13T19:09:21.120Z</time>
      </trkpt>
      <trkpt lat="43.83849" lon="6.42586">
        <ele>862</ele>
        <time>2021-08-13T19:09:33.213Z</time>
      </trkpt>
      <trkpt lat="43.83861" lon="6.42586">
        <ele>867</ele>
        <time>2021-08-13T19:09:45.750Z</time>
      </trkpt>
      <trkpt lat="43.83896" lon="6.42582">
        <ele>880</ele>
        <time>2021-08-13T19:10:22.439Z</time>
      </trkpt>
      <trkpt lat="43.83899" lon="6.42574">
        <ele>879</ele>
        <time>2021-08-13T19:10:23.156Z</time>
      </trkpt>
      <trkpt lat="43.839" lon="6.42567">
        <ele>878</ele>
        <time>2021-08-13T19:10:23.724Z</time>
      </trkpt>
      <trkpt lat="43.83896" lon="6.42555">
        <ele>874</ele>
        <time>2021-08-13T19:10:24.776Z</time>
      </trkpt>
      <trkpt lat="43.83892" lon="6.42518">
        <ele>863</ele>
        <time>2021-08-13T19:10:27.753Z</time>
      </trkpt>
      <trkpt lat="43.83892" lon="6.42503">
        <ele>859</ele>
        <time>2021-08-13T19:10:28.946Z</time>
      </trkpt>
      <trkpt lat="43.83896" lon="6.42479">
        <ele>859</ele>
        <time>2021-08-13T19:10:33.759Z</time>
      </trkpt>
      <trkpt lat="43.839" lon="6.42472">
        <ele>859</ele>
        <time>2021-08-13T19:10:35.503Z</time>
      </trkpt>
      <trkpt lat="43.83927" lon="6.42455">
        <ele>866</ele>
        <time>2021-08-13T19:11:06.483Z</time>
      </trkpt>
      <trkpt lat="43.83936" lon="6.42454">
        <ele>869</ele>
        <time>2021-08-13T19:11:15.916Z</time>
      </trkpt>
      <trkpt lat="43.83939" lon="6.42454">
        <ele>870</ele>
        <time>2021-08-13T19:11:19.050Z</time>
      </trkpt>
      <trkpt lat="43.8394" lon="6.4245">
        <ele>870</ele>
        <time>2021-08-13T19:11:19.877Z</time>
      </trkpt>
      <trkpt lat="43.83941" lon="6.42428">
        <ele>868</ele>
        <time>2021-08-13T19:11:21.631Z</time>
      </trkpt>
      <trkpt lat="43.83944" lon="6.4242">
        <ele>868</ele>
        <time>2021-08-13T19:11:23.393Z</time>
      </trkpt>
      <trkpt lat="43.8396" lon="6.42407">
        <ele>878</ele>
        <time>2021-08-13T19:11:42.767Z</time>
      </trkpt>
      <trkpt lat="43.83964" lon="6.42394">
        <ele>884</ele>
        <time>2021-08-13T19:11:53.417Z</time>
      </trkpt>
      <trkpt lat="43.83965" lon="6.42384">
        <ele>888</ele>
        <time>2021-08-13T19:12:01.024Z</time>
      </trkpt>
      <trkpt lat="43.83963" lon="6.42377">
        <ele>890</ele>
        <time>2021-08-13T19:12:06.698Z</time>
      </trkpt>
      <trkpt lat="43.8396" lon="6.42374">
        <ele>890</ele>
        <time>2021-08-13T19:12:07.700Z</time>
      </trkpt>
      <trkpt lat="43.83951" lon="6.4237">
        <ele>887</ele>
        <time>2021-08-13T19:12:08.742Z</time>
      </trkpt>
      <trkpt lat="43.83927" lon="6.42371">
        <ele>875</ele>
        <time>2021-08-13T19:12:11.391Z</time>
      </trkpt>
      <trkpt lat="43.83918" lon="6.42364">
        <ele>873</ele>
        <time>2021-08-13T19:12:12.529Z</time>
      </trkpt>
      <trkpt lat="43.83912" lon="6.42353">
        <ele>875</ele>
        <time>2021-08-13T19:12:22.922Z</time>
      </trkpt>
      <trkpt lat="43.83906" lon="6.42341">
        <ele>878</ele>
        <time>2021-08-13T19:12:33.924Z</time>
      </trkpt>
      <trkpt lat="43.83886" lon="6.42316">
        <ele>886</ele>
        <time>2021-08-13T19:13:02.057Z</time>
      </trkpt>
      <trkpt lat="43.83876" lon="6.42307">
        <ele>889</ele>
        <time>2021-08-13T19:13:14.513Z</time>
      </trkpt>
      <trkpt lat="43.83863" lon="6.423">
        <ele>889</ele>
        <time>2021-08-13T19:13:18.290Z</time>
      </trkpt>
      <trkpt lat="43.83845" lon="6.42296">
        <ele>887</ele>
        <time>2021-08-13T19:13:20.301Z</time>
      </trkpt>
      <trkpt lat="43.83817" lon="6.42302">
        <ele>881</ele>
        <time>2021-08-13T19:13:23.426Z</time>
      </trkpt>
      <trkpt lat="43.83804" lon="6.42301">
        <ele>880</ele>
        <time>2021-08-13T19:13:24.863Z</time>
      </trkpt>
      <trkpt lat="43.83801" lon="6.42296">
        <ele>882</ele>
        <time>2021-08-13T19:13:29.764Z</time>
      </trkpt>
      <trkpt lat="43.83802" lon="6.42292">
        <ele>883</ele>
        <time>2021-08-13T19:13:32.954Z</time>
      </trkpt>
      <trkpt lat="43.83814" lon="6.42283">
        <ele>888</ele>
        <time>2021-08-13T19:13:47.207Z</time>
      </trkpt>
      <trkpt lat="43.83815" lon="6.42278">
        <ele>889</ele>
        <time>2021-08-13T19:13:51.117Z</time>
      </trkpt>
      <trkpt lat="43.83813" lon="6.42274">
        <ele>891</ele>
        <time>2021-08-13T19:13:54.785Z</time>
      </trkpt>
      <trkpt lat="43.83807" lon="6.42272">
        <ele>891</ele>
        <time>2021-08-13T19:13:56.456Z</time>
      </trkpt>
      <trkpt lat="43.83805" lon="6.42271">
        <ele>891</ele>
        <time>2021-08-13T19:13:57.032Z</time>
      </trkpt>
      <trkpt lat="43.83798" lon="6.42265">
        <ele>892</ele>
        <time>2021-08-13T19:14:04.366Z</time>
      </trkpt>
      <trkpt lat="43.83776" lon="6.42251">
        <ele>894</ele>
        <time>2021-08-13T19:14:18.947Z</time>
      </trkpt>
      <trkpt lat="43.83768" lon="6.42243">
        <ele>895</ele>
        <time>2021-08-13T19:14:25.989Z</time>
      </trkpt>
      <trkpt lat="43.83757" lon="6.42235">
        <ele>896</ele>
        <time>2021-08-13T19:14:33.341Z</time>
      </trkpt>
      <trkpt lat="43.83739" lon="6.42206">
        <ele>900</ele>
        <time>2021-08-13T19:15:02.172Z</time>
      </trkpt>
      <trkpt lat="43.8373" lon="6.42203">
        <ele>899</ele>
        <time>2021-08-13T19:15:03.193Z</time>
      </trkpt>
      <trkpt lat="43.83719" lon="6.42206">
        <ele>897</ele>
        <time>2021-08-13T19:15:04.430Z</time>
      </trkpt>
      <trkpt lat="43.83709" lon="6.42222">
        <ele>892</ele>
        <time>2021-08-13T19:15:06.114Z</time>
      </trkpt>
      <trkpt lat="43.837" lon="6.42217">
        <ele>892</ele>
        <time>2021-08-13T19:15:08.740Z</time>
      </trkpt>
      <trkpt lat="43.83692" lon="6.4221">
        <ele>892</ele>
        <time>2021-08-13T19:15:11.303Z</time>
      </trkpt>
      <trkpt lat="43.83674" lon="6.42173">
        <ele>893</ele>
        <time>2021-08-13T19:15:23.489Z</time>
      </trkpt>
      <trkpt lat="43.83671" lon="6.42166">
        <ele>893</ele>
        <time>2021-08-13T19:15:25.080Z</time>
      </trkpt>
      <trkpt lat="43.83665" lon="6.4213">
        <ele>898</ele>
        <time>2021-08-13T19:15:52.923Z</time>
      </trkpt>
      <trkpt lat="43.8367" lon="6.4207">
        <ele>911</ele>
        <time>2021-08-13T19:16:38.438Z</time>
      </trkpt>
      <trkpt lat="43.83672" lon="6.42062">
        <ele>914</ele>
        <time>2021-08-13T19:16:44.819Z</time>
      </trkpt>
      <trkpt lat="43.8367" lon="6.42045">
        <ele>918</ele>
        <time>2021-08-13T19:16:57.799Z</time>
      </trkpt>
      <trkpt lat="43.83667" lon="6.42036">
        <ele>919</ele>
        <time>2021-08-13T19:17:05.270Z</time>
      </trkpt>
      <trkpt lat="43.83659" lon="6.42028">
        <ele>920</ele>
        <time>2021-08-13T19:17:12.312Z</time>
      </trkpt>
      <trkpt lat="43.83647" lon="6.4202">
        <ele>920</ele>
        <time>2021-08-13T19:17:15.919Z</time>
      </trkpt>
      <trkpt lat="43.83584" lon="6.42003">
        <ele>915</ele>
        <time>2021-08-13T19:17:22.999Z</time>
      </trkpt>
      <trkpt lat="43.83576" lon="6.42001">
        <ele>913</ele>
        <time>2021-08-13T19:17:23.896Z</time>
      </trkpt>
      <trkpt lat="43.83569" lon="6.41998">
        <ele>912</ele>
        <time>2021-08-13T19:17:24.704Z</time>
      </trkpt>
      <trkpt lat="43.83562" lon="6.41991">
        <ele>912</ele>
        <time>2021-08-13T19:17:27.042Z</time>
      </trkpt>
      <trkpt lat="43.83547" lon="6.41965">
        <ele>914</ele>
        <time>2021-08-13T19:17:41.587Z</time>
      </trkpt>
      <trkpt lat="43.83546" lon="6.41956">
        <ele>916</ele>
        <time>2021-08-13T19:17:48.449Z</time>
      </trkpt>
      <trkpt lat="43.83544" lon="6.41913">
        <ele>926</ele>
        <time>2021-08-13T19:18:20.921Z</time>
      </trkpt>
      <trkpt lat="43.83535" lon="6.41896">
        <ele>928</ele>
        <time>2021-08-13T19:18:36.377Z</time>
      </trkpt>
      <trkpt lat="43.83489" lon="6.41827">
        <ele>930</ele>
        <time>2021-08-13T19:19:01.533Z</time>
      </trkpt>
      <trkpt lat="43.83483" lon="6.41814">
        <ele>931</ele>
        <time>2021-08-13T19:19:08.667Z</time>
      </trkpt>
      <trkpt lat="43.83475" lon="6.41789">
        <ele>937</ele>
        <time>2021-08-13T19:19:29.278Z</time>
      </trkpt>
      <trkpt lat="43.83457" lon="6.41736">
        <ele>947</ele>
        <time>2021-08-13T19:20:13.424Z</time>
      </trkpt>
      <trkpt lat="43.83446" lon="6.41713">
        <ele>949</ele>
        <time>2021-08-13T19:20:27.509Z</time>
      </trkpt>
      <trkpt lat="43.83441" lon="6.41707">
        <ele>949</ele>
        <time>2021-08-13T19:20:29.300Z</time>
      </trkpt>
      <trkpt lat="43.83424" lon="6.417">
        <ele>944</ele>
        <time>2021-08-13T19:20:31.257Z</time>
      </trkpt>
      <trkpt lat="43.834" lon="6.41643">
        <ele>951</ele>
        <time>2021-08-13T19:21:20.994Z</time>
      </trkpt>
      <trkpt lat="43.83362" lon="6.41567">
        <ele>955</ele>
        <time>2021-08-13T19:21:54.793Z</time>
      </trkpt>
      <trkpt lat="43.8336" lon="6.41475">
        <ele>971</ele>
        <time>2021-08-13T19:23:04.156Z</time>
      </trkpt>
      <trkpt lat="43.83348" lon="6.4138">
        <ele>978</ele>
        <time>2021-08-13T19:23:53.455Z</time>
      </trkpt>
      <trkpt lat="43.83345" lon="6.41362">
        <ele>979</ele>
        <time>2021-08-13T19:24:01.005Z</time>
      </trkpt>
      <trkpt lat="43.83318" lon="6.41274">
        <ele>975</ele>
        <time>2021-08-13T19:24:08.467Z</time>
      </trkpt>
      <trkpt lat="43.83316" lon="6.41252">
        <ele>976</ele>
        <time>2021-08-13T19:24:16.719Z</time>
      </trkpt>
      <trkpt lat="43.83316" lon="6.41234">
        <ele>976</ele>
        <time>2021-08-13T19:24:20.236Z</time>
      </trkpt>
      <trkpt lat="43.83318" lon="6.4122">
        <ele>976</ele>
        <time>2021-08-13T19:24:23.025Z</time>
      </trkpt>
      <trkpt lat="43.8332" lon="6.4121">
        <ele>977</ele>
        <time>2021-08-13T19:24:30.845Z</time>
      </trkpt>
      <trkpt lat="43.83333" lon="6.41185">
        <ele>981</ele>
        <time>2021-08-13T19:24:54.070Z</time>
      </trkpt>
      <trkpt lat="43.83335" lon="6.41174">
        <ele>982</ele>
        <time>2021-08-13T19:25:01.425Z</time>
      </trkpt>
      <trkpt lat="43.83337" lon="6.41139">
        <ele>989</ele>
        <time>2021-08-13T19:25:27.884Z</time>
      </trkpt>
      <trkpt lat="43.83336" lon="6.41116">
        <ele>993</ele>
        <time>2021-08-13T19:25:45.249Z</time>
      </trkpt>
      <trkpt lat="43.83331" lon="6.41092">
        <ele>995</ele>
        <time>2021-08-13T19:25:59.463Z</time>
      </trkpt>
      <trkpt lat="43.83327" lon="6.41081">
        <ele>996</ele>
        <time>2021-08-13T19:26:06.593Z</time>
      </trkpt>
      <trkpt lat="43.83291" lon="6.41042">
        <ele>996</ele>
        <time>2021-08-13T19:26:18.968Z</time>
      </trkpt>
      <trkpt lat="43.83215" lon="6.4097">
        <ele>993</ele>
        <time>2021-08-13T19:26:31.510Z</time>
      </trkpt>
      <trkpt lat="43.83196" lon="6.40945">
        <ele>991</ele>
        <time>2021-08-13T19:26:34.400Z</time>
      </trkpt>
      <trkpt lat="43.83193" lon="6.40935">
        <ele>993</ele>
        <time>2021-08-13T19:26:42.562Z</time>
      </trkpt>
      <trkpt lat="43.83186" lon="6.40904">
        <ele>996</ele>
        <time>2021-08-13T19:27:05.268Z</time>
      </trkpt>
      <trkpt lat="43.83181" lon="6.40865">
        <ele>1000</ele>
        <time>2021-08-13T19:27:35.120Z</time>
      </trkpt>
      <trkpt lat="43.8318" lon="6.40837">
        <ele>1004</ele>
        <time>2021-08-13T19:27:56.248Z</time>
      </trkpt>
      <trkpt lat="43.83183" lon="6.4074">
        <ele>1023</ele>
        <time>2021-08-13T19:29:09.417Z</time>
      </trkpt>
      <trkpt lat="43.8318" lon="6.40722">
        <ele>1025</ele>
        <time>2021-08-13T19:29:23.340Z</time>
      </trkpt>
      <trkpt lat="43.83176" lon="6.40706">
        <ele>1027</ele>
        <time>2021-08-13T19:29:36.102Z</time>
      </trkpt>
      <trkpt lat="43.83169" lon="6.40687">
        <ele>1027</ele>
        <time>2021-08-13T19:29:40.270Z</time>
      </trkpt>
      <trkpt lat="43.8315" lon="6.40647">
        <ele>1035</ele>
        <time>2021-08-13T19:30:16.364Z</time>
      </trkpt>
      <trkpt lat="43.83143" lon="6.4062">
        <ele>1042</ele>
        <time>2021-08-13T19:30:37.986Z</time>
      </trkpt>
      <trkpt lat="43.83137" lon="6.40607">
        <ele>1046</ele>
        <time>2021-08-13T19:30:49.617Z</time>
      </trkpt>
      <trkpt lat="43.83121" lon="6.40595">
        <ele>1047</ele>
        <time>2021-08-13T19:30:58.523Z</time>
      </trkpt>
      <trkpt lat="43.83105" lon="6.4059">
        <ele>1047</ele>
        <time>2021-08-13T19:31:02.965Z</time>
      </trkpt>
      <trkpt lat="43.83054" lon="6.40597">
        <ele>1050</ele>
        <time>2021-08-13T19:31:28.675Z</time>
      </trkpt>
      <trkpt lat="43.83035" lon="6.40607">
        <ele>1052</ele>
        <time>2021-08-13T19:31:42.771Z</time>
      </trkpt>
      <trkpt lat="43.83014" lon="6.40625">
        <ele>1052</ele>
        <time>2021-08-13T19:31:49.458Z</time>
      </trkpt>
      <trkpt lat="43.82917" lon="6.40725">
        <ele>1059</ele>
        <time>2021-08-13T19:32:49.837Z</time>
      </trkpt>
      <trkpt lat="43.82893" lon="6.40738">
        <ele>1058</ele>
        <time>2021-08-13T19:32:53.138Z</time>
      </trkpt>
      <trkpt lat="43.82881" lon="6.40738">
        <ele>1060</ele>
        <time>2021-08-13T19:33:05.675Z</time>
      </trkpt>
      <trkpt lat="43.82843" lon="6.40744">
        <ele>1063</ele>
        <time>2021-08-13T19:33:27.936Z</time>
      </trkpt>
      <trkpt lat="43.82825" lon="6.40725">
        <ele>1070</ele>
        <time>2021-08-13T19:33:51.573Z</time>
      </trkpt>
      <trkpt lat="43.82809" lon="6.40699">
        <ele>1077</ele>
        <time>2021-08-13T19:34:17.329Z</time>
      </trkpt>
      <trkpt lat="43.82802" lon="6.40694">
        <ele>1078</ele>
        <time>2021-08-13T19:34:24.855Z</time>
      </trkpt>
      <trkpt lat="43.82796" lon="6.40692">
        <ele>1079</ele>
        <time>2021-08-13T19:34:31.302Z</time>
      </trkpt>
      <trkpt lat="43.82787" lon="6.40692">
        <ele>1079</ele>
        <time>2021-08-13T19:34:33.740Z</time>
      </trkpt>
      <trkpt lat="43.8276" lon="6.40701">
        <ele>1077</ele>
        <time>2021-08-13T19:34:36.803Z</time>
      </trkpt>
      <trkpt lat="43.82751" lon="6.407">
        <ele>1077</ele>
        <time>2021-08-13T19:34:39.249Z</time>
      </trkpt>
      <trkpt lat="43.82744" lon="6.40697">
        <ele>1077</ele>
        <time>2021-08-13T19:34:41.233Z</time>
      </trkpt>
      <trkpt lat="43.8274" lon="6.40689">
        <ele>1079</ele>
        <time>2021-08-13T19:34:48.569Z</time>
      </trkpt>
      <trkpt lat="43.82734" lon="6.40671">
        <ele>1083</ele>
        <time>2021-08-13T19:35:03.514Z</time>
      </trkpt>
      <trkpt lat="43.82727" lon="6.40656">
        <ele>1087</ele>
        <time>2021-08-13T19:35:16.978Z</time>
      </trkpt>
      <trkpt lat="43.82728" lon="6.40649">
        <ele>1089</ele>
        <time>2021-08-13T19:35:22.356Z</time>
      </trkpt>
      <trkpt lat="43.82731" lon="6.40645">
        <ele>1090</ele>
        <time>2021-08-13T19:35:26.705Z</time>
      </trkpt>
      <trkpt lat="43.82746" lon="6.40647">
        <ele>1090</ele>
        <time>2021-08-13T19:35:30.787Z</time>
      </trkpt>
      <trkpt lat="43.82756" lon="6.40643">
        <ele>1091</ele>
        <time>2021-08-13T19:35:37.848Z</time>
      </trkpt>
      <trkpt lat="43.82763" lon="6.40638">
        <ele>1092</ele>
        <time>2021-08-13T19:35:45.374Z</time>
      </trkpt>
      <trkpt lat="43.82765" lon="6.40634">
        <ele>1093</ele>
        <time>2021-08-13T19:35:49.042Z</time>
      </trkpt>
      <trkpt lat="43.82764" lon="6.40626">
        <ele>1095</ele>
        <time>2021-08-13T19:35:55.161Z</time>
      </trkpt>
      <trkpt lat="43.82745" lon="6.40615">
        <ele>1098</ele>
        <time>2021-08-13T19:36:16.672Z</time>
      </trkpt>
      <trkpt lat="43.82719" lon="6.40596">
        <ele>1103</ele>
        <time>2021-08-13T19:36:47.378Z</time>
      </trkpt>
      <trkpt lat="43.82706" lon="6.40591">
        <ele>1105</ele>
        <time>2021-08-13T19:37:01.473Z</time>
      </trkpt>
      <trkpt lat="43.82697" lon="6.40589">
        <ele>1106</ele>
        <time>2021-08-13T19:37:08.564Z</time>
      </trkpt>
      <trkpt lat="43.82663" lon="6.40595">
        <ele>1106</ele>
        <time>2021-08-13T19:37:17.847Z</time>
      </trkpt>
      <trkpt lat="43.82649" lon="6.40595">
        <ele>1106</ele>
        <time>2021-08-13T19:37:21.639Z</time>
      </trkpt>
      <trkpt lat="43.82634" lon="6.40582">
        <ele>1110</ele>
        <time>2021-08-13T19:37:40.121Z</time>
      </trkpt>
      <trkpt lat="43.82608" lon="6.40554">
        <ele>1119</ele>
        <time>2021-08-13T19:38:14.518Z</time>
      </trkpt>
      <trkpt lat="43.82527" lon="6.40516">
        <ele>1124</ele>
        <time>2021-08-13T19:38:57.397Z</time>
      </trkpt>
      <trkpt lat="43.82522" lon="6.40505">
        <ele>1127</ele>
        <time>2021-08-13T19:39:07.196Z</time>
      </trkpt>
      <trkpt lat="43.82517" lon="6.40483">
        <ele>1133</ele>
        <time>2021-08-13T19:39:24.581Z</time>
      </trkpt>
      <trkpt lat="43.82513" lon="6.40478">
        <ele>1134</ele>
        <time>2021-08-13T19:39:30.208Z</time>
      </trkpt>
      <trkpt lat="43.82495" lon="6.40475">
        <ele>1132</ele>
        <time>2021-08-13T19:39:32.208Z</time>
      </trkpt>
      <trkpt lat="43.82448" lon="6.40437">
        <ele>1139</ele>
        <time>2021-08-13T19:40:25.376Z</time>
      </trkpt>
      <trkpt lat="43.82433" lon="6.40428">
        <ele>1139</ele>
        <time>2021-08-13T19:40:29.803Z</time>
      </trkpt>
      <trkpt lat="43.82433" lon="6.40428">
        <ele>1139</ele>
        <time>2021-08-13T19:40:29.803Z</time>
      </trkpt>
      <trkpt lat="43.8241" lon="6.40411">
        <ele>1141</ele>
        <time>2021-08-13T19:40:44.769Z</time>
      </trkpt>
      <trkpt lat="43.82359" lon="6.40381">
        <ele>1144</ele>
        <time>2021-08-13T19:41:11.741Z</time>
      </trkpt>
      <trkpt lat="43.82342" lon="6.40365">
        <ele>1145</ele>
        <time>2021-08-13T19:41:21.388Z</time>
      </trkpt>
      <trkpt lat="43.82335" lon="6.40353">
        <ele>1146</ele>
        <time>2021-08-13T19:41:28.523Z</time>
      </trkpt>
      <trkpt lat="43.823" lon="6.40231">
        <ele>1158</ele>
        <time>2021-08-13T19:42:58.686Z</time>
      </trkpt>
      <trkpt lat="43.82303" lon="6.40228">
        <ele>1159</ele>
        <time>2021-08-13T19:43:02.550Z</time>
      </trkpt>
      <trkpt lat="43.82306" lon="6.40228">
        <ele>1160</ele>
        <time>2021-08-13T19:43:05.685Z</time>
      </trkpt>
      <trkpt lat="43.82325" lon="6.40239">
        <ele>1161</ele>
        <time>2021-08-13T19:43:15.346Z</time>
      </trkpt>
      <trkpt lat="43.82348" lon="6.40252">
        <ele>1164</ele>
        <time>2021-08-13T19:43:37.282Z</time>
      </trkpt>
      <trkpt lat="43.82352" lon="6.40252">
        <ele>1165</ele>
        <time>2021-08-13T19:43:41.461Z</time>
      </trkpt>
      <trkpt lat="43.82353" lon="6.40247">
        <ele>1166</ele>
        <time>2021-08-13T19:43:45.372Z</time>
      </trkpt>
      <trkpt lat="43.82352" lon="6.4024">
        <ele>1167</ele>
        <time>2021-08-13T19:43:50.751Z</time>
      </trkpt>
      <trkpt lat="43.82334" lon="6.40185">
        <ele>1174</ele>
        <time>2021-08-13T19:44:36.272Z</time>
      </trkpt>
      <trkpt lat="43.82297" lon="6.40018">
        <ele>1195</ele>
        <time>2021-08-13T19:46:47.948Z</time>
      </trkpt>
      <trkpt lat="43.82277" lon="6.39941">
        <ele>1208</ele>
        <time>2021-08-13T19:47:49.633Z</time>
      </trkpt>
      <trkpt lat="43.82265" lon="6.3991">
        <ele>1212</ele>
        <time>2021-08-13T19:48:16.150Z</time>
      </trkpt>
      <trkpt lat="43.82249" lon="6.39906">
        <ele>1210</ele>
        <time>2021-08-13T19:48:17.943Z</time>
      </trkpt>
      <trkpt lat="43.82246" lon="6.3989">
        <ele>1213</ele>
        <time>2021-08-13T19:48:30.404Z</time>
      </trkpt>
      <trkpt lat="43.82243" lon="6.39886">
        <ele>1214</ele>
        <time>2021-08-13T19:48:34.753Z</time>
      </trkpt>
      <trkpt lat="43.82239" lon="6.39888">
        <ele>1214</ele>
        <time>2021-08-13T19:48:35.905Z</time>
      </trkpt>
      <trkpt lat="43.82233" lon="6.39902">
        <ele>1212</ele>
        <time>2021-08-13T19:48:37.201Z</time>
      </trkpt>
      <trkpt lat="43.82215" lon="6.39924">
        <ele>1210</ele>
        <time>2021-08-13T19:48:39.848Z</time>
      </trkpt>
      <trkpt lat="43.82206" lon="6.39929">
        <ele>1210</ele>
        <time>2021-08-13T19:48:42.474Z</time>
      </trkpt>
      <trkpt lat="43.82194" lon="6.39932">
        <ele>1211</ele>
        <time>2021-08-13T19:48:49.782Z</time>
      </trkpt>
      <trkpt lat="43.82172" lon="6.39929">
        <ele>1214</ele>
        <time>2021-08-13T19:49:12.877Z</time>
      </trkpt>
      <trkpt lat="43.82163" lon="6.39924">
        <ele>1215</ele>
        <time>2021-08-13T19:49:19.921Z</time>
      </trkpt>
      <trkpt lat="43.82142" lon="6.39903">
        <ele>1220</ele>
        <time>2021-08-13T19:49:46.974Z</time>
      </trkpt>
      <trkpt lat="43.82137" lon="6.39901">
        <ele>1221</ele>
        <time>2021-08-13T19:49:52.411Z</time>
      </trkpt>
      <trkpt lat="43.8213" lon="6.399">
        <ele>1221</ele>
        <time>2021-08-13T19:49:54.317Z</time>
      </trkpt>
      <trkpt lat="43.82111" lon="6.39907">
        <ele>1221</ele>
        <time>2021-08-13T19:49:59.642Z</time>
      </trkpt>
      <trkpt lat="43.82089" lon="6.3991">
        <ele>1221</ele>
        <time>2021-08-13T19:50:05.630Z</time>
      </trkpt>
      <trkpt lat="43.82075" lon="6.39905">
        <ele>1222</ele>
        <time>2021-08-13T19:50:13.460Z</time>
      </trkpt>
      <trkpt lat="43.82049" lon="6.39882">
        <ele>1225</ele>
        <time>2021-08-13T19:50:34.621Z</time>
      </trkpt>
      <trkpt lat="43.82031" lon="6.3987">
        <ele>1227</ele>
        <time>2021-08-13T19:50:48.707Z</time>
      </trkpt>
      <trkpt lat="43.81978" lon="6.39801">
        <ele>1237</ele>
        <time>2021-08-13T19:52:04.674Z</time>
      </trkpt>
      <trkpt lat="43.81971" lon="6.3979">
        <ele>1239</ele>
        <time>2021-08-13T19:52:15.730Z</time>
      </trkpt>
      <trkpt lat="43.81959" lon="6.39757">
        <ele>1243</ele>
        <time>2021-08-13T19:52:43.585Z</time>
      </trkpt>
      <trkpt lat="43.81947" lon="6.39739">
        <ele>1244</ele>
        <time>2021-08-13T19:52:52.336Z</time>
      </trkpt>
      <trkpt lat="43.81927" lon="6.39724">
        <ele>1244</ele>
        <time>2021-08-13T19:52:58.495Z</time>
      </trkpt>
      <trkpt lat="43.8192" lon="6.39724">
        <ele>1243</ele>
        <time>2021-08-13T19:52:59.267Z</time>
      </trkpt>
      <trkpt lat="43.81915" lon="6.39722">
        <ele>1243</ele>
        <time>2021-08-13T19:53:00.677Z</time>
      </trkpt>
      <trkpt lat="43.81909" lon="6.39716">
        <ele>1243</ele>
        <time>2021-08-13T19:53:02.681Z</time>
      </trkpt>
      <trkpt lat="43.81897" lon="6.3969">
        <ele>1244</ele>
        <time>2021-08-13T19:53:12.887Z</time>
      </trkpt>
      <trkpt lat="43.81893" lon="6.39675">
        <ele>1244</ele>
        <time>2021-08-13T19:53:16.012Z</time>
      </trkpt>
      <trkpt lat="43.81891" lon="6.39656">
        <ele>1245</ele>
        <time>2021-08-13T19:53:23.689Z</time>
      </trkpt>
      <trkpt lat="43.81887" lon="6.3961">
        <ele>1246</ele>
        <time>2021-08-13T19:53:36.161Z</time>
      </trkpt>
      <trkpt lat="43.81886" lon="6.39571">
        <ele>1246</ele>
        <time>2021-08-13T19:53:43.787Z</time>
      </trkpt>
      <trkpt lat="43.81881" lon="6.39562">
        <ele>1245</ele>
        <time>2021-08-13T19:53:44.692Z</time>
      </trkpt>
      <trkpt lat="43.8188" lon="6.39549">
        <ele>1245</ele>
        <time>2021-08-13T19:53:47.247Z</time>
      </trkpt>
      <trkpt lat="43.81859" lon="6.39484">
        <ele>1241</ele>
        <time>2021-08-13T19:53:52.915Z</time>
      </trkpt>
      <trkpt lat="43.81838" lon="6.39462">
        <ele>1236</ele>
        <time>2021-08-13T19:53:55.819Z</time>
      </trkpt>
      <trkpt lat="43.81825" lon="6.39458">
        <ele>1234</ele>
        <time>2021-08-13T19:53:57.288Z</time>
      </trkpt>
      <trkpt lat="43.81812" lon="6.39462">
        <ele>1232</ele>
        <time>2021-08-13T19:53:58.757Z</time>
      </trkpt>
      <trkpt lat="43.81809" lon="6.39462">
        <ele>1231</ele>
        <time>2021-08-13T19:53:59.088Z</time>
      </trkpt>
      <trkpt lat="43.81796" lon="6.39451">
        <ele>1229</ele>
        <time>2021-08-13T19:54:00.768Z</time>
      </trkpt>
      <trkpt lat="43.81792" lon="6.39444">
        <ele>1228</ele>
        <time>2021-08-13T19:54:01.479Z</time>
      </trkpt>
      <trkpt lat="43.8179" lon="6.39436">
        <ele>1228</ele>
        <time>2021-08-13T19:54:03.134Z</time>
      </trkpt>
      <trkpt lat="43.8179" lon="6.39409">
        <ele>1227</ele>
        <time>2021-08-13T19:54:05.362Z</time>
      </trkpt>
      <trkpt lat="43.81789" lon="6.394">
        <ele>1227</ele>
        <time>2021-08-13T19:54:07.141Z</time>
      </trkpt>
      <trkpt lat="43.81782" lon="6.39385">
        <ele>1226</ele>
        <time>2021-08-13T19:54:08.563Z</time>
      </trkpt>
      <trkpt lat="43.81777" lon="6.39379">
        <ele>1226</ele>
        <time>2021-08-13T19:54:10.355Z</time>
      </trkpt>
      <trkpt lat="43.8177" lon="6.39375">
        <ele>1225</ele>
        <time>2021-08-13T19:54:11.190Z</time>
      </trkpt>
      <trkpt lat="43.81763" lon="6.39374">
        <ele>1223</ele>
        <time>2021-08-13T19:54:11.966Z</time>
      </trkpt>
      <trkpt lat="43.81747" lon="6.39376">
        <ele>1221</ele>
        <time>2021-08-13T19:54:13.738Z</time>
      </trkpt>
      <trkpt lat="43.8174" lon="6.39375">
        <ele>1221</ele>
        <time>2021-08-13T19:54:15.644Z</time>
      </trkpt>
      <trkpt lat="43.81736" lon="6.39371">
        <ele>1221</ele>
        <time>2021-08-13T19:54:16.980Z</time>
      </trkpt>
      <trkpt lat="43.8166" lon="6.39324">
        <ele>1216</ele>
        <time>2021-08-13T19:54:25.833Z</time>
      </trkpt>
      <trkpt lat="43.81501" lon="6.39233">
        <ele>1213</ele>
        <time>2021-08-13T19:54:53.565Z</time>
      </trkpt>
      <trkpt lat="43.81472" lon="6.39211">
        <ele>1212</ele>
        <time>2021-08-13T19:54:58.180Z</time>
      </trkpt>
      <trkpt lat="43.81362" lon="6.39146">
        <ele>1210</ele>
        <time>2021-08-13T19:55:17.626Z</time>
      </trkpt>
      <trkpt lat="43.81346" lon="6.3914">
        <ele>1210</ele>
        <time>2021-08-13T19:55:22.116Z</time>
      </trkpt>
      <trkpt lat="43.81323" lon="6.39136">
        <ele>1209</ele>
        <time>2021-08-13T19:55:24.967Z</time>
      </trkpt>
      <trkpt lat="43.81311" lon="6.39134">
        <ele>1209</ele>
        <time>2021-08-13T19:55:28.241Z</time>
      </trkpt>
      <trkpt lat="43.81264" lon="6.39118">
        <ele>1211</ele>
        <time>2021-08-13T19:55:49.333Z</time>
      </trkpt>
      <trkpt lat="43.81242" lon="6.39117">
        <ele>1211</ele>
        <time>2021-08-13T19:55:55.295Z</time>
      </trkpt>
      <trkpt lat="43.81203" lon="6.39093">
        <ele>1212</ele>
        <time>2021-08-13T19:56:10.012Z</time>
      </trkpt>
      <trkpt lat="43.81142" lon="6.3908">
        <ele>1211</ele>
        <time>2021-08-13T19:56:20.113Z</time>
      </trkpt>
      <trkpt lat="43.81124" lon="6.3907">
        <ele>1212</ele>
        <time>2021-08-13T19:56:29.392Z</time>
      </trkpt>
      <trkpt lat="43.81115" lon="6.39069">
        <ele>1212</ele>
        <time>2021-08-13T19:56:31.838Z</time>
      </trkpt>
      <trkpt lat="43.81093" lon="6.39071">
        <ele>1212</ele>
        <time>2021-08-13T19:56:37.809Z</time>
      </trkpt>
      <trkpt lat="43.81078" lon="6.39068">
        <ele>1212</ele>
        <time>2021-08-13T19:56:41.914Z</time>
      </trkpt>
      <trkpt lat="43.81074" lon="6.39069">
        <ele>1212</ele>
        <time>2021-08-13T19:56:43.015Z</time>
      </trkpt>
      <trkpt lat="43.81042" lon="6.3908">
        <ele>1211</ele>
        <time>2021-08-13T19:56:47.613Z</time>
      </trkpt>
      <trkpt lat="43.81032" lon="6.39087">
        <ele>1210</ele>
        <time>2021-08-13T19:56:48.849Z</time>
      </trkpt>
      <trkpt lat="43.81028" lon="6.39087">
        <ele>1210</ele>
        <time>2021-08-13T19:56:49.933Z</time>
      </trkpt>
      <trkpt lat="43.81009" lon="6.39075">
        <ele>1212</ele>
        <time>2021-08-13T19:57:04.059Z</time>
      </trkpt>
      <trkpt lat="43.80986" lon="6.39073">
        <ele>1211</ele>
        <time>2021-08-13T19:57:06.887Z</time>
      </trkpt>
      <trkpt lat="43.8097" lon="6.39065">
        <ele>1211</ele>
        <time>2021-08-13T19:57:11.494Z</time>
      </trkpt>
      <trkpt lat="43.80955" lon="6.39049">
        <ele>1211</ele>
        <time>2021-08-13T19:57:16.621Z</time>
      </trkpt>
      <trkpt lat="43.80935" lon="6.39014">
        <ele>1212</ele>
        <time>2021-08-13T19:57:28.814Z</time>
      </trkpt>
      <trkpt lat="43.80933" lon="6.38998">
        <ele>1213</ele>
        <time>2021-08-13T19:57:36.036Z</time>
      </trkpt>
      <trkpt lat="43.8093" lon="6.38991">
        <ele>1213</ele>
        <time>2021-08-13T19:57:37.627Z</time>
      </trkpt>
      <trkpt lat="43.80913" lon="6.38971">
        <ele>1213</ele>
        <time>2021-08-13T19:57:43.667Z</time>
      </trkpt>
      <trkpt lat="43.80902" lon="6.38965">
        <ele>1213</ele>
        <time>2021-08-13T19:57:46.869Z</time>
      </trkpt>
      <trkpt lat="43.80898" lon="6.38966">
        <ele>1213</ele>
        <time>2021-08-13T19:57:47.970Z</time>
      </trkpt>
      <trkpt lat="43.80882" lon="6.38971">
        <ele>1212</ele>
        <time>2021-08-13T19:57:49.702Z</time>
      </trkpt>
      <trkpt lat="43.80823" lon="6.3899">
        <ele>1210</ele>
        <time>2021-08-13T19:57:57.919Z</time>
      </trkpt>
      <trkpt lat="43.80821" lon="6.38991">
        <ele>1210</ele>
        <time>2021-08-13T19:57:58.495Z</time>
      </trkpt>
      <trkpt lat="43.80818" lon="6.38991">
        <ele>1210</ele>
        <time>2021-08-13T19:57:59.308Z</time>
      </trkpt>
      <trkpt lat="43.80811" lon="6.38993">
        <ele>1210</ele>
        <time>2021-08-13T19:58:01.244Z</time>
      </trkpt>
      <trkpt lat="43.80794" lon="6.39012">
        <ele>1211</ele>
        <time>2021-08-13T19:58:11.309Z</time>
      </trkpt>
      <trkpt lat="43.8078" lon="6.39015">
        <ele>1211</ele>
        <time>2021-08-13T19:58:15.146Z</time>
      </trkpt>
      <trkpt lat="43.80757" lon="6.39038">
        <ele>1214</ele>
        <time>2021-08-13T19:58:36.314Z</time>
      </trkpt>
      <trkpt lat="43.80755" lon="6.3904">
        <ele>1214</ele>
        <time>2021-08-13T19:58:36.982Z</time>
      </trkpt>
      <trkpt lat="43.80746" lon="6.39045">
        <ele>1214</ele>
        <time>2021-08-13T19:58:39.609Z</time>
      </trkpt>
      <trkpt lat="43.80738" lon="6.39048">
        <ele>1213</ele>
        <time>2021-08-13T19:58:40.523Z</time>
      </trkpt>
      <trkpt lat="43.80693" lon="6.3905">
        <ele>1208</ele>
        <time>2021-08-13T19:58:45.490Z</time>
      </trkpt>
      <trkpt lat="43.80658" lon="6.39069">
        <ele>1206</ele>
        <time>2021-08-13T19:58:49.720Z</time>
      </trkpt>
      <trkpt lat="43.80591" lon="6.39136">
        <ele>1207</ele>
        <time>2021-08-13T19:59:14.890Z</time>
      </trkpt>
      <trkpt lat="43.80581" lon="6.39149">
        <ele>1207</ele>
        <time>2021-08-13T19:59:18.604Z</time>
      </trkpt>
      <trkpt lat="43.80569" lon="6.39166">
        <ele>1207</ele>
        <time>2021-08-13T19:59:23.252Z</time>
      </trkpt>
      <trkpt lat="43.80536" lon="6.39222">
        <ele>1206</ele>
        <time>2021-08-13T19:59:31.491Z</time>
      </trkpt>
      <trkpt lat="43.80523" lon="6.39251">
        <ele>1207</ele>
        <time>2021-08-13T19:59:42.114Z</time>
      </trkpt>
      <trkpt lat="43.8051" lon="6.39275">
        <ele>1204</ele>
        <time>2021-08-13T19:59:44.503Z</time>
      </trkpt>
      <trkpt lat="43.80492" lon="6.39305">
        <ele>1200</ele>
        <time>2021-08-13T19:59:47.609Z</time>
      </trkpt>
      <trkpt lat="43.8046" lon="6.39369">
        <ele>1193</ele>
        <time>2021-08-13T19:59:53.808Z</time>
      </trkpt>
      <trkpt lat="43.80447" lon="6.39408">
        <ele>1189</ele>
        <time>2021-08-13T19:59:57.228Z</time>
      </trkpt>
      <trkpt lat="43.80443" lon="6.39431">
        <ele>1186</ele>
        <time>2021-08-13T19:59:59.111Z</time>
      </trkpt>
      <trkpt lat="43.80443" lon="6.3944">
        <ele>1185</ele>
        <time>2021-08-13T19:59:59.828Z</time>
      </trkpt>
      <trkpt lat="43.80442" lon="6.39454">
        <ele>1182</ele>
        <time>2021-08-13T20:00:00.948Z</time>
      </trkpt>
      <trkpt lat="43.80434" lon="6.3947">
        <ele>1177</ele>
        <time>2021-08-13T20:00:02.498Z</time>
      </trkpt>
      <trkpt lat="43.80432" lon="6.39495">
        <ele>1173</ele>
        <time>2021-08-13T20:00:04.500Z</time>
      </trkpt>
      <trkpt lat="43.80434" lon="6.395">
        <ele>1173</ele>
        <time>2021-08-13T20:00:05.618Z</time>
      </trkpt>
      <trkpt lat="43.80438" lon="6.39504">
        <ele>1173</ele>
        <time>2021-08-13T20:00:06.954Z</time>
      </trkpt>
      <trkpt lat="43.80465" lon="6.3952">
        <ele>1176</ele>
        <time>2021-08-13T20:00:28.082Z</time>
      </trkpt>
      <trkpt lat="43.8048" lon="6.39538">
        <ele>1175</ele>
        <time>2021-08-13T20:00:30.370Z</time>
      </trkpt>
      <trkpt lat="43.80484" lon="6.39541">
        <ele>1175</ele>
        <time>2021-08-13T20:00:31.602Z</time>
      </trkpt>
      <trkpt lat="43.80495" lon="6.39545">
        <ele>1177</ele>
        <time>2021-08-13T20:00:43.483Z</time>
      </trkpt>
      <trkpt lat="43.80499" lon="6.39548">
        <ele>1177</ele>
        <time>2021-08-13T20:00:44.715Z</time>
      </trkpt>
      <trkpt lat="43.80508" lon="6.39571">
        <ele>1174</ele>
        <time>2021-08-13T20:00:46.798Z</time>
      </trkpt>
      <trkpt lat="43.80515" lon="6.3958">
        <ele>1174</ele>
        <time>2021-08-13T20:00:49.384Z</time>
      </trkpt>
      <trkpt lat="43.80516" lon="6.39586">
        <ele>1172</ele>
        <time>2021-08-13T20:00:49.874Z</time>
      </trkpt>
      <trkpt lat="43.80514" lon="6.39588">
        <ele>1171</ele>
        <time>2021-08-13T20:00:50.146Z</time>
      </trkpt>
      <trkpt lat="43.80506" lon="6.39585">
        <ele>1169</ele>
        <time>2021-08-13T20:00:51.061Z</time>
      </trkpt>
      <trkpt lat="43.80501" lon="6.39586">
        <ele>1166</ele>
        <time>2021-08-13T20:00:51.618Z</time>
      </trkpt>
      <trkpt lat="43.80501" lon="6.39595">
        <ele>1163</ele>
        <time>2021-08-13T20:00:52.334Z</time>
      </trkpt>
      <trkpt lat="43.80502" lon="6.396">
        <ele>1162</ele>
        <time>2021-08-13T20:00:52.748Z</time>
      </trkpt>
      <trkpt lat="43.80524" lon="6.39639">
        <ele>1158</ele>
        <time>2021-08-13T20:00:56.688Z</time>
      </trkpt>
      <trkpt lat="43.8053" lon="6.39656">
        <ele>1155</ele>
        <time>2021-08-13T20:00:58.195Z</time>
      </trkpt>
      <trkpt lat="43.80545" lon="6.3971">
        <ele>1150</ele>
        <time>2021-08-13T20:01:02.802Z</time>
      </trkpt>
      <trkpt lat="43.80549" lon="6.39728">
        <ele>1148</ele>
        <time>2021-08-13T20:01:04.301Z</time>
      </trkpt>
      <trkpt lat="43.80552" lon="6.39756">
        <ele>1144</ele>
        <time>2021-08-13T20:01:06.555Z</time>
      </trkpt>
      <trkpt lat="43.80551" lon="6.39778">
        <ele>1142</ele>
        <time>2021-08-13T20:01:08.310Z</time>
      </trkpt>
      <trkpt lat="43.8055" lon="6.39805">
        <ele>1140</ele>
        <time>2021-08-13T20:01:10.462Z</time>
      </trkpt>
      <trkpt lat="43.80547" lon="6.39821">
        <ele>1137</ele>
        <time>2021-08-13T20:01:11.778Z</time>
      </trkpt>
      <trkpt lat="43.80533" lon="6.39877">
        <ele>1129</ele>
        <time>2021-08-13T20:01:16.497Z</time>
      </trkpt>
      <trkpt lat="43.80531" lon="6.39895">
        <ele>1128</ele>
        <time>2021-08-13T20:01:17.947Z</time>
      </trkpt>
      <trkpt lat="43.80529" lon="6.39898">
        <ele>1127</ele>
        <time>2021-08-13T20:01:18.272Z</time>
      </trkpt>
      <trkpt lat="43.80527" lon="6.399">
        <ele>1126</ele>
        <time>2021-08-13T20:01:18.544Z</time>
      </trkpt>
      <trkpt lat="43.80521" lon="6.39913">
        <ele>1123</ele>
        <time>2021-08-13T20:01:19.772Z</time>
      </trkpt>
      <trkpt lat="43.80504" lon="6.39945">
        <ele>1115</ele>
        <time>2021-08-13T20:01:22.936Z</time>
      </trkpt>
      <trkpt lat="43.80485" lon="6.39967">
        <ele>1108</ele>
        <time>2021-08-13T20:01:25.667Z</time>
      </trkpt>
      <trkpt lat="43.80473" lon="6.39978">
        <ele>1104</ele>
        <time>2021-08-13T20:01:27.255Z</time>
      </trkpt>
      <trkpt lat="43.80462" lon="6.39983">
        <ele>1099</ele>
        <time>2021-08-13T20:01:28.532Z</time>
      </trkpt>
      <trkpt lat="43.80408" lon="6.40026">
        <ele>1079</ele>
        <time>2021-08-13T20:01:35.402Z</time>
      </trkpt>
      <trkpt lat="43.80366" lon="6.40051">
        <ele>1065</ele>
        <time>2021-08-13T20:01:40.445Z</time>
      </trkpt>
      <trkpt lat="43.80339" lon="6.40072">
        <ele>1058</ele>
        <time>2021-08-13T20:01:43.861Z</time>
      </trkpt>
      <trkpt lat="43.80315" lon="6.40082">
        <ele>1052</ele>
        <time>2021-08-13T20:01:46.625Z</time>
      </trkpt>
      <trkpt lat="43.80313" lon="6.40089">
        <ele>1052</ele>
        <time>2021-08-13T20:01:48.097Z</time>
      </trkpt>
      <trkpt lat="43.80312" lon="6.40108">
        <ele>1051</ele>
        <time>2021-08-13T20:01:49.614Z</time>
      </trkpt>
      <trkpt lat="43.80307" lon="6.40121">
        <ele>1049</ele>
        <time>2021-08-13T20:01:50.787Z</time>
      </trkpt>
      <trkpt lat="43.80295" lon="6.40132">
        <ele>1046</ele>
        <time>2021-08-13T20:01:52.374Z</time>
      </trkpt>
      <trkpt lat="43.80291" lon="6.40134">
        <ele>1045</ele>
        <time>2021-08-13T20:01:52.843Z</time>
      </trkpt>
      <trkpt lat="43.80287" lon="6.40133">
        <ele>1044</ele>
        <time>2021-08-13T20:01:53.291Z</time>
      </trkpt>
      <trkpt lat="43.8028" lon="6.40124">
        <ele>1042</ele>
        <time>2021-08-13T20:01:54.345Z</time>
      </trkpt>
      <trkpt lat="43.80267" lon="6.40092">
        <ele>1040</ele>
        <time>2021-08-13T20:01:57.268Z</time>
      </trkpt>
      <trkpt lat="43.80259" lon="6.40056">
        <ele>1035</ele>
        <time>2021-08-13T20:02:00.268Z</time>
      </trkpt>
      <trkpt lat="43.80257" lon="6.40052">
        <ele>1034</ele>
        <time>2021-08-13T20:02:00.655Z</time>
      </trkpt>
      <trkpt lat="43.80255" lon="6.4005">
        <ele>1033</ele>
        <time>2021-08-13T20:02:00.927Z</time>
      </trkpt>
      <trkpt lat="43.80248" lon="6.40051">
        <ele>1031</ele>
        <time>2021-08-13T20:02:01.703Z</time>
      </trkpt>
      <trkpt lat="43.80216" lon="6.40077">
        <ele>1027</ele>
        <time>2021-08-13T20:02:05.796Z</time>
      </trkpt>
      <trkpt lat="43.80212" lon="6.40082">
        <ele>1026</ele>
        <time>2021-08-13T20:02:06.390Z</time>
      </trkpt>
      <trkpt lat="43.80178" lon="6.40101">
        <ele>1017</ele>
        <time>2021-08-13T20:02:10.434Z</time>
      </trkpt>
      <trkpt lat="43.80172" lon="6.401">
        <ele>1016</ele>
        <time>2021-08-13T20:02:11.101Z</time>
      </trkpt>
      <trkpt lat="43.80141" lon="6.40113">
        <ele>1008</ele>
        <time>2021-08-13T20:02:14.674Z</time>
      </trkpt>
      <trkpt lat="43.80129" lon="6.40115">
        <ele>1006</ele>
        <time>2021-08-13T20:02:16.007Z</time>
      </trkpt>
      <trkpt lat="43.80123" lon="6.40108">
        <ele>1004</ele>
        <time>2021-08-13T20:02:16.872Z</time>
      </trkpt>
      <trkpt lat="43.80121" lon="6.40108">
        <ele>1004</ele>
        <time>2021-08-13T20:02:17.414Z</time>
      </trkpt>
      <trkpt lat="43.80098" lon="6.40124">
        <ele>1000</ele>
        <time>2021-08-13T20:02:20.253Z</time>
      </trkpt>
      <trkpt lat="43.80093" lon="6.40126">
        <ele>999</ele>
        <time>2021-08-13T20:02:20.827Z</time>
      </trkpt>
      <trkpt lat="43.80091" lon="6.40123">
        <ele>999</ele>
        <time>2021-08-13T20:02:21.626Z</time>
      </trkpt>
      <trkpt lat="43.80086" lon="6.40125">
        <ele>998</ele>
        <time>2021-08-13T20:02:22.200Z</time>
      </trkpt>
      <trkpt lat="43.80068" lon="6.40141">
        <ele>995</ele>
        <time>2021-08-13T20:02:24.559Z</time>
      </trkpt>
      <trkpt lat="43.80055" lon="6.4017">
        <ele>995</ele>
        <time>2021-08-13T20:02:31.233Z</time>
      </trkpt>
      <trkpt lat="43.80074" lon="6.40212">
        <ele>991</ele>
        <time>2021-08-13T20:02:35.179Z</time>
      </trkpt>
      <trkpt lat="43.80094" lon="6.40223">
        <ele>991</ele>
        <time>2021-08-13T20:02:41.008Z</time>
      </trkpt>
      <trkpt lat="43.80112" lon="6.40242">
        <ele>989</ele>
        <time>2021-08-13T20:02:43.504Z</time>
      </trkpt>
      <trkpt lat="43.80128" lon="6.40256">
        <ele>989</ele>
        <time>2021-08-13T20:02:48.629Z</time>
      </trkpt>
      <trkpt lat="43.8014" lon="6.40284">
        <ele>987</ele>
        <time>2021-08-13T20:02:51.222Z</time>
      </trkpt>
      <trkpt lat="43.8014" lon="6.40291">
        <ele>986</ele>
        <time>2021-08-13T20:02:51.779Z</time>
      </trkpt>
      <trkpt lat="43.80136" lon="6.40299">
        <ele>984</ele>
        <time>2021-08-13T20:02:52.554Z</time>
      </trkpt>
      <trkpt lat="43.80098" lon="6.40325">
        <ele>971</ele>
        <time>2021-08-13T20:02:57.230Z</time>
      </trkpt>
      <trkpt lat="43.80125" lon="6.40355">
        <ele>975</ele>
        <time>2021-08-13T20:03:25.968Z</time>
      </trkpt>
      <trkpt lat="43.80131" lon="6.40364">
        <ele>976</ele>
        <time>2021-08-13T20:03:33.107Z</time>
      </trkpt>
      <trkpt lat="43.80134" lon="6.40376">
        <ele>976</ele>
        <time>2021-08-13T20:03:35.590Z</time>
      </trkpt>
      <trkpt lat="43.80134" lon="6.40394">
        <ele>975</ele>
        <time>2021-08-13T20:03:37.023Z</time>
      </trkpt>
      <trkpt lat="43.80117" lon="6.40512">
        <ele>969</ele>
        <time>2021-08-13T20:03:46.603Z</time>
      </trkpt>
      <trkpt lat="43.8011" lon="6.40535">
        <ele>967</ele>
        <time>2021-08-13T20:03:48.591Z</time>
      </trkpt>
      <trkpt lat="43.80108" lon="6.40549">
        <ele>966</ele>
        <time>2021-08-13T20:03:49.727Z</time>
      </trkpt>
      <trkpt lat="43.80102" lon="6.40569">
        <ele>964</ele>
        <time>2021-08-13T20:03:51.452Z</time>
      </trkpt>
      <trkpt lat="43.80104" lon="6.40581">
        <ele>965</ele>
        <time>2021-08-13T20:03:58.581Z</time>
      </trkpt>
      <trkpt lat="43.80111" lon="6.40595">
        <ele>966</ele>
        <time>2021-08-13T20:04:05.908Z</time>
      </trkpt>
      <trkpt lat="43.8012" lon="6.40603">
        <ele>968</ele>
        <time>2021-08-13T20:04:17.079Z</time>
      </trkpt>
      <trkpt lat="43.80144" lon="6.40613">
        <ele>974</ele>
        <time>2021-08-13T20:04:43.261Z</time>
      </trkpt>
      <trkpt lat="43.80167" lon="6.40616">
        <ele>981</ele>
        <time>2021-08-13T20:05:07.396Z</time>
      </trkpt>
      <trkpt lat="43.80174" lon="6.40623">
        <ele>982</ele>
        <time>2021-08-13T20:05:14.586Z</time>
      </trkpt>
      <trkpt lat="43.80176" lon="6.40638">
        <ele>980</ele>
        <time>2021-08-13T20:05:15.800Z</time>
      </trkpt>
      <trkpt lat="43.80169" lon="6.40662">
        <ele>975</ele>
        <time>2021-08-13T20:05:17.861Z</time>
      </trkpt>
      <trkpt lat="43.80168" lon="6.40673">
        <ele>973</ele>
        <time>2021-08-13T20:05:18.744Z</time>
      </trkpt>
      <trkpt lat="43.80173" lon="6.40736">
        <ele>970</ele>
        <time>2021-08-13T20:05:23.405Z</time>
      </trkpt>
      <trkpt lat="43.80181" lon="6.40788">
        <ele>969</ele>
        <time>2021-08-13T20:05:29.008Z</time>
      </trkpt>
      <trkpt lat="43.80182" lon="6.40853">
        <ele>966</ele>
        <time>2021-08-13T20:05:33.850Z</time>
      </trkpt>
      <trkpt lat="43.80184" lon="6.40868">
        <ele>965</ele>
        <time>2021-08-13T20:05:35.064Z</time>
      </trkpt>
      <trkpt lat="43.80188" lon="6.4089">
        <ele>965</ele>
        <time>2021-08-13T20:05:39.499Z</time>
      </trkpt>
      <trkpt lat="43.80198" lon="6.40928">
        <ele>966</ele>
        <time>2021-08-13T20:05:51.022Z</time>
      </trkpt>
      <trkpt lat="43.8021" lon="6.40963">
        <ele>968</ele>
        <time>2021-08-13T20:06:06.440Z</time>
      </trkpt>
      <trkpt lat="43.80215" lon="6.40973">
        <ele>969</ele>
        <time>2021-08-13T20:06:13.592Z</time>
      </trkpt>
      <trkpt lat="43.80231" lon="6.4099">
        <ele>973</ele>
        <time>2021-08-13T20:06:34.657Z</time>
      </trkpt>
      <trkpt lat="43.80233" lon="6.40996">
        <ele>973</ele>
        <time>2021-08-13T20:06:35.949Z</time>
      </trkpt>
      <trkpt lat="43.80231" lon="6.41012">
        <ele>971</ele>
        <time>2021-08-13T20:06:37.242Z</time>
      </trkpt>
      <trkpt lat="43.80231" lon="6.41029">
        <ele>970</ele>
        <time>2021-08-13T20:06:38.595Z</time>
      </trkpt>
      <trkpt lat="43.80243" lon="6.41061">
        <ele>974</ele>
        <time>2021-08-13T20:07:05.786Z</time>
      </trkpt>
      <trkpt lat="43.80249" lon="6.4107">
        <ele>975</ele>
        <time>2021-08-13T20:07:12.925Z</time>
      </trkpt>
      <trkpt lat="43.80251" lon="6.41079">
        <ele>976</ele>
        <time>2021-08-13T20:07:20.025Z</time>
      </trkpt>
      <trkpt lat="43.8025" lon="6.41087">
        <ele>975</ele>
        <time>2021-08-13T20:07:20.671Z</time>
      </trkpt>
      <trkpt lat="43.80229" lon="6.41114">
        <ele>970</ele>
        <time>2021-08-13T20:07:23.832Z</time>
      </trkpt>
      <trkpt lat="43.80227" lon="6.41124">
        <ele>970</ele>
        <time>2021-08-13T20:07:25.860Z</time>
      </trkpt>
      <trkpt lat="43.80232" lon="6.41171">
        <ele>976</ele>
        <time>2021-08-13T20:08:01.681Z</time>
      </trkpt>
      <trkpt lat="43.8023" lon="6.41182">
        <ele>977</ele>
        <time>2021-08-13T20:08:09.035Z</time>
      </trkpt>
      <trkpt lat="43.80221" lon="6.41209">
        <ele>977</ele>
        <time>2021-08-13T20:08:14.848Z</time>
      </trkpt>
      <trkpt lat="43.80209" lon="6.4129">
        <ele>984</ele>
        <time>2021-08-13T20:09:05.403Z</time>
      </trkpt>
      <trkpt lat="43.80199" lon="6.41335">
        <ele>988</ele>
        <time>2021-08-13T20:09:34.330Z</time>
      </trkpt>
      <trkpt lat="43.80193" lon="6.41378">
        <ele>995</ele>
        <time>2021-08-13T20:10:07.352Z</time>
      </trkpt>
      <trkpt lat="43.80188" lon="6.41383">
        <ele>994</ele>
        <time>2021-08-13T20:10:08.033Z</time>
      </trkpt>
      <trkpt lat="43.80159" lon="6.41396">
        <ele>987</ele>
        <time>2021-08-13T20:10:11.395Z</time>
      </trkpt>
      <trkpt lat="43.80142" lon="6.41421">
        <ele>988</ele>
        <time>2021-08-13T20:10:22.044Z</time>
      </trkpt>
      <trkpt lat="43.80136" lon="6.41439">
        <ele>992</ele>
        <time>2021-08-13T20:10:36.994Z</time>
      </trkpt>
      <trkpt lat="43.80125" lon="6.41503">
        <ele>1007</ele>
        <time>2021-08-13T20:11:26.601Z</time>
      </trkpt>
      <trkpt lat="43.80121" lon="6.41513">
        <ele>1009</ele>
        <time>2021-08-13T20:11:35.222Z</time>
      </trkpt>
      <trkpt lat="43.80085" lon="6.41564">
        <ele>1014</ele>
        <time>2021-08-13T20:12:10.494Z</time>
      </trkpt>
      <trkpt lat="43.80078" lon="6.41571">
        <ele>1015</ele>
        <time>2021-08-13T20:12:17.684Z</time>
      </trkpt>
      <trkpt lat="43.80035" lon="6.41588">
        <ele>1015</ele>
        <time>2021-08-13T20:12:29.795Z</time>
      </trkpt>
      <trkpt lat="43.80023" lon="6.41595">
        <ele>1015</ele>
        <time>2021-08-13T20:12:33.322Z</time>
      </trkpt>
      <trkpt lat="43.79975" lon="6.41633">
        <ele>1012</ele>
        <time>2021-08-13T20:12:39.488Z</time>
      </trkpt>
      <trkpt lat="43.79965" lon="6.41642">
        <ele>1011</ele>
        <time>2021-08-13T20:12:40.804Z</time>
      </trkpt>
      <trkpt lat="43.79941" lon="6.41666">
        <ele>1008</ele>
        <time>2021-08-13T20:12:44.069Z</time>
      </trkpt>
      <trkpt lat="43.7992" lon="6.41696">
        <ele>1001</ele>
        <time>2021-08-13T20:12:47.397Z</time>
      </trkpt>
      <trkpt lat="43.79897" lon="6.41735">
        <ele>991</ele>
        <time>2021-08-13T20:12:51.407Z</time>
      </trkpt>
      <trkpt lat="43.7989" lon="6.41741">
        <ele>989</ele>
        <time>2021-08-13T20:12:52.315Z</time>
      </trkpt>
      <trkpt lat="43.79857" lon="6.41822">
        <ele>972</ele>
        <time>2021-08-13T20:12:59.721Z</time>
      </trkpt>
      <trkpt lat="43.79849" lon="6.41839">
        <ele>968</ele>
        <time>2021-08-13T20:13:01.337Z</time>
      </trkpt>
      <trkpt lat="43.79836" lon="6.41896">
        <ele>953</ele>
        <time>2021-08-13T20:13:06.096Z</time>
      </trkpt>
      <trkpt lat="43.79828" lon="6.41926">
        <ele>945</ele>
        <time>2021-08-13T20:13:08.643Z</time>
      </trkpt>
      <trkpt lat="43.79804" lon="6.41989">
        <ele>930</ele>
        <time>2021-08-13T20:13:14.315Z</time>
      </trkpt>
      <trkpt lat="43.79799" lon="6.42">
        <ele>927</ele>
        <time>2021-08-13T20:13:15.350Z</time>
      </trkpt>
      <trkpt lat="43.79734" lon="6.42058">
        <ele>913</ele>
        <time>2021-08-13T20:13:23.879Z</time>
      </trkpt>
      <trkpt lat="43.79666" lon="6.42113">
        <ele>905</ele>
        <time>2021-08-13T20:13:32.565Z</time>
      </trkpt>
      <trkpt lat="43.79507" lon="6.42256">
        <ele>877</ele>
        <time>2021-08-13T20:13:53.477Z</time>
      </trkpt>
      <trkpt lat="43.79494" lon="6.42273">
        <ele>872</ele>
        <time>2021-08-13T20:13:55.449Z</time>
      </trkpt>
      <trkpt lat="43.79523" lon="6.42277">
        <ele>872</ele>
        <time>2021-08-13T20:14:03.343Z</time>
      </trkpt>
      <trkpt lat="43.79561" lon="6.42293">
        <ele>868</ele>
        <time>2021-08-13T20:14:07.724Z</time>
      </trkpt>
      <trkpt lat="43.79588" lon="6.423">
        <ele>867</ele>
        <time>2021-08-13T20:14:11.326Z</time>
      </trkpt>
      <trkpt lat="43.79582" lon="6.42309">
        <ele>864</ele>
        <time>2021-08-13T20:14:12.302Z</time>
      </trkpt>
      <trkpt lat="43.79509" lon="6.4235">
        <ele>854</ele>
        <time>2021-08-13T20:14:20.992Z</time>
      </trkpt>
      <trkpt lat="43.79412" lon="6.42397">
        <ele>843</ele>
        <time>2021-08-13T20:14:32.328Z</time>
      </trkpt>
      <trkpt lat="43.79388" lon="6.42411">
        <ele>840</ele>
        <time>2021-08-13T20:14:35.200Z</time>
      </trkpt>
      <trkpt lat="43.79433" lon="6.42432">
        <ele>835</ele>
        <time>2021-08-13T20:14:40.439Z</time>
      </trkpt>
      <trkpt lat="43.79468" lon="6.42438">
        <ele>832</ele>
        <time>2021-08-13T20:14:44.329Z</time>
      </trkpt>
      <trkpt lat="43.79511" lon="6.42452">
        <ele>828</ele>
        <time>2021-08-13T20:14:49.202Z</time>
      </trkpt>
      <trkpt lat="43.79411" lon="6.42542">
        <ele>806</ele>
        <time>2021-08-13T20:15:02.357Z</time>
      </trkpt>
      <trkpt lat="43.79491" lon="6.42562">
        <ele>802</ele>
        <time>2021-08-13T20:15:11.826Z</time>
      </trkpt>
      <trkpt lat="43.79485" lon="6.42573">
        <ele>799</ele>
        <time>2021-08-13T20:15:12.923Z</time>
      </trkpt>
      <trkpt lat="43.7939" lon="6.42658">
        <ele>780</ele>
        <time>2021-08-13T20:15:25.399Z</time>
      </trkpt>
      <trkpt lat="43.79441" lon="6.42674">
        <ele>775</ele>
        <time>2021-08-13T20:15:31.168Z</time>
      </trkpt>
      <trkpt lat="43.79431" lon="6.42689">
        <ele>772</ele>
        <time>2021-08-13T20:15:32.794Z</time>
      </trkpt>
      <trkpt lat="43.79335" lon="6.42774">
        <ele>758</ele>
        <time>2021-08-13T20:15:45.362Z</time>
      </trkpt>
      <trkpt lat="43.79304" lon="6.42817">
        <ele>742</ele>
        <time>2021-08-13T20:15:50.201Z</time>
      </trkpt>
      <trkpt lat="43.79303" lon="6.42828">
        <ele>739</ele>
        <time>2021-08-13T20:15:51.084Z</time>
      </trkpt>
      <trkpt lat="43.79363" lon="6.42838">
        <ele>742</ele>
        <time>2021-08-13T20:16:19.638Z</time>
      </trkpt>
      <trkpt lat="43.79334" lon="6.42879">
        <ele>731</ele>
        <time>2021-08-13T20:16:24.209Z</time>
      </trkpt>
      <trkpt lat="43.79337" lon="6.42892">
        <ele>727</ele>
        <time>2021-08-13T20:16:25.296Z</time>
      </trkpt>
      <trkpt lat="43.79429" lon="6.42906">
        <ele>719</ele>
        <time>2021-08-13T20:16:35.506Z</time>
      </trkpt>
      <trkpt lat="43.79426" lon="6.42914">
        <ele>717</ele>
        <time>2021-08-13T20:16:36.224Z</time>
      </trkpt>
      <trkpt lat="43.79405" lon="6.42946">
        <ele>710</ele>
        <time>2021-08-13T20:16:39.668Z</time>
      </trkpt>
      <trkpt lat="43.79355" lon="6.43003">
        <ele>694</ele>
        <time>2021-08-13T20:16:46.811Z</time>
      </trkpt>
      <trkpt lat="43.79342" lon="6.43013">
        <ele>691</ele>
        <time>2021-08-13T20:16:48.451Z</time>
      </trkpt>
      <trkpt lat="43.79323" lon="6.43036">
        <ele>681</ele>
        <time>2021-08-13T20:16:51.235Z</time>
      </trkpt>
      <trkpt lat="43.7934" lon="6.43047">
        <ele>681</ele>
        <time>2021-08-13T20:16:56.317Z</time>
      </trkpt>
      <trkpt lat="43.79392" lon="6.43048">
        <ele>684</ele>
        <time>2021-08-13T20:17:22.252Z</time>
      </trkpt>
      <trkpt lat="43.79427" lon="6.43054">
        <ele>686</ele>
        <time>2021-08-13T20:17:39.723Z</time>
      </trkpt>
      <trkpt lat="43.79367" lon="6.43124">
        <ele>670</ele>
        <time>2021-08-13T20:17:48.376Z</time>
      </trkpt>
      <trkpt lat="43.79246" lon="6.43252">
        <ele>643</ele>
        <time>2021-08-13T20:18:05.171Z</time>
      </trkpt>
      <trkpt lat="43.7924" lon="6.43269">
        <ele>642</ele>
        <time>2021-08-13T20:18:06.678Z</time>
      </trkpt>
      <trkpt lat="43.79245" lon="6.43274">
        <ele>642</ele>
        <time>2021-08-13T20:18:08.348Z</time>
      </trkpt>
      <trkpt lat="43.79249" lon="6.43282">
        <ele>641</ele>
        <time>2021-08-13T20:18:09.123Z</time>
      </trkpt>
      <trkpt lat="43.79253" lon="6.43307">
        <ele>641</ele>
        <time>2021-08-13T20:18:14.130Z</time>
      </trkpt>
      <trkpt lat="43.79259" lon="6.4332">
        <ele>641</ele>
        <time>2021-08-13T20:18:17.146Z</time>
      </trkpt>
      <trkpt lat="43.79291" lon="6.43345">
        <ele>643</ele>
        <time>2021-08-13T20:18:35.067Z</time>
      </trkpt>
      <trkpt lat="43.79308" lon="6.43361">
        <ele>644</ele>
        <time>2021-08-13T20:18:44.715Z</time>
      </trkpt>
      <trkpt lat="43.79315" lon="6.43364">
        <ele>644</ele>
        <time>2021-08-13T20:18:46.700Z</time>
      </trkpt>
      <trkpt lat="43.79323" lon="6.43363">
        <ele>645</ele>
        <time>2021-08-13T20:18:54.131Z</time>
      </trkpt>
      <trkpt lat="43.79363" lon="6.43356">
        <ele>648</ele>
        <time>2021-08-13T20:19:16.861Z</time>
      </trkpt>
      <trkpt lat="43.79375" lon="6.43361">
        <ele>648</ele>
        <time>2021-08-13T20:19:20.255Z</time>
      </trkpt>
      <trkpt lat="43.79379" lon="6.43364">
        <ele>647</ele>
        <time>2021-08-13T20:19:20.757Z</time>
      </trkpt>
      <trkpt lat="43.79385" lon="6.43376">
        <ele>647</ele>
        <time>2021-08-13T20:19:23.611Z</time>
      </trkpt>
      <trkpt lat="43.79392" lon="6.43411">
        <ele>645</ele>
        <time>2021-08-13T20:19:26.503Z</time>
      </trkpt>
      <trkpt lat="43.79396" lon="6.43423">
        <ele>645</ele>
        <time>2021-08-13T20:19:29.087Z</time>
      </trkpt>
      <trkpt lat="43.7941" lon="6.43455">
        <ele>645</ele>
        <time>2021-08-13T20:19:36.403Z</time>
      </trkpt>
      <trkpt lat="43.79451" lon="6.43521">
        <ele>648</ele>
        <time>2021-08-13T20:20:05.734Z</time>
      </trkpt>
      <trkpt lat="43.79462" lon="6.43535">
        <ele>649</ele>
        <time>2021-08-13T20:20:13.692Z</time>
      </trkpt>
      <trkpt lat="43.79528" lon="6.43595">
        <ele>653</ele>
        <time>2021-08-13T20:20:51.244Z</time>
      </trkpt>
      <trkpt lat="43.79566" lon="6.43635">
        <ele>655</ele>
        <time>2021-08-13T20:21:12.223Z</time>
      </trkpt>
      <trkpt lat="43.79578" lon="6.43657">
        <ele>654</ele>
        <time>2021-08-13T20:21:14.521Z</time>
      </trkpt>
      <trkpt lat="43.79611" lon="6.43769">
        <ele>656</ele>
        <time>2021-08-13T20:21:44.450Z</time>
      </trkpt>
      <trkpt lat="43.79617" lon="6.43784">
        <ele>656</ele>
        <time>2021-08-13T20:21:47.803Z</time>
      </trkpt>
      <trkpt lat="43.79624" lon="6.43795">
        <ele>656</ele>
        <time>2021-08-13T20:21:50.670Z</time>
      </trkpt>
      <trkpt lat="43.79642" lon="6.43814">
        <ele>656</ele>
        <time>2021-08-13T20:21:56.799Z</time>
      </trkpt>
      <trkpt lat="43.79678" lon="6.43841">
        <ele>654</ele>
        <time>2021-08-13T20:22:01.582Z</time>
      </trkpt>
      <trkpt lat="43.79694" lon="6.43845">
        <ele>654</ele>
        <time>2021-08-13T20:22:05.985Z</time>
      </trkpt>
      <trkpt lat="43.79701" lon="6.43844">
        <ele>655</ele>
        <time>2021-08-13T20:22:13.337Z</time>
      </trkpt>
      <trkpt lat="43.79794" lon="6.43828">
        <ele>657</ele>
        <time>2021-08-13T20:22:44.887Z</time>
      </trkpt>
      <trkpt lat="43.79826" lon="6.4382">
        <ele>656</ele>
        <time>2021-08-13T20:22:49.403Z</time>
      </trkpt>
      <trkpt lat="43.79895" lon="6.43797">
        <ele>659</ele>
        <time>2021-08-13T20:23:20.770Z</time>
      </trkpt>
      <trkpt lat="43.79917" lon="6.43787">
        <ele>660</ele>
        <time>2021-08-13T20:23:31.146Z</time>
      </trkpt>
      <trkpt lat="43.79927" lon="6.43784">
        <ele>661</ele>
        <time>2021-08-13T20:23:38.198Z</time>
      </trkpt>
      <trkpt lat="43.79937" lon="6.43783">
        <ele>661</ele>
        <time>2021-08-13T20:23:40.913Z</time>
      </trkpt>
      <trkpt lat="43.79953" lon="6.43789">
        <ele>659</ele>
        <time>2021-08-13T20:23:42.742Z</time>
      </trkpt>
      <trkpt lat="43.7996" lon="6.43794">
        <ele>658</ele>
        <time>2021-08-13T20:23:43.610Z</time>
      </trkpt>
      <trkpt lat="43.79983" lon="6.43821">
        <ele>652</ele>
        <time>2021-08-13T20:23:46.936Z</time>
      </trkpt>
      <trkpt lat="43.8" lon="6.43838">
        <ele>650</ele>
        <time>2021-08-13T20:23:49.249Z</time>
      </trkpt>
      <trkpt lat="43.8001" lon="6.43842">
        <ele>650</ele>
        <time>2021-08-13T20:23:52.068Z</time>
      </trkpt>
      <trkpt lat="43.80033" lon="6.43839">
        <ele>651</ele>
        <time>2021-08-13T20:24:02.436Z</time>
      </trkpt>
      <trkpt lat="43.80087" lon="6.43808">
        <ele>659</ele>
        <time>2021-08-13T20:25:03.501Z</time>
      </trkpt>
      <trkpt lat="43.80124" lon="6.43792">
        <ele>662</ele>
        <time>2021-08-13T20:25:25.875Z</time>
      </trkpt>
      <trkpt lat="43.80138" lon="6.43789">
        <ele>663</ele>
        <time>2021-08-13T20:25:33.630Z</time>
      </trkpt>
      <trkpt lat="43.80213" lon="6.43785">
        <ele>663</ele>
        <time>2021-08-13T20:25:53.959Z</time>
      </trkpt>
      <trkpt lat="43.80249" lon="6.43774">
        <ele>667</ele>
        <time>2021-08-13T20:26:22.271Z</time>
      </trkpt>
      <trkpt lat="43.80272" lon="6.43774">
        <ele>669</ele>
        <time>2021-08-13T20:26:36.644Z</time>
      </trkpt>
      <trkpt lat="43.80318" lon="6.43785">
        <ele>669</ele>
        <time>2021-08-13T20:26:49.288Z</time>
      </trkpt>
      <trkpt lat="43.80338" lon="6.43792">
        <ele>669</ele>
        <time>2021-08-13T20:26:54.875Z</time>
      </trkpt>
      <trkpt lat="43.80368" lon="6.43817">
        <ele>666</ele>
        <time>2021-08-13T20:26:58.737Z</time>
      </trkpt>
      <trkpt lat="43.80415" lon="6.43846">
        <ele>671</ele>
        <time>2021-08-13T20:27:34.007Z</time>
      </trkpt>
      <trkpt lat="43.80424" lon="6.43858">
        <ele>670</ele>
        <time>2021-08-13T20:27:35.385Z</time>
      </trkpt>
      <trkpt lat="43.80427" lon="6.43868">
        <ele>669</ele>
        <time>2021-08-13T20:27:36.247Z</time>
      </trkpt>
      <trkpt lat="43.80429" lon="6.43879">
        <ele>667</ele>
        <time>2021-08-13T20:27:37.150Z</time>
      </trkpt>
      <trkpt lat="43.80435" lon="6.43951">
        <ele>659</ele>
        <time>2021-08-13T20:27:42.920Z</time>
      </trkpt>
      <trkpt lat="43.80435" lon="6.43964">
        <ele>658</ele>
        <time>2021-08-13T20:27:43.955Z</time>
      </trkpt>
      <trkpt lat="43.80429" lon="6.44047">
        <ele>652</ele>
        <time>2021-08-13T20:27:50.597Z</time>
      </trkpt>
      <trkpt lat="43.80429" lon="6.44064">
        <ele>651</ele>
        <time>2021-08-13T20:27:51.950Z</time>
      </trkpt>
      <trkpt lat="43.80431" lon="6.44078">
        <ele>650</ele>
        <time>2021-08-13T20:27:53.086Z</time>
      </trkpt>
      <trkpt lat="43.80436" lon="6.44088">
        <ele>650</ele>
        <time>2021-08-13T20:27:55.464Z</time>
      </trkpt>
      <trkpt lat="43.80448" lon="6.441">
        <ele>650</ele>
        <time>2021-08-13T20:27:59.473Z</time>
      </trkpt>
      <trkpt lat="43.80462" lon="6.44101">
        <ele>650</ele>
        <time>2021-08-13T20:28:03.270Z</time>
      </trkpt>
      <trkpt lat="43.80485" lon="6.44088">
        <ele>649</ele>
        <time>2021-08-13T20:28:06.408Z</time>
      </trkpt>
      <trkpt lat="43.80496" lon="6.44078">
        <ele>650</ele>
        <time>2021-08-13T20:28:13.919Z</time>
      </trkpt>
      <trkpt lat="43.80503" lon="6.4407">
        <ele>652</ele>
        <time>2021-08-13T20:28:23.399Z</time>
      </trkpt>
      <trkpt lat="43.8053" lon="6.44023">
        <ele>659</ele>
        <time>2021-08-13T20:29:08.691Z</time>
      </trkpt>
      <trkpt lat="43.80546" lon="6.44008">
        <ele>659</ele>
        <time>2021-08-13T20:29:13.923Z</time>
      </trkpt>
      <trkpt lat="43.80561" lon="6.44">
        <ele>658</ele>
        <time>2021-08-13T20:29:15.604Z</time>
      </trkpt>
      <trkpt lat="43.8057" lon="6.43993">
        <ele>657</ele>
        <time>2021-08-13T20:29:16.743Z</time>
      </trkpt>
      <trkpt lat="43.8058" lon="6.43977">
        <ele>657</ele>
        <time>2021-08-13T20:29:20.880Z</time>
      </trkpt>
      <trkpt lat="43.80587" lon="6.43964">
        <ele>657</ele>
        <time>2021-08-13T20:29:24.051Z</time>
      </trkpt>
      <trkpt lat="43.80597" lon="6.43926">
        <ele>658</ele>
        <time>2021-08-13T20:29:35.572Z</time>
      </trkpt>
      <trkpt lat="43.80602" lon="6.43909">
        <ele>659</ele>
        <time>2021-08-13T20:29:43.104Z</time>
      </trkpt>
      <trkpt lat="43.80609" lon="6.43887">
        <ele>660</ele>
        <time>2021-08-13T20:29:51.755Z</time>
      </trkpt>
      <trkpt lat="43.80615" lon="6.43874">
        <ele>661</ele>
        <time>2021-08-13T20:29:58.889Z</time>
      </trkpt>
      <trkpt lat="43.80628" lon="6.43855">
        <ele>661</ele>
        <time>2021-08-13T20:30:04.007Z</time>
      </trkpt>
      <trkpt lat="43.80662" lon="6.43823">
        <ele>664</ele>
        <time>2021-08-13T20:30:26.925Z</time>
      </trkpt>
      <trkpt lat="43.80676" lon="6.43813">
        <ele>666</ele>
        <time>2021-08-13T20:30:41.975Z</time>
      </trkpt>
      <trkpt lat="43.80706" lon="6.43798">
        <ele>668</ele>
        <time>2021-08-13T20:30:58.452Z</time>
      </trkpt>
      <trkpt lat="43.80733" lon="6.43789">
        <ele>669</ele>
        <time>2021-08-13T20:31:09.676Z</time>
      </trkpt>
      <trkpt lat="43.80765" lon="6.43789">
        <ele>667</ele>
        <time>2021-08-13T20:31:13.015Z</time>
      </trkpt>
      <trkpt lat="43.80794" lon="6.43793">
        <ele>665</ele>
        <time>2021-08-13T20:31:16.230Z</time>
      </trkpt>
      <trkpt lat="43.80824" lon="6.438">
        <ele>662</ele>
        <time>2021-08-13T20:31:19.586Z</time>
      </trkpt>
      <trkpt lat="43.80856" lon="6.43804">
        <ele>662</ele>
        <time>2021-08-13T20:31:28.289Z</time>
      </trkpt>
      <trkpt lat="43.80879" lon="6.43809">
        <ele>662</ele>
        <time>2021-08-13T20:31:34.594Z</time>
      </trkpt>
      <trkpt lat="43.80893" lon="6.43807">
        <ele>663</ele>
        <time>2021-08-13T20:31:42.326Z</time>
      </trkpt>
      <trkpt lat="43.80926" lon="6.43784">
        <ele>670</ele>
        <time>2021-08-13T20:32:20.917Z</time>
      </trkpt>
      <trkpt lat="43.80964" lon="6.43764">
        <ele>673</ele>
        <time>2021-08-13T20:32:43.726Z</time>
      </trkpt>
      <trkpt lat="43.81" lon="6.43736">
        <ele>679</ele>
        <time>2021-08-13T20:33:26.854Z</time>
      </trkpt>
      <trkpt lat="43.8103" lon="6.43706">
        <ele>684</ele>
        <time>2021-08-13T20:34:05.504Z</time>
      </trkpt>
      <trkpt lat="43.81041" lon="6.437">
        <ele>682</ele>
        <time>2021-08-13T20:34:06.809Z</time>
      </trkpt>
      <trkpt lat="43.81096" lon="6.43675">
        <ele>670</ele>
        <time>2021-08-13T20:34:13.194Z</time>
      </trkpt>
      <trkpt lat="43.8112" lon="6.43661">
        <ele>668</ele>
        <time>2021-08-13T20:34:16.067Z</time>
      </trkpt>
      <trkpt lat="43.8113" lon="6.43653">
        <ele>670</ele>
        <time>2021-08-13T20:34:28.130Z</time>
      </trkpt>
      <trkpt lat="43.81139" lon="6.43646">
        <ele>671</ele>
        <time>2021-08-13T20:34:35.185Z</time>
      </trkpt>
      <trkpt lat="43.81155" lon="6.4364">
        <ele>670</ele>
        <time>2021-08-13T20:34:36.945Z</time>
      </trkpt>
      <trkpt lat="43.81169" lon="6.4364">
        <ele>668</ele>
        <time>2021-08-13T20:34:38.489Z</time>
      </trkpt>
      <trkpt lat="43.81223" lon="6.43663">
        <ele>666</ele>
        <time>2021-08-13T20:34:45.972Z</time>
      </trkpt>
      <trkpt lat="43.81248" lon="6.43678">
        <ele>667</ele>
        <time>2021-08-13T20:34:57.088Z</time>
      </trkpt>
      <trkpt lat="43.81263" lon="6.43689">
        <ele>670</ele>
        <time>2021-08-13T20:35:14.818Z</time>
      </trkpt>
      <trkpt lat="43.81284" lon="6.43707">
        <ele>670</ele>
        <time>2021-08-13T20:35:21.506Z</time>
      </trkpt>
      <trkpt lat="43.81376" lon="6.43807">
        <ele>674</ele>
        <time>2021-08-13T20:36:07.627Z</time>
      </trkpt>
      <trkpt lat="43.81415" lon="6.43824">
        <ele>685</ele>
        <time>2021-08-13T20:36:50.339Z</time>
      </trkpt>
      <trkpt lat="43.81453" lon="6.43823">
        <ele>686</ele>
        <time>2021-08-13T20:37:03.902Z</time>
      </trkpt>
      <trkpt lat="43.8147" lon="6.43825">
        <ele>686</ele>
        <time>2021-08-13T20:37:08.523Z</time>
      </trkpt>
      <trkpt lat="43.81484" lon="6.43818">
        <ele>687</ele>
        <time>2021-08-13T20:37:16.466Z</time>
      </trkpt>
      <trkpt lat="43.81492" lon="6.43816">
        <ele>687</ele>
        <time>2021-08-13T20:37:18.668Z</time>
      </trkpt>
      <trkpt lat="43.81521" lon="6.43822">
        <ele>689</ele>
        <time>2021-08-13T20:37:34.436Z</time>
      </trkpt>
      <trkpt lat="43.81531" lon="6.43822">
        <ele>691</ele>
        <time>2021-08-13T20:37:44.883Z</time>
      </trkpt>
      <trkpt lat="43.81543" lon="6.43817">
        <ele>692</ele>
        <time>2021-08-13T20:37:52.258Z</time>
      </trkpt>
      <trkpt lat="43.81553" lon="6.43809">
        <ele>693</ele>
        <time>2021-08-13T20:37:59.452Z</time>
      </trkpt>
      <trkpt lat="43.81563" lon="6.43797">
        <ele>691</ele>
        <time>2021-08-13T20:38:00.911Z</time>
      </trkpt>
      <trkpt lat="43.81571" lon="6.43783">
        <ele>688</ele>
        <time>2021-08-13T20:38:02.332Z</time>
      </trkpt>
      <trkpt lat="43.81576" lon="6.43766">
        <ele>683</ele>
        <time>2021-08-13T20:38:03.794Z</time>
      </trkpt>
      <trkpt lat="43.81581" lon="6.43728">
        <ele>691</ele>
        <time>2021-08-13T20:38:32.912Z</time>
      </trkpt>
      <trkpt lat="43.81587" lon="6.43716">
        <ele>697</ele>
        <time>2021-08-13T20:38:43.917Z</time>
      </trkpt>
      <trkpt lat="43.81609" lon="6.43693">
        <ele>704</ele>
        <time>2021-08-13T20:39:12.707Z</time>
      </trkpt>
      <trkpt lat="43.81624" lon="6.43681">
        <ele>703</ele>
        <time>2021-08-13T20:39:14.585Z</time>
      </trkpt>
      <trkpt lat="43.81648" lon="6.43668">
        <ele>694</ele>
        <time>2021-08-13T20:39:17.427Z</time>
      </trkpt>
      <trkpt lat="43.8166" lon="6.43665">
        <ele>689</ele>
        <time>2021-08-13T20:39:18.772Z</time>
      </trkpt>
      <trkpt lat="43.81725" lon="6.43664">
        <ele>678</ele>
        <time>2021-08-13T20:39:25.943Z</time>
      </trkpt>
      <trkpt lat="43.81741" lon="6.43662">
        <ele>677</ele>
        <time>2021-08-13T20:39:27.623Z</time>
      </trkpt>
      <trkpt lat="43.81773" lon="6.43652">
        <ele>676</ele>
        <time>2021-08-13T20:39:32.191Z</time>
      </trkpt>
      <trkpt lat="43.818" lon="6.4364">
        <ele>677</ele>
        <time>2021-08-13T20:39:43.536Z</time>
      </trkpt>
      <trkpt lat="43.81828" lon="6.43623">
        <ele>678</ele>
        <time>2021-08-13T20:39:55.358Z</time>
      </trkpt>
      <trkpt lat="43.81859" lon="6.43594">
        <ele>678</ele>
        <time>2021-08-13T20:40:05.488Z</time>
      </trkpt>
      <trkpt lat="43.81876" lon="6.43568">
        <ele>677</ele>
        <time>2021-08-13T20:40:08.710Z</time>
      </trkpt>
      <trkpt lat="43.81915" lon="6.43484">
        <ele>669</ele>
        <time>2021-08-13T20:40:16.660Z</time>
      </trkpt>
      <trkpt lat="43.81947" lon="6.43405">
        <ele>676</ele>
        <time>2021-08-13T20:41:06.117Z</time>
      </trkpt>
      <trkpt lat="43.81957" lon="6.43389">
        <ele>677</ele>
        <time>2021-08-13T20:41:14.167Z</time>
      </trkpt>
      <trkpt lat="43.81964" lon="6.43379">
        <ele>677</ele>
        <time>2021-08-13T20:41:16.890Z</time>
      </trkpt>
      <trkpt lat="43.81996" lon="6.43351">
        <ele>671</ele>
        <time>2021-08-13T20:41:21.064Z</time>
      </trkpt>
      <trkpt lat="43.8201" lon="6.43331">
        <ele>670</ele>
        <time>2021-08-13T20:41:23.395Z</time>
      </trkpt>
      <trkpt lat="43.82016" lon="6.43318">
        <ele>672</ele>
        <time>2021-08-13T20:41:35.028Z</time>
      </trkpt>
      <trkpt lat="43.8203" lon="6.43265">
        <ele>678</ele>
        <time>2021-08-13T20:42:17.571Z</time>
      </trkpt>
      <trkpt lat="43.82052" lon="6.4322">
        <ele>679</ele>
        <time>2021-08-13T20:42:31.431Z</time>
      </trkpt>
      <trkpt lat="43.8206" lon="6.43207">
        <ele>678</ele>
        <time>2021-08-13T20:42:32.791Z</time>
      </trkpt>
      <trkpt lat="43.8208" lon="6.43185">
        <ele>672</ele>
        <time>2021-08-13T20:42:35.608Z</time>
      </trkpt>
      <trkpt lat="43.821" lon="6.43148">
        <ele>677</ele>
        <time>2021-08-13T20:43:10.456Z</time>
      </trkpt>
      <trkpt lat="43.82107" lon="6.43138">
        <ele>679</ele>
        <time>2021-08-13T20:43:20.958Z</time>
      </trkpt>
      <trkpt lat="43.82115" lon="6.43132">
        <ele>679</ele>
        <time>2021-08-13T20:43:23.422Z</time>
      </trkpt>
      <trkpt lat="43.82123" lon="6.4313">
        <ele>678</ele>
        <time>2021-08-13T20:43:24.318Z</time>
      </trkpt>
      <trkpt lat="43.82163" lon="6.43137">
        <ele>670</ele>
        <time>2021-08-13T20:43:28.766Z</time>
      </trkpt>
      <trkpt lat="43.82173" lon="6.43137">
        <ele>669</ele>
        <time>2021-08-13T20:43:29.869Z</time>
      </trkpt>
      <trkpt lat="43.82183" lon="6.43134">
        <ele>669</ele>
        <time>2021-08-13T20:43:32.640Z</time>
      </trkpt>
      <trkpt lat="43.82207" lon="6.43115">
        <ele>670</ele>
        <time>2021-08-13T20:43:43.837Z</time>
      </trkpt>
      <trkpt lat="43.82223" lon="6.4311">
        <ele>670</ele>
        <time>2021-08-13T20:43:48.280Z</time>
      </trkpt>
      <trkpt lat="43.82236" lon="6.43112">
        <ele>670</ele>
        <time>2021-08-13T20:43:51.822Z</time>
      </trkpt>
      <trkpt lat="43.82277" lon="6.43128">
        <ele>668</ele>
        <time>2021-08-13T20:43:56.883Z</time>
      </trkpt>
      <trkpt lat="43.82312" lon="6.43138">
        <ele>667</ele>
        <time>2021-08-13T20:44:01.993Z</time>
      </trkpt>
      <trkpt lat="43.82331" lon="6.43136">
        <ele>667</ele>
        <time>2021-08-13T20:44:07.154Z</time>
      </trkpt>
      <trkpt lat="43.82343" lon="6.43125">
        <ele>668</ele>
        <time>2021-08-13T20:44:14.966Z</time>
      </trkpt>
      <trkpt lat="43.82349" lon="6.43116">
        <ele>669</ele>
        <time>2021-08-13T20:44:22.105Z</time>
      </trkpt>
      <trkpt lat="43.82366" lon="6.43098">
        <ele>671</ele>
        <time>2021-08-13T20:44:36.274Z</time>
      </trkpt>
      <trkpt lat="43.82409" lon="6.43062">
        <ele>676</ele>
        <time>2021-08-13T20:45:11.497Z</time>
      </trkpt>
      <trkpt lat="43.82457" lon="6.43049">
        <ele>679</ele>
        <time>2021-08-13T20:45:36.518Z</time>
      </trkpt>
      <trkpt lat="43.82544" lon="6.43043">
        <ele>675</ele>
        <time>2021-08-13T20:45:46.964Z</time>
      </trkpt>
      <trkpt lat="43.82576" lon="6.43048">
        <ele>672</ele>
        <time>2021-08-13T20:45:50.516Z</time>
      </trkpt>
      <trkpt lat="43.82592" lon="6.4304">
        <ele>671</ele>
        <time>2021-08-13T20:45:52.345Z</time>
      </trkpt>
      <trkpt lat="43.82598" lon="6.43034">
        <ele>671</ele>
        <time>2021-08-13T20:45:54.348Z</time>
      </trkpt>
      <trkpt lat="43.82607" lon="6.43021">
        <ele>671</ele>
        <time>2021-08-13T20:45:57.869Z</time>
      </trkpt>
      <trkpt lat="43.82618" lon="6.42994">
        <ele>672</ele>
        <time>2021-08-13T20:46:08.108Z</time>
      </trkpt>
      <trkpt lat="43.82636" lon="6.42928">
        <ele>673</ele>
        <time>2021-08-13T20:46:24.921Z</time>
      </trkpt>
      <trkpt lat="43.8264" lon="6.42895">
        <ele>674</ele>
        <time>2021-08-13T20:46:35.458Z</time>
      </trkpt>
      <trkpt lat="43.82642" lon="6.42832">
        <ele>676</ele>
        <time>2021-08-13T20:46:56.087Z</time>
      </trkpt>
      <trkpt lat="43.82644" lon="6.42807">
        <ele>678</ele>
        <time>2021-08-13T20:47:10.281Z</time>
      </trkpt>
      <trkpt lat="43.82648" lon="6.42784">
        <ele>679</ele>
        <time>2021-08-13T20:47:18.846Z</time>
      </trkpt>
      <trkpt lat="43.8266" lon="6.42741">
        <ele>682</ele>
        <time>2021-08-13T20:47:40.231Z</time>
      </trkpt>
      <trkpt lat="43.82667" lon="6.42726">
        <ele>684</ele>
        <time>2021-08-13T20:47:53.695Z</time>
      </trkpt>
      <trkpt lat="43.82701" lon="6.42663">
        <ele>686</ele>
        <time>2021-08-13T20:48:16.396Z</time>
      </trkpt>
      <trkpt lat="43.8274" lon="6.42614">
        <ele>684</ele>
        <time>2021-08-13T20:48:23.192Z</time>
      </trkpt>
      <trkpt lat="43.82755" lon="6.42599">
        <ele>685</ele>
        <time>2021-08-13T20:48:32.192Z</time>
      </trkpt>
      <trkpt lat="43.82763" lon="6.42596">
        <ele>685</ele>
        <time>2021-08-13T20:48:34.436Z</time>
      </trkpt>
      <trkpt lat="43.82786" lon="6.42591">
        <ele>686</ele>
        <time>2021-08-13T20:48:44.832Z</time>
      </trkpt>
      <trkpt lat="43.82799" lon="6.42591">
        <ele>685</ele>
        <time>2021-08-13T20:48:46.266Z</time>
      </trkpt>
      <trkpt lat="43.82828" lon="6.42601">
        <ele>683</ele>
        <time>2021-08-13T20:48:49.563Z</time>
      </trkpt>
      <trkpt lat="43.82863" lon="6.42616">
        <ele>683</ele>
        <time>2021-08-13T20:48:59.485Z</time>
      </trkpt>
      <trkpt lat="43.82893" lon="6.4264">
        <ele>681</ele>
        <time>2021-08-13T20:49:03.240Z</time>
      </trkpt>
      <trkpt lat="43.82919" lon="6.4265">
        <ele>680</ele>
        <time>2021-08-13T20:49:06.756Z</time>
      </trkpt>
      <trkpt lat="43.8293" lon="6.42657">
        <ele>680</ele>
        <time>2021-08-13T20:49:10.034Z</time>
      </trkpt>
      <trkpt lat="43.82946" lon="6.42679">
        <ele>678</ele>
        <time>2021-08-13T20:49:12.520Z</time>
      </trkpt>
      <trkpt lat="43.82964" lon="6.4273">
        <ele>675</ele>
        <time>2021-08-13T20:49:17.039Z</time>
      </trkpt>
      <trkpt lat="43.8297" lon="6.42738">
        <ele>675</ele>
        <time>2021-08-13T20:49:19.293Z</time>
      </trkpt>
      <trkpt lat="43.83001" lon="6.42767">
        <ele>675</ele>
        <time>2021-08-13T20:49:29.423Z</time>
      </trkpt>
      <trkpt lat="43.83023" lon="6.42802">
        <ele>676</ele>
        <time>2021-08-13T20:49:41.908Z</time>
      </trkpt>
      <trkpt lat="43.83042" lon="6.42844">
        <ele>677</ele>
        <time>2021-08-13T20:49:54.930Z</time>
      </trkpt>
      <trkpt lat="43.83047" lon="6.42862">
        <ele>677</ele>
        <time>2021-08-13T20:49:58.699Z</time>
      </trkpt>
      <trkpt lat="43.83047" lon="6.42873">
        <ele>677</ele>
        <time>2021-08-13T20:50:00.848Z</time>
      </trkpt>
      <trkpt lat="43.83044" lon="6.4293">
        <ele>676</ele>
        <time>2021-08-13T20:50:06.989Z</time>
      </trkpt>
      <trkpt lat="43.83051" lon="6.43002">
        <ele>677</ele>
        <time>2021-08-13T20:50:24.190Z</time>
      </trkpt>
      <trkpt lat="43.83063" lon="6.43039">
        <ele>678</ele>
        <time>2021-08-13T20:50:35.728Z</time>
      </trkpt>
      <trkpt lat="43.8307" lon="6.43059">
        <ele>678</ele>
        <time>2021-08-13T20:50:40.071Z</time>
      </trkpt>
      <trkpt lat="43.83072" lon="6.43067">
        <ele>677</ele>
        <time>2021-08-13T20:50:40.745Z</time>
      </trkpt>
      <trkpt lat="43.8308" lon="6.43088">
        <ele>677</ele>
        <time>2021-08-13T20:50:45.385Z</time>
      </trkpt>
      <trkpt lat="43.83114" lon="6.43167">
        <ele>680</ele>
        <time>2021-08-13T20:51:15.857Z</time>
      </trkpt>
      <trkpt lat="43.83122" lon="6.43195">
        <ele>682</ele>
        <time>2021-08-13T20:51:30.060Z</time>
      </trkpt>
      <trkpt lat="43.83126" lon="6.4322">
        <ele>682</ele>
        <time>2021-08-13T20:51:35.064Z</time>
      </trkpt>
      <trkpt lat="43.83128" lon="6.43312">
        <ele>682</ele>
        <time>2021-08-13T20:51:53.047Z</time>
      </trkpt>
      <trkpt lat="43.83131" lon="6.43334">
        <ele>682</ele>
        <time>2021-08-13T20:51:57.422Z</time>
      </trkpt>
      <trkpt lat="43.83134" lon="6.43344">
        <ele>682</ele>
        <time>2021-08-13T20:51:59.538Z</time>
      </trkpt>
      <trkpt lat="43.83137" lon="6.43347">
        <ele>682</ele>
        <time>2021-08-13T20:52:00.540Z</time>
      </trkpt>
      <trkpt lat="43.83146" lon="6.43363">
        <ele>682</ele>
        <time>2021-08-13T20:52:04.504Z</time>
      </trkpt>
      <trkpt lat="43.83171" lon="6.43392">
        <ele>683</ele>
        <time>2021-08-13T20:52:16.784Z</time>
      </trkpt>
      <trkpt lat="43.83184" lon="6.43414">
        <ele>685</ele>
        <time>2021-08-13T20:52:30.889Z</time>
      </trkpt>
      <trkpt lat="43.83193" lon="6.43427">
        <ele>687</ele>
        <time>2021-08-13T20:52:44.468Z</time>
      </trkpt>
      <trkpt lat="43.83206" lon="6.43443">
        <ele>687</ele>
        <time>2021-08-13T20:52:49.177Z</time>
      </trkpt>
      <trkpt lat="43.83282" lon="6.4352">
        <ele>691</ele>
        <time>2021-08-13T20:53:30.921Z</time>
      </trkpt>
      <trkpt lat="43.83292" lon="6.43535">
        <ele>692</ele>
        <time>2021-08-13T20:53:38.824Z</time>
      </trkpt>
      <trkpt lat="43.83299" lon="6.43555">
        <ele>691</ele>
        <time>2021-08-13T20:53:40.499Z</time>
      </trkpt>
      <trkpt lat="43.83307" lon="6.43624">
        <ele>686</ele>
        <time>2021-08-13T20:53:46.061Z</time>
      </trkpt>
      <trkpt lat="43.83329" lon="6.43768">
        <ele>683</ele>
        <time>2021-08-13T20:54:01.199Z</time>
      </trkpt>
      <trkpt lat="43.83341" lon="6.43828">
        <ele>683</ele>
        <time>2021-08-13T20:54:13.364Z</time>
      </trkpt>
      <trkpt lat="43.83345" lon="6.43862">
        <ele>685</ele>
        <time>2021-08-13T20:54:28.070Z</time>
      </trkpt>
      <trkpt lat="43.83345" lon="6.43951">
        <ele>687</ele>
        <time>2021-08-13T20:54:52.402Z</time>
      </trkpt>
      <trkpt lat="43.83343" lon="6.43968">
        <ele>686</ele>
        <time>2021-08-13T20:54:53.773Z</time>
      </trkpt>
      <trkpt lat="43.83336" lon="6.43998">
        <ele>683</ele>
        <time>2021-08-13T20:54:56.282Z</time>
      </trkpt>
      <trkpt lat="43.83312" lon="6.44068">
        <ele>686</ele>
        <time>2021-08-13T20:55:23.410Z</time>
      </trkpt>
      <trkpt lat="43.83274" lon="6.44159">
        <ele>688</ele>
        <time>2021-08-13T20:55:50.496Z</time>
      </trkpt>
      <trkpt lat="43.83267" lon="6.44173">
        <ele>688</ele>
        <time>2021-08-13T20:55:53.824Z</time>
      </trkpt>
      <trkpt lat="43.83251" lon="6.442">
        <ele>688</ele>
        <time>2021-08-13T20:56:00.651Z</time>
      </trkpt>
      <trkpt lat="43.83235" lon="6.44221">
        <ele>690</ele>
        <time>2021-08-13T20:56:14.890Z</time>
      </trkpt>
      <trkpt lat="43.83216" lon="6.44239">
        <ele>690</ele>
        <time>2021-08-13T20:56:21.123Z</time>
      </trkpt>
      <trkpt lat="43.83156" lon="6.44278">
        <ele>692</ele>
        <time>2021-08-13T20:56:45.930Z</time>
      </trkpt>
      <trkpt lat="43.83131" lon="6.44292">
        <ele>697</ele>
        <time>2021-08-13T20:57:14.098Z</time>
      </trkpt>
      <trkpt lat="43.83112" lon="6.44307">
        <ele>699</ele>
        <time>2021-08-13T20:57:28.317Z</time>
      </trkpt>
      <trkpt lat="43.83095" lon="6.44326">
        <ele>701</ele>
        <time>2021-08-13T20:57:42.533Z</time>
      </trkpt>
      <trkpt lat="43.83087" lon="6.44339">
        <ele>701</ele>
        <time>2021-08-13T20:57:45.871Z</time>
      </trkpt>
      <trkpt lat="43.83081" lon="6.44355">
        <ele>704</ele>
        <time>2021-08-13T20:57:59.462Z</time>
      </trkpt>
      <trkpt lat="43.83074" lon="6.44379">
        <ele>710</ele>
        <time>2021-08-13T20:58:18.972Z</time>
      </trkpt>
      <trkpt lat="43.8307" lon="6.44406">
        <ele>715</ele>
        <time>2021-08-13T20:58:39.745Z</time>
      </trkpt>
      <trkpt lat="43.83072" lon="6.44422">
        <ele>715</ele>
        <time>2021-08-13T20:58:42.918Z</time>
      </trkpt>
      <trkpt lat="43.83077" lon="6.44434">
        <ele>713</ele>
        <time>2021-08-13T20:58:44.020Z</time>
      </trkpt>
      <trkpt lat="43.83088" lon="6.44449">
        <ele>713</ele>
        <time>2021-08-13T20:58:48.200Z</time>
      </trkpt>
      <trkpt lat="43.83113" lon="6.44475">
        <ele>734</ele>
        <time>2021-08-13T20:59:20.851Z</time>
      </trkpt>
      <trkpt lat="43.83141" lon="6.44503">
        <ele>764</ele>
        <time>2021-08-13T20:59:56.920Z</time>
      </trkpt>
      <trkpt lat="43.83152" lon="6.44517">
        <ele>768</ele>
        <time>2021-08-13T21:00:12.520Z</time>
      </trkpt>
      <trkpt lat="43.83164" lon="6.44541">
        <ele>765</ele>
        <time>2021-08-13T21:00:14.844Z</time>
      </trkpt>
      <trkpt lat="43.83187" lon="6.44622">
        <ele>742</ele>
        <time>2021-08-13T21:00:21.772Z</time>
      </trkpt>
      <trkpt lat="43.83199" lon="6.4468">
        <ele>724</ele>
        <time>2021-08-13T21:00:26.573Z</time>
      </trkpt>
      <trkpt lat="43.83202" lon="6.44738">
        <ele>710</ele>
        <time>2021-08-13T21:00:31.201Z</time>
      </trkpt>
      <trkpt lat="43.83202" lon="6.44813">
        <ele>704</ele>
        <time>2021-08-13T21:00:37.169Z</time>
      </trkpt>
      <trkpt lat="43.832" lon="6.44842">
        <ele>704</ele>
        <time>2021-08-13T21:00:42.861Z</time>
      </trkpt>
      <trkpt lat="43.83195" lon="6.44871">
        <ele>704</ele>
        <time>2021-08-13T21:00:48.687Z</time>
      </trkpt>
      <trkpt lat="43.83187" lon="6.44898">
        <ele>703</ele>
        <time>2021-08-13T21:00:51.177Z</time>
      </trkpt>
      <trkpt lat="43.83181" lon="6.44918">
        <ele>701</ele>
        <time>2021-08-13T21:00:52.900Z</time>
      </trkpt>
      <trkpt lat="43.83164" lon="6.44951">
        <ele>696</ele>
        <time>2021-08-13T21:00:56.127Z</time>
      </trkpt>
      <trkpt lat="43.83158" lon="6.44977">
        <ele>699</ele>
        <time>2021-08-13T21:01:16.700Z</time>
      </trkpt>
      <trkpt lat="43.83157" lon="6.44987">
        <ele>700</ele>
        <time>2021-08-13T21:01:24.308Z</time>
      </trkpt>
      <trkpt lat="43.83161" lon="6.45011">
        <ele>699</ele>
        <time>2021-08-13T21:01:26.258Z</time>
      </trkpt>
      <trkpt lat="43.83172" lon="6.4505">
        <ele>701</ele>
        <time>2021-08-13T21:01:42.264Z</time>
      </trkpt>
      <trkpt lat="43.83175" lon="6.45073">
        <ele>703</ele>
        <time>2021-08-13T21:01:56.772Z</time>
      </trkpt>
      <trkpt lat="43.8317" lon="6.45121">
        <ele>703</ele>
        <time>2021-08-13T21:02:06.248Z</time>
      </trkpt>
      <trkpt lat="43.83161" lon="6.4517">
        <ele>705</ele>
        <time>2021-08-13T21:02:24.087Z</time>
      </trkpt>
      <trkpt lat="43.83153" lon="6.45193">
        <ele>706</ele>
        <time>2021-08-13T21:02:33.063Z</time>
      </trkpt>
      <trkpt lat="43.8314" lon="6.45217">
        <ele>705</ele>
        <time>2021-08-13T21:02:35.653Z</time>
      </trkpt>
      <trkpt lat="43.83133" lon="6.45227">
        <ele>704</ele>
        <time>2021-08-13T21:02:36.762Z</time>
      </trkpt>
      <trkpt lat="43.83101" lon="6.45262">
        <ele>697</ele>
        <time>2021-08-13T21:02:41.258Z</time>
      </trkpt>
      <trkpt lat="43.83087" lon="6.45281">
        <ele>696</ele>
        <time>2021-08-13T21:02:43.505Z</time>
      </trkpt>
      <trkpt lat="43.83075" lon="6.45303">
        <ele>698</ele>
        <time>2021-08-13T21:02:57.590Z</time>
      </trkpt>
      <trkpt lat="43.83067" lon="6.45321">
        <ele>700</ele>
        <time>2021-08-13T21:03:13.011Z</time>
      </trkpt>
      <trkpt lat="43.83063" lon="6.45336">
        <ele>701</ele>
        <time>2021-08-13T21:03:20.203Z</time>
      </trkpt>
      <trkpt lat="43.83057" lon="6.45358">
        <ele>701</ele>
        <time>2021-08-13T21:03:24.799Z</time>
      </trkpt>
      <trkpt lat="43.83053" lon="6.45383">
        <ele>702</ele>
        <time>2021-08-13T21:03:33.791Z</time>
      </trkpt>
      <trkpt lat="43.83047" lon="6.45432">
        <ele>702</ele>
        <time>2021-08-13T21:03:43.502Z</time>
      </trkpt>
      <trkpt lat="43.83046" lon="6.45451">
        <ele>702</ele>
        <time>2021-08-13T21:03:47.224Z</time>
      </trkpt>
      <trkpt lat="43.83048" lon="6.45483">
        <ele>703</ele>
        <time>2021-08-13T21:03:57.603Z</time>
      </trkpt>
      <trkpt lat="43.83054" lon="6.45544">
        <ele>710</ele>
        <time>2021-08-13T21:04:44.001Z</time>
      </trkpt>
      <trkpt lat="43.83055" lon="6.45586">
        <ele>714</ele>
        <time>2021-08-13T21:05:15.006Z</time>
      </trkpt>
      <trkpt lat="43.83052" lon="6.45608">
        <ele>715</ele>
        <time>2021-08-13T21:05:23.303Z</time>
      </trkpt>
      <trkpt lat="43.83049" lon="6.45617">
        <ele>715</ele>
        <time>2021-08-13T21:05:25.240Z</time>
      </trkpt>
      <trkpt lat="43.83042" lon="6.45631">
        <ele>713</ele>
        <time>2021-08-13T21:05:26.596Z</time>
      </trkpt>
      <trkpt lat="43.82969" lon="6.45739">
        <ele>705</ele>
        <time>2021-08-13T21:05:38.374Z</time>
      </trkpt>
      <trkpt lat="43.82958" lon="6.45767">
        <ele>707</ele>
        <time>2021-08-13T21:05:52.747Z</time>
      </trkpt>
      <trkpt lat="43.82952" lon="6.45778">
        <ele>707</ele>
        <time>2021-08-13T21:05:55.441Z</time>
      </trkpt>
      <trkpt lat="43.82954" lon="6.45781">
        <ele>707</ele>
        <time>2021-08-13T21:05:56.239Z</time>
      </trkpt>
      <trkpt lat="43.82953" lon="6.4579">
        <ele>708</ele>
        <time>2021-08-13T21:06:03.102Z</time>
      </trkpt>
      <trkpt lat="43.82947" lon="6.45807">
        <ele>708</ele>
        <time>2021-08-13T21:06:06.800Z</time>
      </trkpt>
      <trkpt lat="43.82939" lon="6.45839">
        <ele>709</ele>
        <time>2021-08-13T21:06:17.387Z</time>
      </trkpt>
      <trkpt lat="43.82929" lon="6.45861">
        <ele>710</ele>
        <time>2021-08-13T21:06:26.468Z</time>
      </trkpt>
      <trkpt lat="43.82919" lon="6.45876">
        <ele>709</ele>
        <time>2021-08-13T21:06:28.093Z</time>
      </trkpt>
      <trkpt lat="43.82913" lon="6.45889">
        <ele>710</ele>
        <time>2021-08-13T21:06:35.227Z</time>
      </trkpt>
      <trkpt lat="43.82905" lon="6.45942">
        <ele>717</ele>
        <time>2021-08-13T21:07:16.036Z</time>
      </trkpt>
      <trkpt lat="43.82901" lon="6.45991">
        <ele>722</ele>
        <time>2021-08-13T21:07:53.202Z</time>
      </trkpt>
      <trkpt lat="43.829" lon="6.46009">
        <ele>724</ele>
        <time>2021-08-13T21:08:06.808Z</time>
      </trkpt>
      <trkpt lat="43.82893" lon="6.46044">
        <ele>724</ele>
        <time>2021-08-13T21:08:13.905Z</time>
      </trkpt>
      <trkpt lat="43.829" lon="6.46041">
        <ele>726</ele>
        <time>2021-08-13T21:08:21.559Z</time>
      </trkpt>
      <trkpt lat="43.82917" lon="6.46025">
        <ele>730</ele>
        <time>2021-08-13T21:08:43.026Z</time>
      </trkpt>
      <trkpt lat="43.8292" lon="6.46024">
        <ele>731</ele>
        <time>2021-08-13T21:08:46.250Z</time>
      </trkpt>
      <trkpt lat="43.82922" lon="6.46026">
        <ele>732</ele>
        <time>2021-08-13T21:08:48.826Z</time>
      </trkpt>
      <trkpt lat="43.82922" lon="6.46049">
        <ele>733</ele>
        <time>2021-08-13T21:08:57.251Z</time>
      </trkpt>
      <trkpt lat="43.82926" lon="6.46067">
        <ele>735</ele>
        <time>2021-08-13T21:09:11.446Z</time>
      </trkpt>
      <trkpt lat="43.82928" lon="6.46069">
        <ele>736</ele>
        <time>2021-08-13T21:09:14.023Z</time>
      </trkpt>
      <trkpt lat="43.82934" lon="6.46051">
        <ele>737</ele>
        <time>2021-08-13T21:09:21.813Z</time>
      </trkpt>
      <trkpt lat="43.82937" lon="6.46051">
        <ele>738</ele>
        <time>2021-08-13T21:09:24.948Z</time>
      </trkpt>
      <trkpt lat="43.82938" lon="6.46055">
        <ele>739</ele>
        <time>2021-08-13T21:09:28.138Z</time>
      </trkpt>
      <trkpt lat="43.82939" lon="6.46069">
        <ele>739</ele>
        <time>2021-08-13T21:09:30.887Z</time>
      </trkpt>
      <trkpt lat="43.82941" lon="6.46072">
        <ele>740</ele>
        <time>2021-08-13T21:09:33.966Z</time>
      </trkpt>
      <trkpt lat="43.82944" lon="6.4607">
        <ele>741</ele>
        <time>2021-08-13T21:09:37.443Z</time>
      </trkpt>
      <trkpt lat="43.82954" lon="6.46051">
        <ele>744</ele>
        <time>2021-08-13T21:09:55.169Z</time>
      </trkpt>
      <trkpt lat="43.8296" lon="6.46043">
        <ele>746</ele>
        <time>2021-08-13T21:10:03.866Z</time>
      </trkpt>
      <trkpt lat="43.82978" lon="6.46038">
        <ele>753</ele>
        <time>2021-08-13T21:10:23.045Z</time>
      </trkpt>
      <trkpt lat="43.82992" lon="6.46031">
        <ele>758</ele>
        <time>2021-08-13T21:10:38.593Z</time>
      </trkpt>
      <trkpt lat="43.82998" lon="6.4603">
        <ele>760</ele>
        <time>2021-08-13T21:10:44.907Z</time>
      </trkpt>
      <trkpt lat="43.83015" lon="6.46036">
        <ele>764</ele>
        <time>2021-08-13T21:11:03.233Z</time>
      </trkpt>
      <trkpt lat="43.8304" lon="6.46052">
        <ele>769</ele>
        <time>2021-08-13T21:11:32.001Z</time>
      </trkpt>
      <trkpt lat="43.83054" lon="6.46074">
        <ele>773</ele>
        <time>2021-08-13T21:11:54.110Z</time>
      </trkpt>
      <trkpt lat="43.8309" lon="6.46119">
        <ele>784</ele>
        <time>2021-08-13T21:12:44.752Z</time>
      </trkpt>
      <trkpt lat="43.83108" lon="6.46154">
        <ele>791</ele>
        <time>2021-08-13T21:13:17.147Z</time>
      </trkpt>
      <trkpt lat="43.83127" lon="6.46178">
        <ele>796</ele>
        <time>2021-08-13T21:13:44.001Z</time>
      </trkpt>
      <trkpt lat="43.83141" lon="6.46192">
        <ele>801</ele>
        <time>2021-08-13T21:14:02.036Z</time>
      </trkpt>
      <trkpt lat="43.83222" lon="6.46233">
        <ele>826</ele>
        <time>2021-08-13T21:15:32.122Z</time>
      </trkpt>
      <trkpt lat="43.83275" lon="6.4627">
        <ele>840</ele>
        <time>2021-08-13T21:16:34.117Z</time>
      </trkpt>
      <trkpt lat="43.83321" lon="6.46332">
        <ele>845</ele>
        <time>2021-08-13T21:17:11.309Z</time>
      </trkpt>
      <trkpt lat="43.83352" lon="6.46369">
        <ele>853</ele>
        <time>2021-08-13T21:17:54.045Z</time>
      </trkpt>
      <trkpt lat="43.8338" lon="6.46395">
        <ele>861</ele>
        <time>2021-08-13T21:18:29.253Z</time>
      </trkpt>
      <trkpt lat="43.83412" lon="6.46438">
        <ele>870</ele>
        <time>2021-08-13T21:19:15.812Z</time>
      </trkpt>
      <trkpt lat="43.83412" lon="6.46477">
        <ele>870</ele>
        <time>2021-08-13T21:19:23.431Z</time>
      </trkpt>
      <trkpt lat="43.83412" lon="6.46501">
        <ele>870</ele>
        <time>2021-08-13T21:19:28.120Z</time>
      </trkpt>
      <trkpt lat="43.83416" lon="6.46537">
        <ele>867</ele>
        <time>2021-08-13T21:19:31.019Z</time>
      </trkpt>
      <trkpt lat="43.83419" lon="6.46554">
        <ele>867</ele>
        <time>2021-08-13T21:19:34.438Z</time>
      </trkpt>
      <trkpt lat="43.83442" lon="6.46593">
        <ele>870</ele>
        <time>2021-08-13T21:19:56.315Z</time>
      </trkpt>
      <trkpt lat="43.83448" lon="6.46607">
        <ele>871</ele>
        <time>2021-08-13T21:20:03.541Z</time>
      </trkpt>
      <trkpt lat="43.8345" lon="6.46621">
        <ele>870</ele>
        <time>2021-08-13T21:20:04.677Z</time>
      </trkpt>
      <trkpt lat="43.83454" lon="6.46687">
        <ele>864</ele>
        <time>2021-08-13T21:20:09.948Z</time>
      </trkpt>
      <trkpt lat="43.83463" lon="6.46724">
        <ele>865</ele>
        <time>2021-08-13T21:20:21.253Z</time>
      </trkpt>
      <trkpt lat="43.83472" lon="6.46738">
        <ele>868</ele>
        <time>2021-08-13T21:20:35.385Z</time>
      </trkpt>
      <trkpt lat="43.83483" lon="6.4675">
        <ele>871</ele>
        <time>2021-08-13T21:20:50.008Z</time>
      </trkpt>
      <trkpt lat="43.83485" lon="6.46756">
        <ele>873</ele>
        <time>2021-08-13T21:20:54.989Z</time>
      </trkpt>
      <trkpt lat="43.83481" lon="6.46762">
        <ele>872</ele>
        <time>2021-08-13T21:20:55.639Z</time>
      </trkpt>
      <trkpt lat="43.83476" lon="6.46765">
        <ele>870</ele>
        <time>2021-08-13T21:20:56.241Z</time>
      </trkpt>
      <trkpt lat="43.83465" lon="6.46766">
        <ele>866</ele>
        <time>2021-08-13T21:20:57.457Z</time>
      </trkpt>
      <trkpt lat="43.83448" lon="6.46772">
        <ele>861</ele>
        <time>2021-08-13T21:20:59.392Z</time>
      </trkpt>
      <trkpt lat="43.83433" lon="6.46779">
        <ele>857</ele>
        <time>2021-08-13T21:21:01.138Z</time>
      </trkpt>
      <trkpt lat="43.83398" lon="6.46802">
        <ele>848</ele>
        <time>2021-08-13T21:21:05.411Z</time>
      </trkpt>
      <trkpt lat="43.83391" lon="6.46809">
        <ele>847</ele>
        <time>2021-08-13T21:21:06.363Z</time>
      </trkpt>
      <trkpt lat="43.83384" lon="6.46828">
        <ele>848</ele>
        <time>2021-08-13T21:21:14.444Z</time>
      </trkpt>
      <trkpt lat="43.83379" lon="6.46875">
        <ele>851</ele>
        <time>2021-08-13T21:21:35.969Z</time>
      </trkpt>
      <trkpt lat="43.83367" lon="6.46947">
        <ele>855</ele>
        <time>2021-08-13T21:22:06.169Z</time>
      </trkpt>
      <trkpt lat="43.8336" lon="6.4698">
        <ele>856</ele>
        <time>2021-08-13T21:22:16.823Z</time>
      </trkpt>
      <trkpt lat="43.83354" lon="6.47">
        <ele>856</ele>
        <time>2021-08-13T21:22:21.055Z</time>
      </trkpt>
      <trkpt lat="43.83351" lon="6.47028">
        <ele>855</ele>
        <time>2021-08-13T21:22:23.438Z</time>
      </trkpt>
      <trkpt lat="43.83353" lon="6.47042">
        <ele>855</ele>
        <time>2021-08-13T21:22:26.226Z</time>
      </trkpt>
      <trkpt lat="43.83356" lon="6.47052">
        <ele>857</ele>
        <time>2021-08-13T21:22:34.388Z</time>
      </trkpt>
      <trkpt lat="43.83394" lon="6.47117">
        <ele>868</ele>
        <time>2021-08-13T21:23:37.440Z</time>
      </trkpt>
      <trkpt lat="43.83401" lon="6.47136">
        <ele>867</ele>
        <time>2021-08-13T21:23:39.015Z</time>
      </trkpt>
      <trkpt lat="43.83403" lon="6.47145">
        <ele>866</ele>
        <time>2021-08-13T21:23:39.765Z</time>
      </trkpt>
      <trkpt lat="43.83404" lon="6.47158">
        <ele>864</ele>
        <time>2021-08-13T21:23:40.805Z</time>
      </trkpt>
      <trkpt lat="43.83403" lon="6.47184">
        <ele>862</ele>
        <time>2021-08-13T21:23:42.877Z</time>
      </trkpt>
      <trkpt lat="43.83392" lon="6.47256">
        <ele>858</ele>
        <time>2021-08-13T21:23:48.733Z</time>
      </trkpt>
      <trkpt lat="43.83391" lon="6.4727">
        <ele>857</ele>
        <time>2021-08-13T21:23:49.853Z</time>
      </trkpt>
      <trkpt lat="43.83399" lon="6.47325">
        <ele>860</ele>
        <time>2021-08-13T21:24:12.619Z</time>
      </trkpt>
      <trkpt lat="43.83399" lon="6.47341">
        <ele>860</ele>
        <time>2021-08-13T21:24:15.745Z</time>
      </trkpt>
      <trkpt lat="43.83393" lon="6.47409">
        <ele>853</ele>
        <time>2021-08-13T21:24:21.197Z</time>
      </trkpt>
      <trkpt lat="43.83402" lon="6.47466">
        <ele>855</ele>
        <time>2021-08-13T21:24:40.812Z</time>
      </trkpt>
      <trkpt lat="43.834" lon="6.47477">
        <ele>853</ele>
        <time>2021-08-13T21:24:41.714Z</time>
      </trkpt>
      <trkpt lat="43.83379" lon="6.47548">
        <ele>839</ele>
        <time>2021-08-13T21:24:47.821Z</time>
      </trkpt>
      <trkpt lat="43.83377" lon="6.4756">
        <ele>838</ele>
        <time>2021-08-13T21:24:48.801Z</time>
      </trkpt>
      <trkpt lat="43.83379" lon="6.47576">
        <ele>838</ele>
        <time>2021-08-13T21:24:51.974Z</time>
      </trkpt>
      <trkpt lat="43.83391" lon="6.47598">
        <ele>843</ele>
        <time>2021-08-13T21:25:12.759Z</time>
      </trkpt>
      <trkpt lat="43.83394" lon="6.47612">
        <ele>843</ele>
        <time>2021-08-13T21:25:15.613Z</time>
      </trkpt>
      <trkpt lat="43.83395" lon="6.47625">
        <ele>842</ele>
        <time>2021-08-13T21:25:16.653Z</time>
      </trkpt>
      <trkpt lat="43.83395" lon="6.47642">
        <ele>840</ele>
        <time>2021-08-13T21:25:18.006Z</time>
      </trkpt>
      <trkpt lat="43.83389" lon="6.4767">
        <ele>834</ele>
        <time>2021-08-13T21:25:20.330Z</time>
      </trkpt>
      <trkpt lat="43.8339" lon="6.47682">
        <ele>833</ele>
        <time>2021-08-13T21:25:21.291Z</time>
      </trkpt>
      <trkpt lat="43.83393" lon="6.47694">
        <ele>833</ele>
        <time>2021-08-13T21:25:23.773Z</time>
      </trkpt>
      <trkpt lat="43.83419" lon="6.47726">
        <ele>841</ele>
        <time>2021-08-13T21:26:00.096Z</time>
      </trkpt>
      <trkpt lat="43.83424" lon="6.47739">
        <ele>842</ele>
        <time>2021-08-13T21:26:07.174Z</time>
      </trkpt>
      <trkpt lat="43.83425" lon="6.47774">
        <ele>838</ele>
        <time>2021-08-13T21:26:09.961Z</time>
      </trkpt>
      <trkpt lat="43.83427" lon="6.47786">
        <ele>837</ele>
        <time>2021-08-13T21:26:10.941Z</time>
      </trkpt>
      <trkpt lat="43.83434" lon="6.47803">
        <ele>838</ele>
        <time>2021-08-13T21:26:18.685Z</time>
      </trkpt>
      <trkpt lat="43.83439" lon="6.47861">
        <ele>831</ele>
        <time>2021-08-13T21:26:23.333Z</time>
      </trkpt>
      <trkpt lat="43.83442" lon="6.47874">
        <ele>830</ele>
        <time>2021-08-13T21:26:24.419Z</time>
      </trkpt>
      <trkpt lat="43.83454" lon="6.47897">
        <ele>833</ele>
        <time>2021-08-13T21:26:45.811Z</time>
      </trkpt>
      <trkpt lat="43.83458" lon="6.47914">
        <ele>833</ele>
        <time>2021-08-13T21:26:49.304Z</time>
      </trkpt>
      <trkpt lat="43.8347" lon="6.48006">
        <ele>827</ele>
        <time>2021-08-13T21:26:56.744Z</time>
      </trkpt>
      <trkpt lat="43.8347" lon="6.48028">
        <ele>826</ele>
        <time>2021-08-13T21:26:58.393Z</time>
      </trkpt>
      <trkpt lat="43.83467" lon="6.48064">
        <ele>822</ele>
        <time>2021-08-13T21:27:01.277Z</time>
      </trkpt>
      <trkpt lat="43.83467" lon="6.48081">
        <ele>820</ele>
        <time>2021-08-13T21:27:02.630Z</time>
      </trkpt>
      <trkpt lat="43.83471" lon="6.48099">
        <ele>819</ele>
        <time>2021-08-13T21:27:04.129Z</time>
      </trkpt>
      <trkpt lat="43.83497" lon="6.48168">
        <ele>813</ele>
        <time>2021-08-13T21:27:10.323Z</time>
      </trkpt>
      <trkpt lat="43.83502" lon="6.48173">
        <ele>813</ele>
        <time>2021-08-13T21:27:11.993Z</time>
      </trkpt>
      <trkpt lat="43.83541" lon="6.48193">
        <ele>819</ele>
        <time>2021-08-13T21:27:55.435Z</time>
      </trkpt>
      <trkpt lat="43.83589" lon="6.48244">
        <ele>819</ele>
        <time>2021-08-13T21:28:11.815Z</time>
      </trkpt>
      <trkpt lat="43.83601" lon="6.48264">
        <ele>818</ele>
        <time>2021-08-13T21:28:13.926Z</time>
      </trkpt>
      <trkpt lat="43.83614" lon="6.48302">
        <ele>812</ele>
        <time>2021-08-13T21:28:17.272Z</time>
      </trkpt>
      <trkpt lat="43.83652" lon="6.48379">
        <ele>810</ele>
        <time>2021-08-13T21:28:26.719Z</time>
      </trkpt>
      <trkpt lat="43.83658" lon="6.48397">
        <ele>809</ele>
        <time>2021-08-13T21:28:28.297Z</time>
      </trkpt>
      <trkpt lat="43.83666" lon="6.48463">
        <ele>801</ele>
        <time>2021-08-13T21:28:33.622Z</time>
      </trkpt>
      <trkpt lat="43.83684" lon="6.48535">
        <ele>800</ele>
        <time>2021-08-13T21:28:42.403Z</time>
      </trkpt>
      <trkpt lat="43.83686" lon="6.48549">
        <ele>800</ele>
        <time>2021-08-13T21:28:45.191Z</time>
      </trkpt>
      <trkpt lat="43.83684" lon="6.4856">
        <ele>798</ele>
        <time>2021-08-13T21:28:46.094Z</time>
      </trkpt>
      <trkpt lat="43.83674" lon="6.48599">
        <ele>792</ele>
        <time>2021-08-13T21:28:49.388Z</time>
      </trkpt>
      <trkpt lat="43.83646" lon="6.48634">
        <ele>782</ele>
        <time>2021-08-13T21:28:53.547Z</time>
      </trkpt>
      <trkpt lat="43.83633" lon="6.48655">
        <ele>779</ele>
        <time>2021-08-13T21:28:55.749Z</time>
      </trkpt>
      <trkpt lat="43.83619" lon="6.48684">
        <ele>774</ele>
        <time>2021-08-13T21:28:58.525Z</time>
      </trkpt>
      <trkpt lat="43.83619" lon="6.48693">
        <ele>774</ele>
        <time>2021-08-13T21:29:00.284Z</time>
      </trkpt>
      <trkpt lat="43.83623" lon="6.48705">
        <ele>774</ele>
        <time>2021-08-13T21:29:02.866Z</time>
      </trkpt>
      <trkpt lat="43.83641" lon="6.48714">
        <ele>777</ele>
        <time>2021-08-13T21:29:22.857Z</time>
      </trkpt>
      <trkpt lat="43.83703" lon="6.48721">
        <ele>784</ele>
        <time>2021-08-13T21:30:12.765Z</time>
      </trkpt>
      <trkpt lat="43.83718" lon="6.48726">
        <ele>784</ele>
        <time>2021-08-13T21:30:16.944Z</time>
      </trkpt>
      <trkpt lat="43.8373" lon="6.48733">
        <ele>784</ele>
        <time>2021-08-13T21:30:20.470Z</time>
      </trkpt>
      <trkpt lat="43.83754" lon="6.48758">
        <ele>780</ele>
        <time>2021-08-13T21:30:23.782Z</time>
      </trkpt>
      <trkpt lat="43.83767" lon="6.48778">
        <ele>779</ele>
        <time>2021-08-13T21:30:25.999Z</time>
      </trkpt>
      <trkpt lat="43.83772" lon="6.48792">
        <ele>777</ele>
        <time>2021-08-13T21:30:27.242Z</time>
      </trkpt>
      <trkpt lat="43.83778" lon="6.48814">
        <ele>775</ele>
        <time>2021-08-13T21:30:29.114Z</time>
      </trkpt>
      <trkpt lat="43.83792" lon="6.48846">
        <ele>771</ele>
        <time>2021-08-13T21:30:32.092Z</time>
      </trkpt>
      <trkpt lat="43.83808" lon="6.48894">
        <ele>764</ele>
        <time>2021-08-13T21:30:36.299Z</time>
      </trkpt>
      <trkpt lat="43.83815" lon="6.48899">
        <ele>764</ele>
        <time>2021-08-13T21:30:38.432Z</time>
      </trkpt>
      <trkpt lat="43.83831" lon="6.48904">
        <ele>766</ele>
        <time>2021-08-13T21:30:53.126Z</time>
      </trkpt>
      <trkpt lat="43.83859" lon="6.48907">
        <ele>767</ele>
        <time>2021-08-13T21:31:04.414Z</time>
      </trkpt>
      <trkpt lat="43.83861" lon="6.48909">
        <ele>767</ele>
        <time>2021-08-13T21:31:05.082Z</time>
      </trkpt>
      <trkpt lat="43.83863" lon="6.48919">
        <ele>765</ele>
        <time>2021-08-13T21:31:05.908Z</time>
      </trkpt>
      <trkpt lat="43.83864" lon="6.48925">
        <ele>766</ele>
        <time>2021-08-13T21:31:10.548Z</time>
      </trkpt>
      <trkpt lat="43.83841" lon="6.48973">
        <ele>764</ele>
        <time>2021-08-13T21:31:15.436Z</time>
      </trkpt>
      <trkpt lat="43.83836" lon="6.48977">
        <ele>764</ele>
        <time>2021-08-13T21:31:17.000Z</time>
      </trkpt>
      <trkpt lat="43.83824" lon="6.48984">
        <ele>762</ele>
        <time>2021-08-13T21:31:18.436Z</time>
      </trkpt>
      <trkpt lat="43.83815" lon="6.48994">
        <ele>761</ele>
        <time>2021-08-13T21:31:19.708Z</time>
      </trkpt>
      <trkpt lat="43.83804" lon="6.49014">
        <ele>761</ele>
        <time>2021-08-13T21:31:24.622Z</time>
      </trkpt>
      <trkpt lat="43.83794" lon="6.4905">
        <ele>763</ele>
        <time>2021-08-13T21:31:40.005Z</time>
      </trkpt>
      <trkpt lat="43.83777" lon="6.49093">
        <ele>764</ele>
        <time>2021-08-13T21:31:52.933Z</time>
      </trkpt>
      <trkpt lat="43.83774" lon="6.4911">
        <ele>764</ele>
        <time>2021-08-13T21:31:56.352Z</time>
      </trkpt>
      <trkpt lat="43.83778" lon="6.49129">
        <ele>764</ele>
        <time>2021-08-13T21:32:00.219Z</time>
      </trkpt>
      <trkpt lat="43.83797" lon="6.49185">
        <ele>761</ele>
        <time>2021-08-13T21:32:05.143Z</time>
      </trkpt>
      <trkpt lat="43.838" lon="6.4919">
        <ele>760</ele>
        <time>2021-08-13T21:32:05.661Z</time>
      </trkpt>
      <trkpt lat="43.83816" lon="6.49194">
        <ele>758</ele>
        <time>2021-08-13T21:32:07.454Z</time>
      </trkpt>
      <trkpt lat="43.83832" lon="6.49202">
        <ele>755</ele>
        <time>2021-08-13T21:32:09.331Z</time>
      </trkpt>
      <trkpt lat="43.83872" lon="6.49235">
        <ele>749</ele>
        <time>2021-08-13T21:32:14.466Z</time>
      </trkpt>
      <trkpt lat="43.83887" lon="6.49251">
        <ele>744</ele>
        <time>2021-08-13T21:32:16.553Z</time>
      </trkpt>
      <trkpt lat="43.83916" lon="6.49267">
        <ele>741</ele>
        <time>2021-08-13T21:32:19.996Z</time>
      </trkpt>
      <trkpt lat="43.83937" lon="6.49284">
        <ele>742</ele>
        <time>2021-08-13T21:32:30.563Z</time>
      </trkpt>
      <trkpt lat="43.83951" lon="6.49302">
        <ele>740</ele>
        <time>2021-08-13T21:32:32.669Z</time>
      </trkpt>
      <trkpt lat="43.83966" lon="6.4934">
        <ele>735</ele>
        <time>2021-08-13T21:32:36.116Z</time>
      </trkpt>
      <trkpt lat="43.83978" lon="6.49359">
        <ele>734</ele>
        <time>2021-08-13T21:32:38.137Z</time>
      </trkpt>
      <trkpt lat="43.84009" lon="6.4942">
        <ele>727</ele>
        <time>2021-08-13T21:32:44.075Z</time>
      </trkpt>
      <trkpt lat="43.84044" lon="6.49459">
        <ele>730</ele>
        <time>2021-08-13T21:33:07.973Z</time>
      </trkpt>
      <trkpt lat="43.84108" lon="6.49545">
        <ele>724</ele>
        <time>2021-08-13T21:33:17.805Z</time>
      </trkpt>
      <trkpt lat="43.84109" lon="6.49552">
        <ele>723</ele>
        <time>2021-08-13T21:33:18.373Z</time>
      </trkpt>
      <trkpt lat="43.84129" lon="6.49571">
        <ele>722</ele>
        <time>2021-08-13T21:33:21.408Z</time>
      </trkpt>
      <trkpt lat="43.8418" lon="6.49632">
        <ele>726</ele>
        <time>2021-08-13T21:33:55.398Z</time>
      </trkpt>
      <trkpt lat="43.84172" lon="6.49635">
        <ele>723</ele>
        <time>2021-08-13T21:33:56.312Z</time>
      </trkpt>
      <trkpt lat="43.84156" lon="6.49628">
        <ele>721</ele>
        <time>2021-08-13T21:33:58.163Z</time>
      </trkpt>
      <trkpt lat="43.84144" lon="6.49628">
        <ele>720</ele>
        <time>2021-08-13T21:33:59.487Z</time>
      </trkpt>
      <trkpt lat="43.84132" lon="6.49635">
        <ele>719</ele>
        <time>2021-08-13T21:34:00.923Z</time>
      </trkpt>
      <trkpt lat="43.8412" lon="6.49644">
        <ele>718</ele>
        <time>2021-08-13T21:34:02.428Z</time>
      </trkpt>
      <trkpt lat="43.84093" lon="6.49659">
        <ele>716</ele>
        <time>2021-08-13T21:34:05.637Z</time>
      </trkpt>
      <trkpt lat="43.84063" lon="6.49677">
        <ele>715</ele>
        <time>2021-08-13T21:34:10.183Z</time>
      </trkpt>
      <trkpt lat="43.84026" lon="6.49697">
        <ele>714</ele>
        <time>2021-08-13T21:34:16.038Z</time>
      </trkpt>
      <trkpt lat="43.84022" lon="6.49699">
        <ele>714</ele>
        <time>2021-08-13T21:34:17.189Z</time>
      </trkpt>
      <trkpt lat="43.84026" lon="6.49708">
        <ele>714</ele>
        <time>2021-08-13T21:34:19.254Z</time>
      </trkpt>
      <trkpt lat="43.842" lon="6.50116">
        <ele>717</ele>
        <time>2021-08-13T21:35:59.943Z</time>
      </trkpt>
      <trkpt lat="43.84221" lon="6.50165">
        <ele>717</ele>
        <time>2021-08-13T21:36:11.078Z</time>
      </trkpt>
      <trkpt lat="43.84312" lon="6.50381">
        <ele>721</ele>
        <time>2021-08-13T21:37:12.398Z</time>
      </trkpt>
      <trkpt lat="43.84317" lon="6.50386">
        <ele>721</ele>
        <time>2021-08-13T21:37:14.067Z</time>
      </trkpt>
      <trkpt lat="43.84321" lon="6.50404">
        <ele>721</ele>
        <time>2021-08-13T21:37:17.747Z</time>
      </trkpt>
      <trkpt lat="43.84363" lon="6.50568">
        <ele>722</ele>
        <time>2021-08-13T21:37:54.420Z</time>
      </trkpt>
      <trkpt lat="43.84365" lon="6.50575">
        <ele>721</ele>
        <time>2021-08-13T21:37:55.019Z</time>
      </trkpt>
      <trkpt lat="43.84438" lon="6.50859">
        <ele>722</ele>
        <time>2021-08-13T21:38:56.505Z</time>
      </trkpt>
      <trkpt lat="43.84465" lon="6.50967">
        <ele>723</ele>
        <time>2021-08-13T21:39:21.625Z</time>
      </trkpt>
      <trkpt lat="43.8448" lon="6.51027">
        <ele>724</ele>
        <time>2021-08-13T21:39:37.131Z</time>
      </trkpt>
      <trkpt lat="43.84496" lon="6.51093">
        <ele>723</ele>
        <time>2021-08-13T21:39:44.992Z</time>
      </trkpt>
      <trkpt lat="43.84505" lon="6.51128">
        <ele>722</ele>
        <time>2021-08-13T21:39:48.475Z</time>
      </trkpt>
      <trkpt lat="43.8451" lon="6.5117">
        <ele>722</ele>
        <time>2021-08-13T21:39:56.790Z</time>
      </trkpt>
      <trkpt lat="43.84513" lon="6.51196">
        <ele>722</ele>
        <time>2021-08-13T21:40:01.934Z</time>
      </trkpt>
      <trkpt lat="43.84519" lon="6.51195">
        <ele>723</ele>
        <time>2021-08-13T21:40:08.247Z</time>
      </trkpt>
      <trkpt lat="43.84561" lon="6.51211">
        <ele>724</ele>
        <time>2021-08-13T21:40:23.186Z</time>
      </trkpt>
      <trkpt lat="43.84609" lon="6.51225">
        <ele>725</ele>
        <time>2021-08-13T21:40:39.522Z</time>
      </trkpt>
      <trkpt lat="43.84604" lon="6.51246">
        <ele>725</ele>
        <time>2021-08-13T21:40:43.842Z</time>
      </trkpt>
      <trkpt lat="43.84604" lon="6.51256">
        <ele>725</ele>
        <time>2021-08-13T21:40:45.795Z</time>
      </trkpt>
      <trkpt lat="43.84608" lon="6.51261">
        <ele>725</ele>
        <time>2021-08-13T21:40:47.254Z</time>
      </trkpt>
      <trkpt lat="43.84611" lon="6.51261">
        <ele>725</ele>
        <time>2021-08-13T21:40:48.067Z</time>
      </trkpt>
      <trkpt lat="43.84608" lon="6.51264">
        <ele>725</ele>
        <time>2021-08-13T21:40:49.068Z</time>
      </trkpt>
      <trkpt lat="43.84616" lon="6.51257">
        <ele>726</ele>
        <time>2021-08-13T21:40:56.124Z</time>
      </trkpt>
      <trkpt lat="43.84642" lon="6.51254">
        <ele>726</ele>
        <time>2021-08-13T21:41:03.190Z</time>
      </trkpt>
      <trkpt lat="43.84661" lon="6.51256">
        <ele>727</ele>
        <time>2021-08-13T21:41:12.364Z</time>
      </trkpt>
      <trkpt lat="43.84676" lon="6.51247">
        <ele>728</ele>
        <time>2021-08-13T21:41:20.717Z</time>
      </trkpt>
      <trkpt lat="43.84697" lon="6.51222">
        <ele>728</ele>
        <time>2021-08-13T21:41:28.213Z</time>
      </trkpt>
      <trkpt lat="43.84717" lon="6.51207">
        <ele>729</ele>
        <time>2021-08-13T21:41:38.526Z</time>
      </trkpt>
      <trkpt lat="43.84726" lon="6.51204">
        <ele>729</ele>
        <time>2021-08-13T21:41:41.033Z</time>
      </trkpt>
      <trkpt lat="43.8477" lon="6.51197">
        <ele>734</ele>
        <time>2021-08-13T21:42:16.712Z</time>
      </trkpt>
      <trkpt lat="43.84801" lon="6.51096">
        <ele>732</ele>
        <time>2021-08-13T21:42:28.370Z</time>
      </trkpt>
      <trkpt lat="43.84882" lon="6.50937">
        <ele>736</ele>
        <time>2021-08-13T21:43:19.824Z</time>
      </trkpt>
      <trkpt lat="43.84894" lon="6.50923">
        <ele>737</ele>
        <time>2021-08-13T21:43:27.987Z</time>
      </trkpt>
      <trkpt lat="43.84907" lon="6.50912">
        <ele>737</ele>
        <time>2021-08-13T21:43:32.112Z</time>
      </trkpt>
      <trkpt lat="43.84938" lon="6.50894">
        <ele>740</ele>
        <time>2021-08-13T21:43:53.542Z</time>
      </trkpt>
      <trkpt lat="43.8494" lon="6.50899">
        <ele>740</ele>
        <time>2021-08-13T21:43:54.659Z</time>
      </trkpt>
      <trkpt lat="43.84949" lon="6.50898">
        <ele>741</ele>
        <time>2021-08-13T21:44:01.763Z</time>
      </trkpt>
      <trkpt lat="43.84952" lon="6.50905">
        <ele>742</ele>
        <time>2021-08-13T21:44:07.898Z</time>
      </trkpt>
      <trkpt lat="43.84978" lon="6.5089">
        <ele>744</ele>
        <time>2021-08-13T21:44:23.365Z</time>
      </trkpt>
      <trkpt lat="43.84983" lon="6.50891">
        <ele>744</ele>
        <time>2021-08-13T21:44:24.733Z</time>
      </trkpt>
      <trkpt lat="43.85012" lon="6.50871">
        <ele>746</ele>
        <time>2021-08-13T21:44:41.352Z</time>
      </trkpt>
      <trkpt lat="43.85018" lon="6.5086">
        <ele>745</ele>
        <time>2021-08-13T21:44:42.449Z</time>
      </trkpt>
      <trkpt lat="43.85019" lon="6.50852">
        <ele>744</ele>
        <time>2021-08-13T21:44:43.095Z</time>
      </trkpt>
      <trkpt lat="43.85115" lon="6.50803">
        <ele>746</ele>
        <time>2021-08-13T21:45:16.846Z</time>
      </trkpt>
      <trkpt lat="43.85117" lon="6.50808">
        <ele>746</ele>
        <time>2021-08-13T21:45:17.963Z</time>
      </trkpt>
      <trkpt lat="43.85139" lon="6.5082">
        <ele>747</ele>
        <time>2021-08-13T21:45:28.417Z</time>
      </trkpt>
      <trkpt lat="43.85147" lon="6.50826">
        <ele>747</ele>
        <time>2021-08-13T21:45:30.880Z</time>
      </trkpt>
      <trkpt lat="43.85152" lon="6.5082">
        <ele>747</ele>
        <time>2021-08-13T21:45:32.671Z</time>
      </trkpt>
      <trkpt lat="43.85166" lon="6.50815">
        <ele>747</ele>
        <time>2021-08-13T21:45:36.587Z</time>
      </trkpt>
      <trkpt lat="43.85171" lon="6.50817">
        <ele>747</ele>
        <time>2021-08-13T21:45:37.996Z</time>
      </trkpt>
      <trkpt lat="43.85172" lon="6.50812">
        <ele>747</ele>
        <time>2021-08-13T21:45:39.010Z</time>
      </trkpt>
      <trkpt lat="43.85181" lon="6.50819">
        <ele>747</ele>
        <time>2021-08-13T21:45:41.805Z</time>
      </trkpt>
    </trkseg>
  </trk>
</gpx>